Darstellungsparameter: Aktuell verwendete Einstellungen:
Skalierung der Graphiken ... ?
xyx+y,   Skalierungsfaktor:      Skalierung: Modus: x, Faktor: 1
Darstellungszeitraum ... ?
Vom - - bis: - -   Zeitraum: 08.03.2010 - 07.09.2010
Min/Max/Avg-Anzeige ... ?
Zeige MMA aktuell
Zeige MMA Monat
Zeige MMA alles
Zeige --A aktuell
Zeige --A Monat
Zeige --A alles
Keine MMA-Anzeige
MMA:
Minimum Maximum Average (ber die Originaldaten)
MMA-Basis: 08.03.2010 - 07.09.2010
Quicknavigation für Darstellung... ?
Tage:      1T, 2T, 3T, 5T -1T -2T -3T -5T +1T +2T +3T +5T
Wochen: 1W, 2W, 3W -1W -2W -3W +1W +2W +3W
Monate: 1M, 3M, 6M -1M -3M -6M +1M +3M +6M
Jahre:    1J, 3J, 5J, 10J -1J -3J -5J -10J +1J +3J +5J +10J
Nutze für die Darstellung ... ?
Originaldaten oder Mittelwerte auf ...
Stundenbasis Tagesbasis Wochenbasis
Monatsbasis Jahresbasis      Datenbasis: Original-Daten
Darstellen als:
Statistik (Auto) Statistik J:M      Darstellung:
Zur Graphik,    zurück zur Übersicht aller Sensoren.
 
Tabellarische Datenbersicht: ?
 
Sensor: Nr:Datum:Temp:Abs-Feuchte:Windchill:Wind:
Aussen-T/F 1 08-03-2010 00:03:04 -3.9 C 1.81 g/m*3 -3.9 C 0 km/h
2 08-03-2010 00:15:04 -4 C 1.83 g/m*3 -4 C 0 km/h
3 08-03-2010 00:27:04 -4.2 C 1.77 g/m*3 -4.2 C 0 km/h
4 08-03-2010 00:39:04 -4.3 C 1.79 g/m*3 -4.3 C 0 km/h
5 08-03-2010 00:51:04 -4.5 C 1.8 g/m*3 -4.5 C 0 km/h
6 08-03-2010 01:03:04 -4.5 C 1.76 g/m*3 -4.5 C 0 km/h
7 08-03-2010 01:15:04 -4.6 C 1.75 g/m*3 -4.6 C 0 km/h
8 08-03-2010 01:27:04 -4.6 C 1.75 g/m*3 -4.6 C 0 km/h
9 08-03-2010 01:39:04 -4.7 C 1.7 g/m*3 -4.7 C 0 km/h
10 08-03-2010 01:51:04 -4.8 C 1.73 g/m*3 -4.8 C 0 km/h
11 08-03-2010 02:03:04 -5 C 1.7 g/m*3 -5 C 0 km/h
12 08-03-2010 02:15:04 -4.9 C 1.68 g/m*3 -4.9 C 0 km/h
13 08-03-2010 02:27:04 -5 C 1.6 g/m*3 -5 C 0 km/h
14 08-03-2010 02:39:04 -4.7 C 1.53 g/m*3 -4.7 C 0 km/h
15 08-03-2010 02:51:04 -5 C 1.63 g/m*3 -5 C 0 km/h
16 08-03-2010 03:03:04 -5.3 C 1.7 g/m*3 -5.3 C 0 km/h
17 08-03-2010 03:15:05 -5.8 C 1.67 g/m*3 -5.8 C 0 km/h
18 08-03-2010 03:27:05 -5.9 C 1.72 g/m*3 -5.9 C 0 km/h
19 08-03-2010 03:39:05 -5.8 C 1.74 g/m*3 -5.8 C 0 km/h
20 08-03-2010 03:51:05 -6 C 1.71 g/m*3 -6 C 0 km/h
21 08-03-2010 04:03:05 -6.1 C 1.73 g/m*3 -6.1 C 0 km/h
22 08-03-2010 04:15:05 -6.1 C 1.73 g/m*3 -6.1 C 0 km/h
23 08-03-2010 04:27:05 -6.4 C 1.72 g/m*3 -6.4 C 0 km/h
24 08-03-2010 04:39:05 -6.4 C 1.75 g/m*3 -6.4 C 0 km/h
25 08-03-2010 04:51:05 -6.6 C 1.73 g/m*3 -6.6 C 0 km/h
Sensor: Nr:Datum:Temp:Abs-Feuchte:Windchill:Wind:
Aussen-T/F 26 08-03-2010 05:03:05 -6.6 C 1.73 g/m*3 -6.6 C 0 km/h
27 08-03-2010 05:15:05 -6.8 C 1.73 g/m*3 -6.8 C 0 km/h
28 08-03-2010 05:27:05 -6.9 C 1.75 g/m*3 -6.9 C 0 km/h
29 08-03-2010 05:39:05 -7.1 C 1.72 g/m*3 -7.1 C 0 km/h
30 08-03-2010 05:51:05 -7.2 C 1.74 g/m*3 -7.2 C 0 km/h
31 08-03-2010 06:03:05 -7.3 C 1.76 g/m*3 -7.3 C 0 km/h
32 08-03-2010 06:15:05 -7.3 C 1.76 g/m*3 -7.3 C 0 km/h
33 08-03-2010 06:27:05 -7.3 C 1.76 g/m*3 -7.3 C 0 km/h
34 08-03-2010 06:39:05 -7.2 C 1.83 g/m*3 -7.2 C 0 km/h
35 08-03-2010 06:51:05 -7.4 C 1.83 g/m*3 -7.4 C 0 km/h
36 08-03-2010 07:03:02 -7.4 C 1.83 g/m*3 -7.4 C 0 km/h
37 08-03-2010 07:15:03 -7.5 C 1.82 g/m*3 -7.5 C 0 km/h
38 08-03-2010 07:27:03 -7.3 C 1.9 g/m*3 -7.3 C 0 km/h
39 08-03-2010 07:39:03 -7 C 1.97 g/m*3 -7 C 0 km/h
40 08-03-2010 07:51:01 -6.5 C 2.05 g/m*3 -6.5 C 0 km/h
41 08-03-2010 08:03:01 -6.1 C 2.11 g/m*3 -6.1 C 0 km/h
42 08-03-2010 08:15:01 -5.8 C 2.09 g/m*3 -5.8 C 0 km/h
43 08-03-2010 08:27:01 -5.3 C 2.1 g/m*3 -5.3 C 0 km/h
44 08-03-2010 08:39:02 -5 C 2.08 g/m*3 -5 C 0 km/h
45 08-03-2010 08:51:02 -4.5 C 2.12 g/m*3 -4.5 C 0 km/h
46 08-03-2010 09:03:02 -4.2 C 2.02 g/m*3 -4.2 C 0 km/h
47 08-03-2010 09:15:02 -3.7 C 2.06 g/m*3 -3.7 C 0 km/h
48 08-03-2010 09:27:02 -3.1 C 2.15 g/m*3 -3.1 C 0 km/h
49 08-03-2010 09:39:02 -2.5 C 2.12 g/m*3 -2.5 C 0 km/h
50 08-03-2010 09:51:02 -2.1 C 2.01 g/m*3 -2.1 C 0 km/h
Sensor: Nr:Datum:Temp:Abs-Feuchte:Windchill:Wind:
Aussen-T/F 51 08-03-2010 10:03:01 -1.7 C 2.02 g/m*3 -1.7 C 0 km/h
52 08-03-2010 10:15:01 -1.3 C 1.99 g/m*3 -1.3 C 0 km/h
53 08-03-2010 10:27:01 -0.6 C 1.95 g/m*3 -0.6 C 0 km/h
54 08-03-2010 10:39:02 0 C 1.94 g/m*3 0 C 0 km/h
55 08-03-2010 10:51:02 0.4 C 1.74 g/m*3 0.4 C 0 km/h
56 08-03-2010 11:03:01 0.7 C 1.78 g/m*3 0.7 C 0 km/h
57 08-03-2010 11:15:02 1.1 C 1.83 g/m*3 1.1 C 0 km/h
58 08-03-2010 11:27:02 1.3 C 1.7 g/m*3 1.3 C 0 km/h
59 08-03-2010 11:39:02 1.7 C 1.85 g/m*3 1.7 C 0 km/h
60 08-03-2010 11:51:01 2.4 C 1.77 g/m*3 2.4 C 0 km/h
61 08-03-2010 12:03:02 2.6 C 1.62 g/m*3 2.6 C 0 km/h
62 08-03-2010 12:15:01 3.1 C 1.68 g/m*3 3.1 C 0 km/h
63 08-03-2010 12:27:01 3.2 C 1.63 g/m*3 3.2 C 0 km/h
64 08-03-2010 12:39:02 3.4 C 1.53 g/m*3 3.4 C 0 km/h
65 08-03-2010 12:51:02 3.2 C 1.39 g/m*3 3.2 C 0 km/h
66 08-03-2010 13:03:02 3.2 C 1.51 g/m*3 3.2 C 0 km/h
67 08-03-2010 13:15:02 3.6 C 1.61 g/m*3 3.6 C 0 km/h
68 08-03-2010 13:27:02 4.5 C 1.31 g/m*3 4.5 C 0 km/h
69 08-03-2010 13:39:02 4.9 C 1.35 g/m*3 4.9 C 0 km/h
70 08-03-2010 13:51:02 4.9 C 1.35 g/m*3 4.9 C 0 km/h
71 08-03-2010 14:03:02 4.8 C 1.34 g/m*3 4.8 C 0 km/h
72 08-03-2010 14:15:02 3.9 C 1.26 g/m*3 3.9 C 0 km/h
73 08-03-2010 14:27:02 3.5 C 1.41 g/m*3 3.5 C 0 km/h
74 08-03-2010 14:39:02 3.8 C 1.44 g/m*3 3.8 C 0 km/h
75 08-03-2010 14:51:02 4.6 C 1.32 g/m*3 4.6 C 0 km/h
Sensor: Nr:Datum:Temp:Abs-Feuchte:Windchill:Wind:
Aussen-T/F 76 08-03-2010 15:03:01 4.3 C 1.3 g/m*3 4.3 C 0 km/h
77 08-03-2010 15:15:02 4.9 C 1.35 g/m*3 4.9 C 0 km/h
78 08-03-2010 15:27:02 5.1 C 1.37 g/m*3 5.1 C 0 km/h
79 08-03-2010 15:39:01 6.4 C 1.49 g/m*3 6.4 C 0 km/h
80 08-03-2010 15:51:02 6.7 C 1.52 g/m*3 6.7 C 0 km/h
81 08-03-2010 16:03:01 6.5 C 1.5 g/m*3 6.5 C 0 km/h
82 08-03-2010 16:15:02 6.6 C 1.51 g/m*3 6.6 C 0 km/h
83 08-03-2010 16:27:02 6.9 C 1.54 g/m*3 6.9 C 0 km/h
84 08-03-2010 16:39:01 6.7 C 1.52 g/m*3 6.7 C 0 km/h
85 08-03-2010 16:51:02 6.4 C 1.49 g/m*3 6.4 C 0 km/h
86 08-03-2010 17:03:02 6.2 C 1.47 g/m*3 6.2 C 0 km/h
87 08-03-2010 17:15:02 6.3 C 1.48 g/m*3 6.3 C 0 km/h
88 08-03-2010 17:27:02 5.8 C 1.43 g/m*3 5.8 C 0 km/h
89 08-03-2010 17:39:02 4.6 C 1.32 g/m*3 4.6 C 0 km/h
90 08-03-2010 17:51:02 4.2 C 1.29 g/m*3 4.2 C 0 km/h
91 08-03-2010 18:03:02 3.7 C 1.56 g/m*3 3.7 C 0 km/h
92 08-03-2010 18:15:01 2.9 C 1.71 g/m*3 2.9 C 0 km/h
93 08-03-2010 18:27:01 1.8 C 1.75 g/m*3 1.8 C 0 km/h
94 08-03-2010 18:39:02 1.4 C 1.87 g/m*3 1.4 C 0 km/h
95 08-03-2010 18:51:02 0.7 C 2.03 g/m*3 0.7 C 0 km/h
96 08-03-2010 19:03:02 0.4 C 2.04 g/m*3 0.4 C 0 km/h
97 08-03-2010 19:15:02 0.1 C 2.1 g/m*3 0.1 C 0 km/h
98 08-03-2010 19:27:02 -0.2 C 2.15 g/m*3 -0.2 C 0 km/h
99 08-03-2010 19:39:02 -0.3 C 2.04 g/m*3 -0.3 C 0 km/h
100 08-03-2010 19:51:01 -0.3 C 1.99 g/m*3 -0.3 C 0 km/h
Sensor: Nr:Datum:Temp:Abs-Feuchte:Windchill:Wind:
Aussen-T/F 101 08-03-2010 20:03:02 -0.6 C 2 g/m*3 -0.6 C 0 km/h
102 08-03-2010 20:15:01 -0.7 C 2.08 g/m*3 -0.7 C 0 km/h
103 08-03-2010 20:27:01 -1.1 C 2.11 g/m*3 -1.1 C 0 km/h
104 08-03-2010 20:39:01 -1.2 C 2.1 g/m*3 -1.2 C 0 km/h
105 08-03-2010 20:51:01 -1.4 C 2.15 g/m*3 -1.4 C 0 km/h
106 08-03-2010 21:03:02 -1.4 C 2.15 g/m*3 -1.4 C 0 km/h
107 08-03-2010 21:15:01 -1.5 C 2.18 g/m*3 -1.5 C 0 km/h
108 08-03-2010 21:27:01 -1.3 C 2.26 g/m*3 -1.3 C 0 km/h
109 08-03-2010 21:40:03 -1.3 C 2.26 g/m*3 -1.3 C 0 km/h
110 08-03-2010 21:52:03 -1.2 C 2.32 g/m*3 -1.2 C 0 km/h
111 08-03-2010 22:04:03 -1.2 C 2.36 g/m*3 -1.2 C 0 km/h
112 08-03-2010 22:16:03 -1.2 C 2.32 g/m*3 -1.2 C 0 km/h
113 08-03-2010 22:28:03 -1.1 C 2.24 g/m*3 -1.1 C 0 km/h
114 08-03-2010 22:40:03 -0.9 C 2.09 g/m*3 -0.9 C 0 km/h
115 08-03-2010 22:52:03 -1 C 2.08 g/m*3 -1 C 0 km/h
116 08-03-2010 23:04:03 -1.4 C 2.07 g/m*3 -1.4 C 0 km/h
117 08-03-2010 23:16:04 -1.8 C 2.05 g/m*3 -1.8 C 0 km/h
118 08-03-2010 23:28:04 -1.9 C 2.04 g/m*3 -1.9 C 0 km/h
119 08-03-2010 23:40:04 -1.9 C 2.08 g/m*3 -1.9 C 0 km/h
120 08-03-2010 23:52:04 -2 C 2.11 g/m*3 -2 C 0 km/h
121 09-03-2010 00:04:04 -2.1 C 2.13 g/m*3 -2.1 C 0 km/h
122 09-03-2010 00:16:04 -2.2 C 2.12 g/m*3 -2.2 C 0 km/h
123 09-03-2010 00:28:04 -2.4 C 2.09 g/m*3 -2.4 C 0 km/h
124 09-03-2010 00:40:04 -2.4 C 2.09 g/m*3 -2.4 C 0 km/h
125 09-03-2010 00:52:04 -2.6 C 2.14 g/m*3 -2.6 C 0 km/h
Sensor: Nr:Datum:Temp:Abs-Feuchte:Windchill:Wind:
Aussen-T/F 126 09-03-2010 01:04:04 -2.8 C 2.15 g/m*3 -2.8 C 0 km/h
127 09-03-2010 01:16:04 -3 C 2.2 g/m*3 -3 C 0 km/h
128 09-03-2010 01:28:04 -3.1 C 2.22 g/m*3 -3.1 C 0 km/h
129 09-03-2010 01:40:04 -3.2 C 2.21 g/m*3 -3.2 C 0 km/h
130 09-03-2010 01:52:04 -3.3 C 2.19 g/m*3 -3.3 C 0 km/h
131 09-03-2010 02:04:04 -3.4 C 2.18 g/m*3 -3.4 C 0 km/h
132 09-03-2010 02:16:05 -3.4 C 2.21 g/m*3 -3.4 C 0 km/h
133 09-03-2010 02:28:05 -3.3 C 2.23 g/m*3 -3.3 C 0 km/h
134 09-03-2010 02:40:05 -3.3 C 2.23 g/m*3 -3.3 C 0 km/h
135 09-03-2010 02:52:05 -3.5 C 2.24 g/m*3 -3.5 C 0 km/h
136 09-03-2010 03:04:05 -3.7 C 2.24 g/m*3 -3.7 C 0 km/h
137 09-03-2010 03:16:05 -3.8 C 2.23 g/m*3 -3.8 C 0 km/h
138 09-03-2010 03:28:05 -3.9 C 2.25 g/m*3 -3.9 C 0 km/h
139 09-03-2010 03:40:05 -4 C 2.27 g/m*3 -4 C 0 km/h
140 09-03-2010 03:52:05 -4.1 C 2.29 g/m*3 -4.1 C 0 km/h
141 09-03-2010 04:04:05 -4.2 C 2.27 g/m*3 -4.2 C 0 km/h
142 09-03-2010 04:16:05 -4.3 C 2.29 g/m*3 -4.3 C 0 km/h
143 09-03-2010 04:28:05 -4.5 C 2.22 g/m*3 -4.5 C 0 km/h
144 09-03-2010 04:40:05 -4.5 C 2.19 g/m*3 -4.5 C 0 km/h
145 09-03-2010 04:52:05 -4.5 C 2.19 g/m*3 -4.5 C 0 km/h
146 09-03-2010 05:04:05 -4.6 C 2.17 g/m*3 -4.6 C 0 km/h
147 09-03-2010 05:16:05 -4.7 C 2.16 g/m*3 -4.7 C 0 km/h
148 09-03-2010 05:28:05 -4.8 C 2.14 g/m*3 -4.8 C 0 km/h
149 09-03-2010 05:40:05 -4.9 C 2.16 g/m*3 -4.9 C 0 km/h
150 09-03-2010 05:52:05 -4.9 C 2.16 g/m*3 -4.9 C 0 km/h
Sensor: Nr:Datum:Temp:Abs-Feuchte:Windchill:Wind:
Aussen-T/F 151 09-03-2010 06:04:05 -4.8 C 2.14 g/m*3 -4.8 C 0 km/h
152 09-03-2010 06:16:05 -4.8 C 2.14 g/m*3 -4.8 C 0 km/h
153 09-03-2010 06:28:05 -4.9 C 2.13 g/m*3 -4.9 C 0 km/h
154 09-03-2010 06:40:06 -5.2 C 2.08 g/m*3 -5.2 C 0 km/h
155 09-03-2010 06:52:06 -5.3 C 2.07 g/m*3 -5.3 C 0 km/h
156 09-03-2010 07:04:03 -5.6 C 2.05 g/m*3 -5.6 C 0 km/h
157 09-03-2010 07:16:03 -5.6 C 2.09 g/m*3 -5.6 C 0 km/h
158 09-03-2010 07:28:03 -5.4 C 2.15 g/m*3 -5.4 C 0 km/h
159 09-03-2010 07:40:03 -5.3 C 2.17 g/m*3 -5.3 C 0 km/h
160 09-03-2010 07:52:02 -5.3 C 2.17 g/m*3 -5.3 C 0 km/h
161 09-03-2010 08:04:02 -5.2 C 2.18 g/m*3 -5.2 C 0 km/h
162 09-03-2010 08:16:02 -5 C 2.18 g/m*3 -5 C 0 km/h
163 09-03-2010 08:28:02 -4.9 C 2.16 g/m*3 -4.9 C 0 km/h
164 09-03-2010 08:40:02 -4.8 C 2.14 g/m*3 -4.8 C 0 km/h
165 09-03-2010 08:52:02 -4.7 C 2.16 g/m*3 -4.7 C 0 km/h
166 09-03-2010 09:04:01 -4.5 C 2.19 g/m*3 -4.5 C 0 km/h
167 09-03-2010 09:16:02 -4.2 C 2.16 g/m*3 -4.2 C 0 km/h
168 09-03-2010 09:28:02 -3.9 C 2.17 g/m*3 -3.9 C 0 km/h
169 09-03-2010 09:40:01 -3.4 C 2.18 g/m*3 -3.4 C 0 km/h
170 09-03-2010 09:52:02 -2.7 C 2.13 g/m*3 -2.7 C 0 km/h
171 09-03-2010 10:04:01 -2.4 C 2.09 g/m*3 -2.4 C 0 km/h
172 09-03-2010 10:16:01 -1.9 C 2.08 g/m*3 -1.9 C 0 km/h
173 09-03-2010 10:28:01 -1.2 C 2.05 g/m*3 -1.2 C 0 km/h
174 09-03-2010 10:40:02 -0.7 C 1.94 g/m*3 -0.7 C 0 km/h
175 09-03-2010 10:52:02 -0.4 C 1.84 g/m*3 -0.4 C 0 km/h
Sensor: Nr:Datum:Temp:Abs-Feuchte:Windchill:Wind:
Aussen-T/F 176 09-03-2010 11:04:01 -0.1 C 1.73 g/m*3 -0.1 C 0 km/h
177 09-03-2010 11:16:02 0.3 C 1.63 g/m*3 0.3 C 0 km/h
178 09-03-2010 11:28:02 0.5 C 1.5 g/m*3 0.5 C 0 km/h
179 09-03-2010 11:40:02 0.5 C 1.3 g/m*3 0.5 C 0 km/h
180 09-03-2010 11:52:01 0.8 C 1.28 g/m*3 0.8 C 0 km/h
181 09-03-2010 12:04:02 1 C 1.09 g/m*3 1 C 0 km/h
182 09-03-2010 12:16:01 1.3 C 1.06 g/m*3 1.3 C 0 km/h
183 09-03-2010 12:28:01 1.6 C 1.14 g/m*3 1.6 C 0 km/h
184 09-03-2010 12:40:02 1.8 C 1.1 g/m*3 1.8 C 0 km/h
185 09-03-2010 12:52:02 2.2 C 1.13 g/m*3 2.2 C 0 km/h
186 09-03-2010 13:04:02 2.2 C 1.13 g/m*3 2.2 C 0 km/h
187 09-03-2010 13:16:01 2.9 C 1.18 g/m*3 2.9 C 0 km/h
188 09-03-2010 13:28:01 3.2 C 1.21 g/m*3 3.2 C 0 km/h
189 09-03-2010 13:40:02 3.5 C 1.23 g/m*3 3.5 C 0 km/h
190 09-03-2010 13:52:02 3.7 C 1.25 g/m*3 3.7 C 0 km/h
191 09-03-2010 14:04:02 3.9 C 1.26 g/m*3 3.9 C 0 km/h
192 09-03-2010 14:16:02 4.5 C 1.31 g/m*3 4.5 C 0 km/h
193 09-03-2010 14:28:02 4.9 C 1.35 g/m*3 4.9 C 0 km/h
194 09-03-2010 14:40:02 5.3 C 1.39 g/m*3 5.3 C 0 km/h
195 09-03-2010 14:52:02 5.7 C 1.42 g/m*3 5.7 C 0 km/h
196 09-03-2010 15:04:02 5.7 C 1.42 g/m*3 5.7 C 0 km/h
197 09-03-2010 15:16:02 5.7 C 1.42 g/m*3 5.7 C 0 km/h
198 09-03-2010 15:28:02 5.7 C 1.42 g/m*3 5.7 C 0 km/h
199 09-03-2010 15:40:02 6.2 C 1.47 g/m*3 6.2 C 0 km/h
200 09-03-2010 15:52:02 6 C 1.45 g/m*3 6 C 0 km/h
Sensor: Nr:Datum:Temp:Abs-Feuchte:Windchill:Wind:
Aussen-T/F 201 09-03-2010 16:04:02 5.9 C 1.44 g/m*3 5.9 C 0 km/h
202 09-03-2010 16:16:02 5.8 C 1.43 g/m*3 5.8 C 0 km/h
203 09-03-2010 16:28:02 6.3 C 1.48 g/m*3 6.3 C 0 km/h
204 09-03-2010 16:40:02 6.3 C 1.48 g/m*3 6.3 C 0 km/h
205 09-03-2010 16:52:02 6.2 C 1.47 g/m*3 6.2 C 0 km/h
206 09-03-2010 17:04:02 5.5 C 1.4 g/m*3 5.5 C 0 km/h
207 09-03-2010 17:16:03 5.2 C 1.38 g/m*3 5.2 C 0 km/h
208 09-03-2010 17:28:03 4.8 C 1.34 g/m*3 4.8 C 0 km/h
209 09-03-2010 17:40:02 4.4 C 1.31 g/m*3 4.4 C 0 km/h
210 09-03-2010 17:52:02 4 C 1.27 g/m*3 4 C 0 km/h
211 09-03-2010 18:04:02 3.2 C 1.21 g/m*3 3.2 C 0 km/h
212 09-03-2010 18:16:02 2.4 C 1.14 g/m*3 2.4 C 0 km/h
213 09-03-2010 18:28:02 1.5 C 1.07 g/m*3 1.5 C 0 km/h
214 09-03-2010 18:40:02 1.1 C 1.05 g/m*3 1.1 C 0 km/h
215 09-03-2010 18:52:02 0.7 C 1.02 g/m*3 0.7 C 0 km/h
216 09-03-2010 19:04:02 0.5 C 1 g/m*3 0.5 C 0 km/h
217 09-03-2010 19:16:02 0.2 C 0.98 g/m*3 0.2 C 0 km/h
218 09-03-2010 19:28:02 -0.1 C 0.96 g/m*3 -0.1 C 0 km/h
219 09-03-2010 19:40:02 -0.3 C 0.95 g/m*3 -0.3 C 0 km/h
220 09-03-2010 19:52:02 -0.6 C 0.93 g/m*3 -0.6 C 0 km/h
221 09-03-2010 20:04:01 -0.6 C 0.93 g/m*3 -0.6 C 0 km/h
222 09-03-2010 20:16:02 -0.8 C 0.92 g/m*3 -0.8 C 0 km/h
223 09-03-2010 20:28:03 -1.2 C 0.89 g/m*3 -1.2 C 0 km/h
224 09-03-2010 20:40:01 -1.4 C 0.88 g/m*3 -1.4 C 0 km/h
225 09-03-2010 20:52:02 -1.5 C 0.92 g/m*3 -1.5 C 0 km/h
Sensor: Nr:Datum:Temp:Abs-Feuchte:Windchill:Wind:
Aussen-T/F 226 09-03-2010 21:04:01 -1.7 C 0.9 g/m*3 -1.7 C 0 km/h
227 09-03-2010 21:16:02 -1.7 C 0.86 g/m*3 -1.7 C 0 km/h
228 09-03-2010 21:28:02 -1.9 C 0.85 g/m*3 -1.9 C 0 km/h
229 09-03-2010 21:40:02 -1.8 C 0.85 g/m*3 -1.8 C 0 km/h
230 09-03-2010 21:52:02 -1.9 C 0.85 g/m*3 -1.9 C 0 km/h
231 09-03-2010 22:04:02 -1.8 C 0.85 g/m*3 -1.8 C 0 km/h
232 09-03-2010 22:16:02 -1.7 C 0.86 g/m*3 -1.7 C 0 km/h
233 09-03-2010 22:28:02 -1.7 C 0.86 g/m*3 -1.7 C 0 km/h
234 09-03-2010 22:40:02 -1.8 C 0.85 g/m*3 -1.8 C 0 km/h
235 09-03-2010 22:52:02 -1.8 C 0.9 g/m*3 -1.8 C 0 km/h
236 09-03-2010 23:05:02 -2 C 1.1 g/m*3 -2 C 0 km/h
237 09-03-2010 23:17:02 -2.3 C 1.24 g/m*3 -2.3 C 0 km/h
238 09-03-2010 23:29:02 -2.4 C 1.27 g/m*3 -2.4 C 0 km/h
239 09-03-2010 23:41:02 -2.5 C 1.34 g/m*3 -2.5 C 0 km/h
240 09-03-2010 23:53:02 -2.6 C 1.41 g/m*3 -2.6 C 0 km/h
241 10-03-2010 00:05:02 -2.7 C 1.48 g/m*3 -2.7 C 0 km/h
242 10-03-2010 00:17:02 -2.8 C 1.55 g/m*3 -2.8 C 0 km/h
243 10-03-2010 00:29:02 -2.7 C 1.56 g/m*3 -2.7 C 0 km/h
244 10-03-2010 00:41:02 -2.6 C 1.58 g/m*3 -2.6 C 0 km/h
245 10-03-2010 00:53:02 -2.7 C 1.6 g/m*3 -2.7 C 0 km/h
246 10-03-2010 01:05:03 -3 C 1.65 g/m*3 -3 C 0 km/h
247 10-03-2010 01:17:03 -3.1 C 1.68 g/m*3 -3.1 C 0 km/h
248 10-03-2010 01:29:03 -3.2 C 1.7 g/m*3 -3.2 C 0 km/h
249 10-03-2010 01:41:03 -3 C 1.73 g/m*3 -3 C 0 km/h
250 10-03-2010 01:53:03 -3.4 C 1.72 g/m*3 -3.4 C 0 km/h
Sensor: Nr:Datum:Temp:Abs-Feuchte:Windchill:Wind:
Aussen-T/F 251 10-03-2010 02:05:03 -3.4 C 1.76 g/m*3 -3.4 C 0 km/h
252 10-03-2010 02:17:03 -3.5 C 1.74 g/m*3 -3.5 C 0 km/h
253 10-03-2010 02:29:03 -3.6 C 1.77 g/m*3 -3.6 C 0 km/h
254 10-03-2010 02:41:03 -3.8 C 1.78 g/m*3 -3.8 C 0 km/h
255 10-03-2010 02:53:03 -3.8 C 1.78 g/m*3 -3.8 C 0 km/h
256 10-03-2010 03:05:03 -3.8 C 1.78 g/m*3 -3.8 C 0 km/h
257 10-03-2010 03:17:03 -3.8 C 1.82 g/m*3 -3.8 C 0 km/h
258 10-03-2010 03:29:03 -3.9 C 1.81 g/m*3 -3.9 C 0 km/h
259 10-03-2010 03:41:03 -3.9 C 1.77 g/m*3 -3.9 C 0 km/h
260 10-03-2010 03:53:03 -3.9 C 1.77 g/m*3 -3.9 C 0 km/h
261 10-03-2010 04:05:03 -3.6 C 1.81 g/m*3 -3.6 C 0 km/h
262 10-03-2010 04:17:03 -3.5 C 1.78 g/m*3 -3.5 C 0 km/h
263 10-03-2010 04:29:03 -3.5 C 1.74 g/m*3 -3.5 C 0 km/h
264 10-03-2010 04:41:03 -3.5 C 1.74 g/m*3 -3.5 C 0 km/h
265 10-03-2010 04:53:03 -3.5 C 1.71 g/m*3 -3.5 C 0 km/h
266 10-03-2010 05:05:03 -3.6 C 1.69 g/m*3 -3.6 C 0 km/h
267 10-03-2010 05:17:03 -3.5 C 1.71 g/m*3 -3.5 C 0 km/h
268 10-03-2010 05:29:04 -3.5 C 1.71 g/m*3 -3.5 C 0 km/h
269 10-03-2010 05:41:04 -3.5 C 1.71 g/m*3 -3.5 C 0 km/h
270 10-03-2010 05:53:04 -3.4 C 1.68 g/m*3 -3.4 C 0 km/h
271 10-03-2010 06:05:04 -3.6 C 1.66 g/m*3 -3.6 C 0 km/h
272 10-03-2010 06:17:04 -3.6 C 1.69 g/m*3 -3.6 C 0 km/h
273 10-03-2010 06:29:04 -3.9 C 1.69 g/m*3 -3.9 C 0 km/h
274 10-03-2010 06:41:04 -3.8 C 1.67 g/m*3 -3.8 C 0 km/h
275 10-03-2010 06:53:04 -3.7 C 1.68 g/m*3 -3.7 C 0 km/h
Sensor: Nr:Datum:Temp:Abs-Feuchte:Windchill:Wind:
Aussen-T/F 276 10-03-2010 07:05:02 -3.7 C 1.68 g/m*3 -3.7 C 0 km/h
277 10-03-2010 07:17:02 -3.6 C 1.69 g/m*3 -3.6 C 0 km/h
278 10-03-2010 07:29:02 -3.6 C 1.69 g/m*3 -3.6 C 0 km/h
279 10-03-2010 07:41:02 -3.4 C 1.72 g/m*3 -3.4 C 0 km/h
280 10-03-2010 07:53:02 -3 C 1.69 g/m*3 -3 C 0 km/h
281 10-03-2010 08:05:02 -2.7 C 1.69 g/m*3 -2.7 C 0 km/h
282 10-03-2010 08:17:02 -2.5 C 1.67 g/m*3 -2.5 C 0 km/h
283 10-03-2010 08:29:02 -2.1 C 1.67 g/m*3 -2.1 C 0 km/h
284 10-03-2010 08:41:02 -1.8 C 1.62 g/m*3 -1.8 C 0 km/h
285 10-03-2010 08:53:02 -1.3 C 1.51 g/m*3 -1.3 C 0 km/h
286 10-03-2010 09:05:02 -1 C 1.4 g/m*3 -1 C 0 km/h
287 10-03-2010 09:17:02 -0.8 C 1.38 g/m*3 -0.8 C 0 km/h
288 10-03-2010 09:29:02 -0.4 C 1.23 g/m*3 -0.4 C 0 km/h
289 10-03-2010 09:41:01 -0.1 C 1.2 g/m*3 -0.1 C 0 km/h
290 10-03-2010 09:53:01 0.5 C 1 g/m*3 0.5 C 0 km/h
291 10-03-2010 10:05:01 1.1 C 1.05 g/m*3 1.1 C 0 km/h
292 10-03-2010 10:17:02 1.4 C 1.07 g/m*3 1.4 C 0 km/h
293 10-03-2010 10:29:02 1.8 C 1.1 g/m*3 1.8 C 0 km/h
294 10-03-2010 10:41:01 2.3 C 1.13 g/m*3 2.3 C 0 km/h
295 10-03-2010 10:53:02 2.8 C 1.17 g/m*3 2.8 C 0 km/h
296 10-03-2010 11:05:01 3.3 C 1.21 g/m*3 3.3 C 0 km/h
297 10-03-2010 11:17:02 3.6 C 1.24 g/m*3 3.6 C 0 km/h
298 10-03-2010 11:29:02 3.9 C 1.26 g/m*3 3.9 C 0 km/h
299 10-03-2010 11:41:01 4.1 C 1.28 g/m*3 4.1 C 0 km/h
300 10-03-2010 11:53:02 4.3 C 1.62 g/m*3 4.3 C 0 km/h
Sensor: Nr:Datum:Temp:Abs-Feuchte:Windchill:Wind:
Aussen-T/F 301 10-03-2010 12:05:02 4.6 C 1.52 g/m*3 4.6 C 0 km/h
302 10-03-2010 12:17:02 5.1 C 1.57 g/m*3 5.1 C 0 km/h
303 10-03-2010 12:29:02 5.7 C 1.49 g/m*3 5.7 C 0 km/h
304 10-03-2010 12:41:01 6.1 C 1.46 g/m*3 6.1 C 0 km/h
305 10-03-2010 12:53:02 6.5 C 1.5 g/m*3 6.5 C 0 km/h
306 10-03-2010 13:05:01 6.6 C 1.51 g/m*3 6.6 C 0 km/h
307 10-03-2010 13:17:01 7 C 1.55 g/m*3 7 C 0 km/h
308 10-03-2010 13:29:01 7.4 C 1.59 g/m*3 7.4 C 0 km/h
309 10-03-2010 13:41:02 7.6 C 1.61 g/m*3 7.6 C 0 km/h
310 10-03-2010 13:53:02 8 C 1.65 g/m*3 8 C 0 km/h
311 10-03-2010 14:05:02 8.2 C 1.67 g/m*3 8.2 C 0 km/h
312 10-03-2010 14:17:02 8.2 C 1.67 g/m*3 8.2 C 0 km/h
313 10-03-2010 14:29:02 8.3 C 1.69 g/m*3 8.3 C 0 km/h
314 10-03-2010 14:41:02 8.5 C 1.71 g/m*3 8.5 C 0 km/h
315 10-03-2010 14:53:02 8.2 C 1.67 g/m*3 8.2 C 0 km/h
316 10-03-2010 15:05:03 8.7 C 1.73 g/m*3 8.7 C 0 km/h
317 10-03-2010 15:17:02 9.3 C 1.8 g/m*3 9.3 C 0 km/h
318 10-03-2010 15:29:02 8.7 C 1.73 g/m*3 8.7 C 0 km/h
319 10-03-2010 15:41:02 8.4 C 1.7 g/m*3 8.4 C 0 km/h
320 10-03-2010 15:53:01 8.8 C 1.74 g/m*3 8.8 C 0 km/h
321 10-03-2010 16:05:02 8.7 C 1.73 g/m*3 8.7 C 0 km/h
322 10-03-2010 16:17:01 8.3 C 1.69 g/m*3 8.3 C 0 km/h
323 10-03-2010 16:29:01 7.8 C 1.63 g/m*3 7.8 C 0 km/h
324 10-03-2010 16:41:01 7.4 C 1.59 g/m*3 7.4 C 0 km/h
325 10-03-2010 16:53:01 7.1 C 1.56 g/m*3 7.1 C 0 km/h
Sensor: Nr:Datum:Temp:Abs-Feuchte:Windchill:Wind:
Aussen-T/F 326 10-03-2010 17:05:02 6.8 C 1.53 g/m*3 6.8 C 0 km/h
327 10-03-2010 17:17:02 6.5 C 1.5 g/m*3 6.5 C 0 km/h
328 10-03-2010 17:29:02 6.2 C 1.47 g/m*3 6.2 C 0 km/h
329 10-03-2010 17:41:01 6.1 C 1.46 g/m*3 6.1 C 0 km/h
330 10-03-2010 17:53:01 5.7 C 1.42 g/m*3 5.7 C 0 km/h
331 10-03-2010 18:05:01 5.4 C 1.4 g/m*3 5.4 C 0 km/h
332 10-03-2010 18:17:02 5 C 1.36 g/m*3 5 C 0 km/h
333 10-03-2010 18:29:02 4.4 C 1.5 g/m*3 4.4 C 0 km/h
334 10-03-2010 18:41:01 4 C 1.78 g/m*3 4 C 0 km/h
335 10-03-2010 18:53:02 3.7 C 1.93 g/m*3 3.7 C 0 km/h
336 10-03-2010 19:05:01 3.7 C 1.81 g/m*3 3.7 C 0 km/h
337 10-03-2010 19:17:02 3.5 C 1.72 g/m*3 3.5 C 0 km/h
338 10-03-2010 19:29:02 3.3 C 1.7 g/m*3 3.3 C 0 km/h
339 10-03-2010 19:41:01 2.9 C 1.89 g/m*3 2.9 C 0 km/h
340 10-03-2010 19:53:03 2.7 C 1.81 g/m*3 2.7 C 0 km/h
341 10-03-2010 20:05:02 2.7 C 1.81 g/m*3 2.7 C 0 km/h
342 10-03-2010 20:17:02 2.5 C 1.78 g/m*3 2.5 C 0 km/h
343 10-03-2010 20:29:02 2.4 C 1.83 g/m*3 2.4 C 0 km/h
344 10-03-2010 20:41:02 2.3 C 1.76 g/m*3 2.3 C 0 km/h
345 10-03-2010 20:53:02 2.2 C 1.8 g/m*3 2.2 C 0 km/h
346 10-03-2010 21:05:01 2.2 C 1.75 g/m*3 2.2 C 0 km/h
347 10-03-2010 21:18:02 2.1 C 1.73 g/m*3 2.1 C 0 km/h
348 10-03-2010 21:30:02 1.9 C 1.93 g/m*3 1.9 C 0 km/h
349 10-03-2010 21:42:02 1.8 C 1.92 g/m*3 1.8 C 0 km/h
350 10-03-2010 21:54:02 1.7 C 1.96 g/m*3 1.7 C 0 km/h
Sensor: Nr:Datum:Temp:Abs-Feuchte:Windchill:Wind:
Aussen-T/F 351 10-03-2010 22:06:02 1.5 C 1.99 g/m*3 1.5 C 0 km/h
352 10-03-2010 22:18:02 1.5 C 1.99 g/m*3 1.5 C 0 km/h
353 10-03-2010 22:30:02 1.4 C 2.03 g/m*3 1.4 C 0 km/h
354 10-03-2010 22:42:02 1.4 C 2.03 g/m*3 1.4 C 0 km/h
355 10-03-2010 22:54:02 1.4 C 2.08 g/m*3 1.4 C 0 km/h
356 10-03-2010 23:06:02 1.1 C 2.09 g/m*3 1.1 C 0 km/h
357 10-03-2010 23:18:02 0.8 C 2.15 g/m*3 0.8 C 0 km/h
358 10-03-2010 23:30:02 0.6 C 2.22 g/m*3 0.6 C 0 km/h
359 10-03-2010 23:42:02 0.4 C 2.24 g/m*3 0.4 C 0 km/h
360 10-03-2010 23:54:02 0.2 C 2.26 g/m*3 0.2 C 0 km/h
361 11-03-2010 00:06:02 0 C 2.33 g/m*3 0 C 0 km/h
362 11-03-2010 00:18:02 0 C 2.33 g/m*3 0 C 0 km/h
363 11-03-2010 00:30:02 -0.2 C 2.29 g/m*3 -0.2 C 0 km/h
364 11-03-2010 00:42:02 -0.2 C 2.29 g/m*3 -0.2 C 0 km/h
365 11-03-2010 00:54:02 -0.2 C 2.29 g/m*3 -0.2 C 0 km/h
366 11-03-2010 01:06:02 -0.3 C 2.28 g/m*3 -0.3 C 0 km/h
367 11-03-2010 01:18:03 -0.5 C 2.25 g/m*3 -0.5 C 0 km/h
368 11-03-2010 01:30:03 -0.9 C 2.28 g/m*3 -0.9 C 0 km/h
369 11-03-2010 01:42:03 -0.9 C 2.37 g/m*3 -0.9 C 0 km/h
370 11-03-2010 01:54:03 -1.1 C 2.29 g/m*3 -1.1 C 0 km/h
371 11-03-2010 02:06:03 -1 C 2.31 g/m*3 -1 C 0 km/h
372 11-03-2010 02:18:03 -1.1 C 2.29 g/m*3 -1.1 C 0 km/h
373 11-03-2010 02:30:03 -1.3 C 2.3 g/m*3 -1.3 C 0 km/h
374 11-03-2010 02:42:03 -1.3 C 2.3 g/m*3 -1.3 C 0 km/h
375 11-03-2010 02:54:03 -1.4 C 2.33 g/m*3 -1.4 C 0 km/h
Sensor: Nr:Datum:Temp:Abs-Feuchte:Windchill:Wind:
Aussen-T/F 376 11-03-2010 03:06:03 -1.5 C 2.31 g/m*3 -1.5 C 0 km/h
377 11-03-2010 03:18:03 -1.5 C 2.36 g/m*3 -1.5 C 0 km/h
378 11-03-2010 03:30:03 -1.7 C 2.32 g/m*3 -1.7 C 0 km/h
379 11-03-2010 03:42:03 -1.8 C 2.31 g/m*3 -1.8 C 0 km/h
380 11-03-2010 03:54:03 -1.9 C 2.29 g/m*3 -1.9 C 0 km/h
381 11-03-2010 04:06:03 -2 C 2.32 g/m*3 -2 C 0 km/h
382 11-03-2010 04:18:03 -2 C 2.32 g/m*3 -2 C 0 km/h
383 11-03-2010 04:30:03 -2.1 C 2.3 g/m*3 -2.1 C 0 km/h
384 11-03-2010 04:42:03 -2.2 C 2.29 g/m*3 -2.2 C 0 km/h
385 11-03-2010 04:54:03 -2.3 C 2.31 g/m*3 -2.3 C 0 km/h
386 11-03-2010 05:06:03 -2.6 C 2.26 g/m*3 -2.6 C 0 km/h
387 11-03-2010 05:18:03 -3 C 2.2 g/m*3 -3 C 0 km/h
388 11-03-2010 05:30:04 -3 C 2.32 g/m*3 -3 C 0 km/h
389 11-03-2010 05:42:04 -3 C 2.4 g/m*3 -3 C 0 km/h
390 11-03-2010 05:54:04 -2.8 C 2.39 g/m*3 -2.8 C 0 km/h
391 11-03-2010 06:06:04 -2.7 C 2.37 g/m*3 -2.7 C 0 km/h
392 11-03-2010 06:18:04 -2.8 C 2.35 g/m*3 -2.8 C 0 km/h
393 11-03-2010 06:30:04 -2.8 C 2.39 g/m*3 -2.8 C 0 km/h
394 11-03-2010 06:42:04 -2.8 C 2.39 g/m*3 -2.8 C 0 km/h
395 11-03-2010 06:54:04 -2.8 C 2.43 g/m*3 -2.8 C 0 km/h
396 11-03-2010 07:06:02 -2.9 C 2.45 g/m*3 -2.9 C 0 km/h
397 11-03-2010 07:18:01 -3 C 2.44 g/m*3 -3 C 0 km/h
398 11-03-2010 07:30:01 -3 C 2.47 g/m*3 -3 C 0 km/h
399 11-03-2010 07:42:02 -2.9 C 2.49 g/m*3 -2.9 C 0 km/h
400 11-03-2010 07:54:01 -2.7 C 2.53 g/m*3 -2.7 C 0 km/h
Sensor: Nr:Datum:Temp:Abs-Feuchte:Windchill:Wind:
Aussen-T/F 401 11-03-2010 08:06:02 -2.4 C 2.58 g/m*3 -2.4 C 0 km/h
402 11-03-2010 08:18:02 -2.1 C 2.55 g/m*3 -2.1 C 0 km/h
403 11-03-2010 08:30:02 -1.8 C 2.52 g/m*3 -1.8 C 0 km/h
404 11-03-2010 08:42:01 -1.3 C 2.52 g/m*3 -1.3 C 0 km/h
405 11-03-2010 08:54:02 -0.9 C 2.55 g/m*3 -0.9 C 0 km/h
406 11-03-2010 09:06:01 -0.7 C 2.54 g/m*3 -0.7 C 0 km/h
407 11-03-2010 09:18:02 -0.4 C 2.45 g/m*3 -0.4 C 0 km/h
408 11-03-2010 09:30:03 -0.3 C 2.42 g/m*3 -0.3 C 0 km/h
409 11-03-2010 09:42:01 -0.2 C 2.39 g/m*3 -0.2 C 0 km/h
410 11-03-2010 09:54:02 -0.2 C 2.29 g/m*3 -0.2 C 0 km/h
411 11-03-2010 10:06:02 0.1 C 2.34 g/m*3 0.1 C 0 km/h
412 11-03-2010 10:18:02 0.2 C 2.36 g/m*3 0.2 C 0 km/h
413 11-03-2010 10:30:02 0.2 C 2.31 g/m*3 0.2 C 0 km/h
414 11-03-2010 10:42:03 0.4 C 2.39 g/m*3 0.4 C 0 km/h
415 11-03-2010 10:54:02 0.9 C 2.42 g/m*3 0.9 C 0 km/h
416 11-03-2010 11:06:01 1.1 C 2.35 g/m*3 1.1 C 0 km/h
417 11-03-2010 11:18:02 1.4 C 2.35 g/m*3 1.4 C 0 km/h
418 11-03-2010 11:30:02 1.6 C 2.27 g/m*3 1.6 C 0 km/h
419 11-03-2010 11:42:02 1.9 C 2.26 g/m*3 1.9 C 0 km/h
420 11-03-2010 11:54:02 2 C 2.17 g/m*3 2 C 0 km/h
421 11-03-2010 12:06:03 2.2 C 2.2 g/m*3 2.2 C 0 km/h
422 11-03-2010 12:18:02 2.7 C 2.21 g/m*3 2.7 C 0 km/h
423 11-03-2010 12:30:02 3.1 C 2.04 g/m*3 3.1 C 0 km/h
424 11-03-2010 12:42:02 3.6 C 1.98 g/m*3 3.6 C 0 km/h
425 11-03-2010 12:54:02 4 C 1.91 g/m*3 4 C 0 km/h
Sensor: Nr:Datum:Temp:Abs-Feuchte:Windchill:Wind:
Aussen-T/F 426 11-03-2010 13:06:02 4.5 C 1.84 g/m*3 4.5 C 0 km/h
427 11-03-2010 13:18:01 4.8 C 1.68 g/m*3 4.8 C 0 km/h
428 11-03-2010 13:30:01 5.1 C 1.78 g/m*3 5.1 C 0 km/h
429 11-03-2010 13:42:02 5.9 C 1.87 g/m*3 5.9 C 0 km/h
430 11-03-2010 13:54:02 5.6 C 1.84 g/m*3 5.6 C 0 km/h
431 11-03-2010 14:06:02 6.1 C 1.9 g/m*3 6.1 C 0 km/h
432 11-03-2010 14:18:01 6.5 C 1.95 g/m*3 6.5 C 0 km/h
433 11-03-2010 14:30:01 6.2 C 2.13 g/m*3 6.2 C 0 km/h
434 11-03-2010 14:42:02 6.6 C 2.04 g/m*3 6.6 C 0 km/h
435 11-03-2010 14:54:02 6.3 C 2.07 g/m*3 6.3 C 0 km/h
436 11-03-2010 15:06:02 5.7 C 2.35 g/m*3 5.7 C 0 km/h
437 11-03-2010 15:18:01 5.9 C 2.45 g/m*3 5.9 C 0 km/h
438 11-03-2010 15:30:01 4.9 C 2.57 g/m*3 4.9 C 0 km/h
439 11-03-2010 15:42:02 4.6 C 2.65 g/m*3 4.6 C 0 km/h
440 11-03-2010 15:54:02 4.8 C 2.68 g/m*3 4.8 C 0 km/h
441 11-03-2010 16:06:02 4.7 C 2.66 g/m*3 4.7 C 0 km/h
442 11-03-2010 16:18:02 4.8 C 2.68 g/m*3 4.8 C 0 km/h
443 11-03-2010 16:30:02 4.3 C 2.66 g/m*3 4.3 C 0 km/h
444 11-03-2010 16:42:02 4.2 C 2.71 g/m*3 4.2 C 0 km/h
445 11-03-2010 16:54:02 4 C 2.67 g/m*3 4 C 0 km/h
446 11-03-2010 17:06:02 3.9 C 2.78 g/m*3 3.9 C 0 km/h
447 11-03-2010 17:18:02 3.6 C 2.79 g/m*3 3.6 C 0 km/h
448 11-03-2010 17:30:02 3.1 C 2.75 g/m*3 3.1 C 0 km/h
449 11-03-2010 17:42:04 2.8 C 2.82 g/m*3 2.8 C 0 km/h
450 11-03-2010 17:54:02 2.2 C 2.76 g/m*3 2.2 C 0 km/h
Sensor: Nr:Datum:Temp:Abs-Feuchte:Windchill:Wind:
Aussen-T/F 451 11-03-2010 18:06:01 2 C 2.78 g/m*3 2 C 0 km/h
452 11-03-2010 18:18:02 1.6 C 2.87 g/m*3 1.6 C 0 km/h
453 11-03-2010 18:30:02 1.2 C 2.84 g/m*3 1.2 C 0 km/h
454 11-03-2010 18:42:02 0.9 C 2.89 g/m*3 0.9 C 0 km/h
455 11-03-2010 18:54:02 0.7 C 2.9 g/m*3 0.7 C 0 km/h
456 11-03-2010 19:06:02 0.4 C 2.89 g/m*3 0.4 C 0 km/h
457 11-03-2010 19:18:02 0.3 C 2.92 g/m*3 0.3 C 0 km/h
458 11-03-2010 19:30:02 0.3 C 2.97 g/m*3 0.3 C 0 km/h
459 11-03-2010 19:42:02 0.1 C 2.93 g/m*3 0.1 C 0 km/h
460 11-03-2010 19:54:02 0 C 2.91 g/m*3 0 C 0 km/h
461 11-03-2010 20:06:02 -0.1 C 2.89 g/m*3 -0.1 C 0 km/h
462 11-03-2010 20:18:02 -0.2 C 2.91 g/m*3 -0.2 C 0 km/h
463 11-03-2010 20:30:02 -0.4 C 2.92 g/m*3 -0.4 C 0 km/h
464 11-03-2010 20:42:02 -0.4 C 2.97 g/m*3 -0.4 C 0 km/h
465 11-03-2010 20:54:01 -0.6 C 2.97 g/m*3 -0.6 C 0 km/h
466 11-03-2010 21:07:04 -0.8 C 2.93 g/m*3 -0.8 C 0 km/h
467 11-03-2010 21:19:04 -0.8 C 2.98 g/m*3 -0.8 C 0 km/h
468 11-03-2010 21:31:04 -0.9 C 2.96 g/m*3 -0.9 C 0 km/h
469 11-03-2010 21:43:05 -1.1 C 2.96 g/m*3 -1.1 C 0 km/h
470 11-03-2010 21:55:05 -1.1 C 2.96 g/m*3 -1.1 C 0 km/h
471 11-03-2010 22:07:05 -1.2 C 3.03 g/m*3 -1.2 C 0 km/h
472 11-03-2010 22:19:05 -1.3 C 3.01 g/m*3 -1.3 C 0 km/h
473 11-03-2010 22:31:05 -1.2 C 3.08 g/m*3 -1.2 C 0 km/h
474 11-03-2010 22:43:05 -1.4 C 3.03 g/m*3 -1.4 C 0 km/h
475 11-03-2010 22:55:05 -1.5 C 3.06 g/m*3 -1.5 C 0 km/h
Sensor: Nr:Datum:Temp:Abs-Feuchte:Windchill:Wind:
Aussen-T/F 476 11-03-2010 23:07:05 -1.7 C 3.01 g/m*3 -1.7 C 0 km/h
477 11-03-2010 23:19:05 -1.9 C 2.97 g/m*3 -1.9 C 0 km/h
478 11-03-2010 23:31:05 -2 C 2.99 g/m*3 -2 C 0 km/h
479 11-03-2010 23:43:05 -2.2 C 2.95 g/m*3 -2.2 C 0 km/h
480 11-03-2010 23:55:05 -2.5 C 2.89 g/m*3 -2.5 C 0 km/h
481 12-03-2010 00:07:05 -2.6 C 2.87 g/m*3 -2.6 C 0 km/h
482 12-03-2010 00:19:05 -2.6 C 2.87 g/m*3 -2.6 C 0 km/h
483 12-03-2010 00:31:05 -2.7 C 2.89 g/m*3 -2.7 C 0 km/h
484 12-03-2010 00:43:05 -2.7 C 2.89 g/m*3 -2.7 C 0 km/h
485 12-03-2010 00:55:05 -2.3 C 2.97 g/m*3 -2.3 C 0 km/h
486 12-03-2010 01:07:05 -1.9 C 3.06 g/m*3 -1.9 C 0 km/h
487 12-03-2010 01:19:05 -1.6 C 3.08 g/m*3 -1.6 C 0 km/h
488 12-03-2010 01:31:05 -1.5 C 3.06 g/m*3 -1.5 C 0 km/h
489 12-03-2010 01:43:05 -1.3 C 3.1 g/m*3 -1.3 C 0 km/h
490 12-03-2010 01:55:06 -1.4 C 3.03 g/m*3 -1.4 C 0 km/h
491 12-03-2010 02:07:06 -1.4 C 3.03 g/m*3 -1.4 C 0 km/h
492 12-03-2010 02:19:06 -1.3 C 3.1 g/m*3 -1.3 C 0 km/h
493 12-03-2010 02:31:06 -1.3 C 3.1 g/m*3 -1.3 C 0 km/h
494 12-03-2010 02:43:06 -1.3 C 3.1 g/m*3 -1.3 C 0 km/h
495 12-03-2010 02:55:06 -1.3 C 3.1 g/m*3 -1.3 C 0 km/h
496 12-03-2010 03:07:06 -1.2 C 3.12 g/m*3 -1.2 C 0 km/h
497 12-03-2010 03:19:06 -1.3 C 3.1 g/m*3 -1.3 C 0 km/h
498 12-03-2010 03:31:06 -1.3 C 3.1 g/m*3 -1.3 C 0 km/h
499 12-03-2010 03:43:06 -1.3 C 3.14 g/m*3 -1.3 C 0 km/h
500 12-03-2010 03:55:06 -1.2 C 3.17 g/m*3 -1.2 C 0 km/h
Sensor: Nr:Datum:Temp:Abs-Feuchte:Windchill:Wind:
Aussen-T/F 501 12-03-2010 04:07:06 -1.3 C 3.14 g/m*3 -1.3 C 0 km/h
502 12-03-2010 04:19:06 -1.3 C 3.14 g/m*3 -1.3 C 0 km/h
503 12-03-2010 04:31:06 -1.3 C 3.14 g/m*3 -1.3 C 0 km/h
504 12-03-2010 04:43:06 -1.3 C 3.14 g/m*3 -1.3 C 0 km/h
505 12-03-2010 04:55:06 -1.3 C 3.14 g/m*3 -1.3 C 0 km/h
506 12-03-2010 05:07:06 -1.2 C 3.17 g/m*3 -1.2 C 0 km/h
507 12-03-2010 05:19:06 -1.2 C 3.21 g/m*3 -1.2 C 0 km/h
508 12-03-2010 05:31:06 -1.2 C 3.21 g/m*3 -1.2 C 0 km/h
509 12-03-2010 05:43:06 -1.1 C 3.23 g/m*3 -1.1 C 0 km/h
510 12-03-2010 05:55:06 -1.1 C 3.23 g/m*3 -1.1 C 0 km/h
511 12-03-2010 06:07:07 -1.1 C 3.28 g/m*3 -1.1 C 0 km/h
512 12-03-2010 06:19:07 -1.1 C 3.28 g/m*3 -1.1 C 0 km/h
513 12-03-2010 06:31:07 -0.9 C 3.32 g/m*3 -0.9 C 0 km/h
514 12-03-2010 06:43:07 -0.9 C 3.32 g/m*3 -0.9 C 0 km/h
515 12-03-2010 06:55:07 -0.9 C 3.37 g/m*3 -0.9 C 0 km/h
516 12-03-2010 07:07:03 -0.9 C 3.41 g/m*3 -0.9 C 0 km/h
517 12-03-2010 07:19:04 -0.9 C 3.46 g/m*3 -0.9 C 0 km/h
518 12-03-2010 07:31:03 -0.9 C 3.51 g/m*3 -0.9 C 0 km/h
519 12-03-2010 07:43:03 -0.9 C 3.55 g/m*3 -0.9 C 0 km/h
520 12-03-2010 07:55:01 -0.9 C 3.6 g/m*3 -0.9 C 0 km/h
521 12-03-2010 08:07:02 -0.7 C 3.69 g/m*3 -0.7 C 0 km/h
522 12-03-2010 08:19:02 -0.7 C 3.69 g/m*3 -0.7 C 0 km/h
523 12-03-2010 08:31:01 -0.5 C 3.74 g/m*3 -0.5 C 0 km/h
524 12-03-2010 08:43:01 -0.4 C 3.77 g/m*3 -0.4 C 0 km/h
525 12-03-2010 08:55:03 -0.4 C 3.82 g/m*3 -0.4 C 0 km/h
Sensor: Nr:Datum:Temp:Abs-Feuchte:Windchill:Wind:
Aussen-T/F 526 12-03-2010 09:07:02 -0.3 C 3.89 g/m*3 -0.3 C 0 km/h
527 12-03-2010 09:19:02 -0.2 C 3.92 g/m*3 -0.2 C 0 km/h
528 12-03-2010 09:31:03 0 C 4.02 g/m*3 0 C 0 km/h
529 12-03-2010 09:43:03 0.1 C 4.05 g/m*3 0.1 C 0 km/h
530 12-03-2010 09:55:02 0.3 C 4.06 g/m*3 0.3 C 0 km/h
531 12-03-2010 10:07:01 0.4 C 4.08 g/m*3 0.4 C 0 km/h
532 12-03-2010 10:19:02 0.7 C 4.12 g/m*3 0.7 C 0 km/h
533 12-03-2010 10:31:02 0.9 C 4.12 g/m*3 0.9 C 0 km/h
534 12-03-2010 10:43:02 1.3 C 4.13 g/m*3 1.3 C 0 km/h
535 12-03-2010 10:55:02 1.5 C 4.14 g/m*3 1.5 C 0 km/h
536 12-03-2010 11:07:03 1.8 C 4.11 g/m*3 1.8 C 0 km/h
537 12-03-2010 11:19:02 2.1 C 4.08 g/m*3 2.1 C 0 km/h
538 12-03-2010 11:31:02 2.2 C 4.06 g/m*3 2.2 C 0 km/h
539 12-03-2010 11:43:03 2.6 C 4.17 g/m*3 2.6 C 0 km/h
540 12-03-2010 11:55:01 2.7 C 4.2 g/m*3 2.7 C 0 km/h
541 12-03-2010 12:07:02 2.8 C 4.16 g/m*3 2.8 C 0 km/h
542 12-03-2010 12:19:01 3.1 C 4.19 g/m*3 3.1 C 0 km/h
543 12-03-2010 12:31:01 3.4 C 4.28 g/m*3 3.4 C 0 km/h
544 12-03-2010 12:43:01 3.8 C 4.27 g/m*3 3.8 C 0 km/h
545 12-03-2010 12:55:01 3.9 C 4.29 g/m*3 3.9 C 0 km/h
546 12-03-2010 13:07:02 4.4 C 4.31 g/m*3 4.4 C 0 km/h
547 12-03-2010 13:19:01 4.4 C 4.24 g/m*3 4.4 C 0 km/h
548 12-03-2010 13:31:02 4.6 C 4.3 g/m*3 4.6 C 0 km/h
549 12-03-2010 13:43:02 5 C 4.14 g/m*3 5 C 0 km/h
550 12-03-2010 13:55:01 5.2 C 4.27 g/m*3 5.2 C 0 km/h
Sensor: Nr:Datum:Temp:Abs-Feuchte:Windchill:Wind:
Aussen-T/F 551 12-03-2010 14:07:02 4.8 C 4.16 g/m*3 4.8 C 0 km/h
552 12-03-2010 14:19:02 5 C 4.08 g/m*3 5 C 0 km/h
553 12-03-2010 14:31:01 5.1 C 4.1 g/m*3 5.1 C 0 km/h
554 12-03-2010 14:43:01 5.4 C 4.12 g/m*3 5.4 C 0 km/h
555 12-03-2010 14:55:01 6.1 C 4.09 g/m*3 6.1 C 0 km/h
556 12-03-2010 15:07:02 7.1 C 4.29 g/m*3 7.1 C 0 km/h
557 12-03-2010 15:19:02 6.9 C 3.85 g/m*3 6.9 C 0 km/h
558 12-03-2010 15:31:01 7.4 C 4.06 g/m*3 7.4 C 0 km/h
559 12-03-2010 15:43:01 7.3 C 3.95 g/m*3 7.3 C 0 km/h
560 12-03-2010 15:55:01 6.1 C 3.8 g/m*3 6.1 C 0 km/h
561 12-03-2010 16:07:01 5.3 C 4.09 g/m*3 5.3 C 0 km/h
562 12-03-2010 16:19:02 4.9 C 4.25 g/m*3 4.9 C 0 km/h
563 12-03-2010 16:31:01 5.1 C 4.38 g/m*3 5.1 C 0 km/h
564 12-03-2010 16:43:01 5.2 C 4.41 g/m*3 5.2 C 0 km/h
565 12-03-2010 16:55:02 5.1 C 4.31 g/m*3 5.1 C 0 km/h
566 12-03-2010 17:07:01 4.9 C 4.32 g/m*3 4.9 C 0 km/h
567 12-03-2010 17:19:01 4.9 C 4.32 g/m*3 4.9 C 0 km/h
568 12-03-2010 17:31:01 4.8 C 4.29 g/m*3 4.8 C 0 km/h
569 12-03-2010 17:43:01 4.4 C 4.24 g/m*3 4.4 C 0 km/h
570 12-03-2010 17:55:02 4.1 C 4.29 g/m*3 4.1 C 0 km/h
571 12-03-2010 18:07:02 3.9 C 4.36 g/m*3 3.9 C 0 km/h
572 12-03-2010 18:19:02 3.7 C 4.36 g/m*3 3.7 C 0 km/h
573 12-03-2010 18:31:01 3.5 C 4.37 g/m*3 3.5 C 0 km/h
574 12-03-2010 18:43:01 3.2 C 4.28 g/m*3 3.2 C 0 km/h
575 12-03-2010 18:55:02 3 C 4.28 g/m*3 3 C 0 km/h
Sensor: Nr:Datum:Temp:Abs-Feuchte:Windchill:Wind:
Aussen-T/F 576 12-03-2010 19:07:01 2.8 C 4.34 g/m*3 2.8 C 0 km/h
577 12-03-2010 19:19:02 2.8 C 4.34 g/m*3 2.8 C 0 km/h
578 12-03-2010 19:31:01 2.8 C 4.4 g/m*3 2.8 C 0 km/h
579 12-03-2010 19:43:01 2.9 C 4.43 g/m*3 2.9 C 0 km/h
580 12-03-2010 19:55:02 3.1 C 4.43 g/m*3 3.1 C 0 km/h
581 12-03-2010 20:07:02 3.1 C 4.43 g/m*3 3.1 C 0 km/h
582 12-03-2010 20:19:02 3.1 C 4.43 g/m*3 3.1 C 0 km/h
583 12-03-2010 20:31:03 3.2 C 4.46 g/m*3 3.2 C 0 km/h
584 12-03-2010 20:43:03 3.1 C 4.37 g/m*3 3.1 C 0 km/h
585 12-03-2010 20:55:02 2.9 C 4.43 g/m*3 2.9 C 0 km/h
586 12-03-2010 21:07:01 2.8 C 4.4 g/m*3 2.8 C 0 km/h
587 12-03-2010 21:19:02 2.8 C 4.46 g/m*3 2.8 C 0 km/h
588 12-03-2010 21:31:02 2.7 C 4.43 g/m*3 2.7 C 0 km/h
589 12-03-2010 21:43:02 2.7 C 4.43 g/m*3 2.7 C 0 km/h
590 12-03-2010 21:55:03 2.6 C 4.4 g/m*3 2.6 C 0 km/h
591 12-03-2010 22:07:03 2.6 C 4.4 g/m*3 2.6 C 0 km/h
592 12-03-2010 22:20:03 2.6 C 4.46 g/m*3 2.6 C 0 km/h
593 12-03-2010 22:32:03 2.4 C 4.4 g/m*3 2.4 C 0 km/h
594 12-03-2010 22:44:03 2.4 C 4.45 g/m*3 2.4 C 0 km/h
595 12-03-2010 22:56:03 2.4 C 4.45 g/m*3 2.4 C 0 km/h
596 12-03-2010 23:08:03 2.4 C 4.45 g/m*3 2.4 C 0 km/h
597 12-03-2010 23:20:03 2.4 C 4.45 g/m*3 2.4 C 0 km/h
598 12-03-2010 23:32:03 2.3 C 4.42 g/m*3 2.3 C 0 km/h
599 12-03-2010 23:44:03 2.2 C 4.45 g/m*3 2.2 C 0 km/h
600 12-03-2010 23:56:03 2.3 C 4.48 g/m*3 2.3 C 0 km/h
Sensor: Nr:Datum:Temp:Abs-Feuchte:Windchill:Wind:
Aussen-T/F 601 13-03-2010 00:08:03 2.3 C 4.48 g/m*3 2.3 C 0 km/h
602 13-03-2010 00:20:03 2.2 C 4.45 g/m*3 2.2 C 0 km/h
603 13-03-2010 00:32:03 2.3 C 4.48 g/m*3 2.3 C 0 km/h
604 13-03-2010 00:44:03 2.3 C 4.48 g/m*3 2.3 C 0 km/h
605 13-03-2010 00:56:03 2.3 C 4.48 g/m*3 2.3 C 0 km/h
606 13-03-2010 01:08:03 2.2 C 4.45 g/m*3 2.2 C 0 km/h
607 13-03-2010 01:20:03 2.2 C 4.39 g/m*3 2.2 C 0 km/h
608 13-03-2010 01:32:03 2.3 C 4.42 g/m*3 2.3 C 0 km/h
609 13-03-2010 01:44:03 2.2 C 4.39 g/m*3 2.2 C 0 km/h
610 13-03-2010 01:56:03 2.2 C 4.39 g/m*3 2.2 C 0 km/h
611 13-03-2010 02:08:03 2.2 C 4.39 g/m*3 2.2 C 0 km/h
612 13-03-2010 02:20:03 2.1 C 4.31 g/m*3 2.1 C 0 km/h
613 13-03-2010 02:32:03 2.2 C 4.34 g/m*3 2.2 C 0 km/h
614 13-03-2010 02:44:04 2.1 C 4.25 g/m*3 2.1 C 0 km/h
615 13-03-2010 02:56:04 2.2 C 4.28 g/m*3 2.2 C 0 km/h
616 13-03-2010 03:08:04 2.2 C 4.22 g/m*3 2.2 C 0 km/h
617 13-03-2010 03:20:04 2.2 C 4.22 g/m*3 2.2 C 0 km/h
618 13-03-2010 03:32:04 2.2 C 4.22 g/m*3 2.2 C 0 km/h
619 13-03-2010 03:44:04 2 C 4.17 g/m*3 2 C 0 km/h
620 13-03-2010 03:56:04 1.8 C 4.22 g/m*3 1.8 C 0 km/h
621 13-03-2010 04:08:04 1.9 C 4.19 g/m*3 1.9 C 0 km/h
622 13-03-2010 04:20:04 2 C 4.17 g/m*3 2 C 0 km/h
623 13-03-2010 04:32:04 2 C 4.17 g/m*3 2 C 0 km/h
624 13-03-2010 04:44:04 2 C 4.17 g/m*3 2 C 0 km/h
625 13-03-2010 04:56:04 2 C 4.17 g/m*3 2 C 0 km/h
Sensor: Nr:Datum:Temp:Abs-Feuchte:Windchill:Wind:
Aussen-T/F 626 13-03-2010 05:08:04 2 C 4.17 g/m*3 2 C 0 km/h
627 13-03-2010 05:20:04 1.8 C 4.17 g/m*3 1.8 C 0 km/h
628 13-03-2010 05:32:04 1.9 C 4.19 g/m*3 1.9 C 0 km/h
629 13-03-2010 05:44:04 2 C 4.11 g/m*3 2 C 0 km/h
630 13-03-2010 05:56:04 2 C 4.11 g/m*3 2 C 0 km/h
631 13-03-2010 06:08:04 2 C 4.11 g/m*3 2 C 0 km/h
632 13-03-2010 06:20:04 2.1 C 4.08 g/m*3 2.1 C 0 km/h
633 13-03-2010 06:32:04 2.2 C 4.11 g/m*3 2.2 C 0 km/h
634 13-03-2010 06:44:04 2.1 C 4.08 g/m*3 2.1 C 0 km/h
635 13-03-2010 06:56:02 2.3 C 4.2 g/m*3 2.3 C 0 km/h
636 13-03-2010 07:08:02 2.3 C 4.25 g/m*3 2.3 C 0 km/h
637 13-03-2010 07:20:02 2.3 C 4.31 g/m*3 2.3 C 0 km/h
638 13-03-2010 07:32:02 2.3 C 4.31 g/m*3 2.3 C 0 km/h
639 13-03-2010 07:44:02 2.4 C 4.45 g/m*3 2.4 C 0 km/h
640 13-03-2010 07:56:02 2.6 C 4.63 g/m*3 2.6 C 0 km/h
641 13-03-2010 08:08:02 2.7 C 4.66 g/m*3 2.7 C 0 km/h
642 13-03-2010 08:20:02 2.8 C 4.69 g/m*3 2.8 C 0 km/h
643 13-03-2010 08:32:02 2.9 C 4.72 g/m*3 2.9 C 0 km/h
644 13-03-2010 08:44:02 3.1 C 4.73 g/m*3 3.1 C 0 km/h
645 13-03-2010 08:56:02 3.3 C 4.73 g/m*3 3.3 C 0 km/h
646 13-03-2010 09:08:01 3.4 C 4.7 g/m*3 3.4 C 0 km/h
647 13-03-2010 09:20:02 3.4 C 4.64 g/m*3 3.4 C 0 km/h
648 13-03-2010 09:32:01 3.6 C 4.7 g/m*3 3.6 C 0 km/h
649 13-03-2010 09:44:01 3.6 C 4.7 g/m*3 3.6 C 0 km/h
650 13-03-2010 09:56:02 3.7 C 4.74 g/m*3 3.7 C 0 km/h
Sensor: Nr:Datum:Temp:Abs-Feuchte:Windchill:Wind:
Aussen-T/F 651 13-03-2010 10:08:01 4 C 4.7 g/m*3 4 C 0 km/h
652 13-03-2010 10:20:02 4.4 C 4.7 g/m*3 4.4 C 0 km/h
653 13-03-2010 10:32:02 4.8 C 4.69 g/m*3 4.8 C 0 km/h
654 13-03-2010 10:44:02 4.8 C 4.49 g/m*3 4.8 C 0 km/h
655 13-03-2010 10:56:02 5 C 4.42 g/m*3 5 C 0 km/h
656 13-03-2010 11:08:02 4.8 C 4.22 g/m*3 4.8 C 0 km/h
657 13-03-2010 11:20:02 4.7 C 4.26 g/m*3 4.7 C 0 km/h
658 13-03-2010 11:32:02 5.2 C 4.34 g/m*3 5.2 C 0 km/h
659 13-03-2010 11:44:02 5.3 C 4.23 g/m*3 5.3 C 0 km/h
660 13-03-2010 11:56:02 6 C 4.06 g/m*3 6 C 0 km/h
661 13-03-2010 12:08:02 6.5 C 4.05 g/m*3 6.5 C 0 km/h
662 13-03-2010 12:20:01 6.2 C 3.75 g/m*3 6.2 C 0 km/h
663 13-03-2010 12:32:02 5.8 C 3.72 g/m*3 5.8 C 0 km/h
664 13-03-2010 12:44:02 6.3 C 3.78 g/m*3 6.3 C 0 km/h
665 13-03-2010 12:56:02 6.7 C 3.72 g/m*3 6.7 C 0 km/h
666 13-03-2010 13:08:02 6.3 C 3.7 g/m*3 6.3 C 0 km/h
667 13-03-2010 13:20:02 6 C 3.7 g/m*3 6 C 0 km/h
668 13-03-2010 13:32:02 5.8 C 3.94 g/m*3 5.8 C 0 km/h
669 13-03-2010 13:44:02 5.8 C 4.01 g/m*3 5.8 C 0 km/h
670 13-03-2010 13:56:02 6.1 C 4.16 g/m*3 6.1 C 0 km/h
671 13-03-2010 14:08:02 6.3 C 4.07 g/m*3 6.3 C 0 km/h
672 13-03-2010 14:20:02 6.3 C 4.07 g/m*3 6.3 C 0 km/h
673 13-03-2010 14:32:02 6.1 C 4.02 g/m*3 6.1 C 0 km/h
674 13-03-2010 14:44:02 6.2 C 3.97 g/m*3 6.2 C 0 km/h
675 13-03-2010 14:56:02 6.3 C 4 g/m*3 6.3 C 0 km/h
Sensor: Nr:Datum:Temp:Abs-Feuchte:Windchill:Wind:
Aussen-T/F 676 13-03-2010 15:08:02 6.5 C 4.05 g/m*3 6.5 C 0 km/h
677 13-03-2010 15:20:02 6.5 C 3.9 g/m*3 6.5 C 0 km/h
678 13-03-2010 15:32:02 6.5 C 3.9 g/m*3 6.5 C 0 km/h
679 13-03-2010 15:44:02 6.7 C 4.03 g/m*3 6.7 C 0 km/h
680 13-03-2010 15:56:02 6.6 C 3.93 g/m*3 6.6 C 0 km/h
681 13-03-2010 16:08:02 6.6 C 3.93 g/m*3 6.6 C 0 km/h
682 13-03-2010 16:20:03 6.5 C 3.9 g/m*3 6.5 C 0 km/h
683 13-03-2010 16:32:02 6.5 C 3.9 g/m*3 6.5 C 0 km/h
684 13-03-2010 16:44:02 6.4 C 3.87 g/m*3 6.4 C 0 km/h
685 13-03-2010 16:56:02 6.4 C 3.95 g/m*3 6.4 C 0 km/h
686 13-03-2010 17:08:02 6.4 C 3.95 g/m*3 6.4 C 0 km/h
687 13-03-2010 17:20:02 6.3 C 3.92 g/m*3 6.3 C 0 km/h
688 13-03-2010 17:32:02 6.3 C 4 g/m*3 6.3 C 0 km/h
689 13-03-2010 17:44:02 6.2 C 3.97 g/m*3 6.2 C 0 km/h
690 13-03-2010 17:56:02 6.2 C 3.97 g/m*3 6.2 C 0 km/h
691 13-03-2010 18:08:02 6.2 C 3.97 g/m*3 6.2 C 0 km/h
692 13-03-2010 18:20:02 6.1 C 3.95 g/m*3 6.1 C 0 km/h
693 13-03-2010 18:32:01 6.1 C 3.95 g/m*3 6.1 C 0 km/h
694 13-03-2010 18:44:01 6 C 3.92 g/m*3 6 C 0 km/h
695 13-03-2010 18:56:02 6.1 C 3.95 g/m*3 6.1 C 0 km/h
696 13-03-2010 19:08:01 6 C 3.92 g/m*3 6 C 0 km/h
697 13-03-2010 19:20:02 6 C 3.99 g/m*3 6 C 0 km/h
698 13-03-2010 19:32:02 6 C 3.99 g/m*3 6 C 0 km/h
699 13-03-2010 19:44:02 6 C 3.99 g/m*3 6 C 0 km/h
700 13-03-2010 19:56:02 6 C 3.99 g/m*3 6 C 0 km/h
Sensor: Nr:Datum:Temp:Abs-Feuchte:Windchill:Wind:
Aussen-T/F 701 13-03-2010 20:08:01 5.8 C 4.08 g/m*3 5.8 C 0 km/h
702 13-03-2010 20:20:01 5.8 C 4.23 g/m*3 5.8 C 0 km/h
703 13-03-2010 20:32:02 5.5 C 4.28 g/m*3 5.5 C 0 km/h
704 13-03-2010 20:44:02 5.5 C 4.42 g/m*3 5.5 C 0 km/h
705 13-03-2010 20:56:02 5.6 C 4.45 g/m*3 5.6 C 0 km/h
706 13-03-2010 21:08:02 5.6 C 4.45 g/m*3 5.6 C 0 km/h
707 13-03-2010 21:20:02 5.5 C 4.35 g/m*3 5.5 C 0 km/h
708 13-03-2010 21:32:02 5.6 C 4.17 g/m*3 5.6 C 0 km/h
709 13-03-2010 21:44:02 5.5 C 4.07 g/m*3 5.5 C 0 km/h
710 13-03-2010 21:56:01 5.4 C 4.05 g/m*3 5.4 C 0 km/h
711 13-03-2010 22:08:02 5.3 C 4.02 g/m*3 5.3 C 0 km/h
712 13-03-2010 22:21:03 5.2 C 4.13 g/m*3 5.2 C 0 km/h
713 13-03-2010 22:33:04 5 C 4.21 g/m*3 5 C 0 km/h
714 13-03-2010 22:45:04 5 C 4.08 g/m*3 5 C 0 km/h
715 13-03-2010 22:57:04 5.2 C 3.79 g/m*3 5.2 C 0 km/h
716 13-03-2010 23:09:04 5.1 C 3.63 g/m*3 5.1 C 0 km/h
717 13-03-2010 23:21:04 5.1 C 3.63 g/m*3 5.1 C 0 km/h
718 13-03-2010 23:33:04 5.1 C 3.63 g/m*3 5.1 C 0 km/h
719 13-03-2010 23:45:04 5 C 3.67 g/m*3 5 C 0 km/h
720 13-03-2010 23:57:04 4.9 C 3.71 g/m*3 4.9 C 0 km/h
721 14-03-2010 00:09:04 4.8 C 3.62 g/m*3 4.8 C 0 km/h
722 14-03-2010 00:21:04 4.7 C 3.6 g/m*3 4.7 C 0 km/h
723 14-03-2010 00:33:04 4.7 C 3.6 g/m*3 4.7 C 0 km/h
724 14-03-2010 00:45:04 4.7 C 3.6 g/m*3 4.7 C 0 km/h
725 14-03-2010 00:57:04 4.6 C 3.57 g/m*3 4.6 C 0 km/h
Sensor: Nr:Datum:Temp:Abs-Feuchte:Windchill:Wind:
Aussen-T/F 726 14-03-2010 01:09:04 4.6 C 3.64 g/m*3 4.6 C 0 km/h
727 14-03-2010 01:21:04 4.5 C 3.68 g/m*3 4.5 C 0 km/h
728 14-03-2010 01:33:04 4.4 C 3.66 g/m*3 4.4 C 0 km/h
729 14-03-2010 01:45:04 4.3 C 3.7 g/m*3 4.3 C 0 km/h
730 14-03-2010 01:57:04 4.3 C 3.76 g/m*3 4.3 C 0 km/h
731 14-03-2010 02:09:04 4.3 C 3.76 g/m*3 4.3 C 0 km/h
732 14-03-2010 02:21:04 4.3 C 3.83 g/m*3 4.3 C 0 km/h
733 14-03-2010 02:33:04 4.3 C 3.83 g/m*3 4.3 C 0 km/h
734 14-03-2010 02:45:05 4.2 C 3.8 g/m*3 4.2 C 0 km/h
735 14-03-2010 02:57:05 4.3 C 3.83 g/m*3 4.3 C 0 km/h
736 14-03-2010 03:09:05 4.3 C 3.89 g/m*3 4.3 C 0 km/h
737 14-03-2010 03:21:05 4.3 C 3.89 g/m*3 4.3 C 0 km/h
738 14-03-2010 03:33:05 4.4 C 3.85 g/m*3 4.4 C 0 km/h
739 14-03-2010 03:45:05 4.4 C 3.85 g/m*3 4.4 C 0 km/h
740 14-03-2010 03:57:05 4.4 C 3.85 g/m*3 4.4 C 0 km/h
741 14-03-2010 04:09:05 4.4 C 3.85 g/m*3 4.4 C 0 km/h
742 14-03-2010 04:21:05 4.5 C 3.88 g/m*3 4.5 C 0 km/h
743 14-03-2010 04:33:05 4.4 C 3.92 g/m*3 4.4 C 0 km/h
744 14-03-2010 04:45:05 4.4 C 3.92 g/m*3 4.4 C 0 km/h
745 14-03-2010 04:57:05 4.3 C 3.96 g/m*3 4.3 C 0 km/h
746 14-03-2010 05:09:05 4.3 C 4.02 g/m*3 4.3 C 0 km/h
747 14-03-2010 05:21:05 4.3 C 4.02 g/m*3 4.3 C 0 km/h
748 14-03-2010 05:33:05 4.3 C 4.02 g/m*3 4.3 C 0 km/h
749 14-03-2010 05:45:05 4.2 C 3.99 g/m*3 4.2 C 0 km/h
750 14-03-2010 05:57:05 4.2 C 3.99 g/m*3 4.2 C 0 km/h
Sensor: Nr:Datum:Temp:Abs-Feuchte:Windchill:Wind:
Aussen-T/F 751 14-03-2010 06:09:05 4.3 C 4.02 g/m*3 4.3 C 0 km/h
752 14-03-2010 06:21:05 4.2 C 3.99 g/m*3 4.2 C 0 km/h
753 14-03-2010 06:33:05 4.2 C 3.99 g/m*3 4.2 C 0 km/h
754 14-03-2010 06:45:06 4.2 C 3.99 g/m*3 4.2 C 0 km/h
755 14-03-2010 06:57:06 4.2 C 4.06 g/m*3 4.2 C 0 km/h
756 14-03-2010 07:09:06 4.3 C 4.02 g/m*3 4.3 C 0 km/h
757 14-03-2010 07:21:06 4.3 C 4.02 g/m*3 4.3 C 0 km/h
758 14-03-2010 07:33:06 4.5 C 4.08 g/m*3 4.5 C 0 km/h
759 14-03-2010 07:45:06 4.6 C 4.04 g/m*3 4.6 C 0 km/h
760 14-03-2010 07:57:06 4.7 C 4 g/m*3 4.7 C 0 km/h
761 14-03-2010 08:09:06 4.8 C 3.96 g/m*3 4.8 C 0 km/h
762 14-03-2010 08:21:06 4.9 C 3.92 g/m*3 4.9 C 0 km/h
763 14-03-2010 08:33:06 5.2 C 3.86 g/m*3 5.2 C 0 km/h
764 14-03-2010 08:45:01 5.3 C 3.81 g/m*3 5.3 C 0 km/h
765 14-03-2010 08:57:01 5.4 C 3.77 g/m*3 5.4 C 0 km/h
766 14-03-2010 09:09:02 5.6 C 3.82 g/m*3 5.6 C 0 km/h
767 14-03-2010 09:21:01 5.7 C 3.77 g/m*3 5.7 C 0 km/h
768 14-03-2010 09:33:02 6 C 3.7 g/m*3 6 C 0 km/h
769 14-03-2010 09:45:02 5.9 C 3.75 g/m*3 5.9 C 0 km/h
770 14-03-2010 09:57:02 6 C 3.77 g/m*3 6 C 0 km/h
771 14-03-2010 10:09:02 6.3 C 3.78 g/m*3 6.3 C 0 km/h
772 14-03-2010 10:21:02 6.5 C 3.75 g/m*3 6.5 C 0 km/h
773 14-03-2010 10:33:02 6.8 C 3.82 g/m*3 6.8 C 0 km/h
774 14-03-2010 10:45:02 7 C 3.64 g/m*3 7 C 0 km/h
775 14-03-2010 10:57:02 6.9 C 3.7 g/m*3 6.9 C 0 km/h
Sensor: Nr:Datum:Temp:Abs-Feuchte:Windchill:Wind:
Aussen-T/F 776 14-03-2010 11:09:02 7.2 C 3.69 g/m*3 7.2 C 0 km/h
777 14-03-2010 11:21:02 7.5 C 3.76 g/m*3 7.5 C 0 km/h
778 14-03-2010 11:33:02 7.4 C 3.66 g/m*3 7.4 C 0 km/h
779 14-03-2010 11:45:01 7.5 C 3.76 g/m*3 7.5 C 0 km/h
780 14-03-2010 11:57:01 7.6 C 3.63 g/m*3 7.6 C 0 km/h
781 14-03-2010 12:09:02 7.8 C 3.51 g/m*3 7.8 C 0 km/h
782 14-03-2010 12:21:01 7.8 C 3.43 g/m*3 7.8 C 0 km/h
783 14-03-2010 12:33:01 7.7 C 3.49 g/m*3 7.7 C 0 km/h
784 14-03-2010 12:45:01 7.6 C 3.54 g/m*3 7.6 C 0 km/h
785 14-03-2010 12:57:01 7.6 C 3.63 g/m*3 7.6 C 0 km/h
786 14-03-2010 13:09:02 7.6 C 3.63 g/m*3 7.6 C 0 km/h
787 14-03-2010 13:21:01 7.7 C 3.73 g/m*3 7.7 C 0 km/h
788 14-03-2010 13:33:02 7.7 C 3.73 g/m*3 7.7 C 0 km/h
789 14-03-2010 13:45:02 7.5 C 3.76 g/m*3 7.5 C 0 km/h
790 14-03-2010 13:57:02 7.5 C 3.76 g/m*3 7.5 C 0 km/h
791 14-03-2010 14:09:02 7.4 C 3.74 g/m*3 7.4 C 0 km/h
792 14-03-2010 14:21:01 7.3 C 3.79 g/m*3 7.3 C 0 km/h
793 14-03-2010 14:33:02 7.4 C 3.82 g/m*3 7.4 C 0 km/h
794 14-03-2010 14:45:02 7.5 C 3.84 g/m*3 7.5 C 0 km/h
795 14-03-2010 14:57:02 7.5 C 3.84 g/m*3 7.5 C 0 km/h
796 14-03-2010 15:09:02 7.7 C 3.89 g/m*3 7.7 C 0 km/h
797 14-03-2010 15:21:02 7.7 C 3.89 g/m*3 7.7 C 0 km/h
798 14-03-2010 15:33:02 7.8 C 3.84 g/m*3 7.8 C 0 km/h
799 14-03-2010 15:45:02 7.8 C 3.92 g/m*3 7.8 C 0 km/h
800 14-03-2010 15:57:02 7.7 C 3.97 g/m*3 7.7 C 0 km/h
Sensor: Nr:Datum:Temp:Abs-Feuchte:Windchill:Wind:
Aussen-T/F 801 14-03-2010 16:09:02 7.6 C 3.95 g/m*3 7.6 C 0 km/h
802 14-03-2010 16:21:02 7.3 C 4.03 g/m*3 7.3 C 0 km/h
803 14-03-2010 16:33:02 7.2 C 4.08 g/m*3 7.2 C 0 km/h
804 14-03-2010 16:45:02 6.9 C 4.31 g/m*3 6.9 C 0 km/h
805 14-03-2010 16:57:02 6.5 C 4.27 g/m*3 6.5 C 0 km/h
806 14-03-2010 17:09:02 6.4 C 4.47 g/m*3 6.4 C 0 km/h
807 14-03-2010 17:21:02 6.7 C 4.18 g/m*3 6.7 C 0 km/h
808 14-03-2010 17:33:02 6.8 C 4.21 g/m*3 6.8 C 0 km/h
809 14-03-2010 17:45:02 6.6 C 4.23 g/m*3 6.6 C 0 km/h
810 14-03-2010 17:57:02 6.4 C 4.32 g/m*3 6.4 C 0 km/h
811 14-03-2010 18:09:02 6.4 C 4.4 g/m*3 6.4 C 0 km/h
812 14-03-2010 18:21:02 6.2 C 4.49 g/m*3 6.2 C 0 km/h
813 14-03-2010 18:33:02 5.9 C 4.61 g/m*3 5.9 C 0 km/h
814 14-03-2010 18:45:02 5.7 C 4.84 g/m*3 5.7 C 0 km/h
815 14-03-2010 18:57:02 5.4 C 4.95 g/m*3 5.4 C 0 km/h
816 14-03-2010 19:09:01 5.4 C 4.95 g/m*3 5.4 C 0 km/h
817 14-03-2010 19:21:02 5.4 C 4.95 g/m*3 5.4 C 0 km/h
818 14-03-2010 19:33:01 5.6 C 5.02 g/m*3 5.6 C 0 km/h
819 14-03-2010 19:45:02 5.7 C 4.98 g/m*3 5.7 C 0 km/h
820 14-03-2010 19:57:02 5.8 C 4.94 g/m*3 5.8 C 0 km/h
821 14-03-2010 20:09:01 5.7 C 4.91 g/m*3 5.7 C 0 km/h
822 14-03-2010 20:21:02 5.7 C 4.84 g/m*3 5.7 C 0 km/h
823 14-03-2010 20:33:01 5.7 C 4.77 g/m*3 5.7 C 0 km/h
824 14-03-2010 20:45:02 5.8 C 4.73 g/m*3 5.8 C 0 km/h
825 14-03-2010 20:57:02 5.7 C 4.63 g/m*3 5.7 C 0 km/h
Sensor: Nr:Datum:Temp:Abs-Feuchte:Windchill:Wind:
Aussen-T/F 826 14-03-2010 21:09:02 5.7 C 4.55 g/m*3 5.7 C 0 km/h
827 14-03-2010 21:21:02 5.7 C 4.55 g/m*3 5.7 C 0 km/h
828 14-03-2010 21:33:02 5.9 C 4.4 g/m*3 5.9 C 0 km/h
829 14-03-2010 21:46:05 5.8 C 4.37 g/m*3 5.8 C 0 km/h
830 14-03-2010 21:58:06 5.8 C 4.3 g/m*3 5.8 C 0 km/h
831 14-03-2010 22:10:06 5.8 C 4.3 g/m*3 5.8 C 0 km/h
832 14-03-2010 22:22:06 5.9 C 4.33 g/m*3 5.9 C 0 km/h
833 14-03-2010 22:34:06 5.8 C 4.3 g/m*3 5.8 C 0 km/h
834 14-03-2010 22:46:06 5.9 C 4.33 g/m*3 5.9 C 0 km/h
835 14-03-2010 22:58:06 5.9 C 4.33 g/m*3 5.9 C 0 km/h
836 14-03-2010 23:10:06 6.1 C 4.31 g/m*3 6.1 C 0 km/h
837 14-03-2010 23:22:06 6 C 4.5 g/m*3 6 C 0 km/h
838 14-03-2010 23:34:06 5.8 C 4.58 g/m*3 5.8 C 0 km/h
839 14-03-2010 23:46:06 6.1 C 4.75 g/m*3 6.1 C 0 km/h
840 14-03-2010 23:58:06 5.7 C 4.77 g/m*3 5.7 C 0 km/h
841 15-03-2010 00:10:06 5.8 C 4.73 g/m*3 5.8 C 0 km/h
842 15-03-2010 00:22:06 5.8 C 4.73 g/m*3 5.8 C 0 km/h
843 15-03-2010 00:34:06 5.9 C 4.76 g/m*3 5.9 C 0 km/h
844 15-03-2010 00:46:06 5.8 C 4.8 g/m*3 5.8 C 0 km/h
845 15-03-2010 00:58:06 5.8 C 4.73 g/m*3 5.8 C 0 km/h
846 15-03-2010 01:10:06 5.8 C 4.73 g/m*3 5.8 C 0 km/h
847 15-03-2010 01:22:06 5.8 C 4.73 g/m*3 5.8 C 0 km/h
848 15-03-2010 01:34:06 5.7 C 4.63 g/m*3 5.7 C 0 km/h
849 15-03-2010 01:46:06 5.7 C 4.7 g/m*3 5.7 C 0 km/h
850 15-03-2010 01:58:07 5.7 C 4.77 g/m*3 5.7 C 0 km/h
Sensor: Nr:Datum:Temp:Abs-Feuchte:Windchill:Wind:
Aussen-T/F 851 15-03-2010 02:10:07 5.4 C 4.81 g/m*3 5.4 C 0 km/h
852 15-03-2010 02:22:07 5.2 C 4.82 g/m*3 5.2 C 0 km/h
853 15-03-2010 02:34:07 4.9 C 4.93 g/m*3 4.9 C 0 km/h
854 15-03-2010 02:46:07 4.8 C 5.03 g/m*3 4.8 C 0 km/h
855 15-03-2010 02:58:07 4.7 C 5 g/m*3 4.7 C 0 km/h
856 15-03-2010 03:10:07 5 C 4.76 g/m*3 5 C 0 km/h
857 15-03-2010 03:22:07 5 C 4.69 g/m*3 5 C 0 km/h
858 15-03-2010 03:34:07 4.9 C 4.79 g/m*3 4.9 C 0 km/h
859 15-03-2010 03:46:07 4.8 C 4.69 g/m*3 4.8 C 0 km/h
860 15-03-2010 03:58:07 4.7 C 4.73 g/m*3 4.7 C 0 km/h
861 15-03-2010 04:10:07 4.6 C 4.63 g/m*3 4.6 C 0 km/h
862 15-03-2010 04:22:07 4.6 C 4.63 g/m*3 4.6 C 0 km/h
863 15-03-2010 04:34:07 4.6 C 4.63 g/m*3 4.6 C 0 km/h
864 15-03-2010 04:46:07 4.6 C 4.57 g/m*3 4.6 C 0 km/h
865 15-03-2010 04:58:07 4.7 C 4.6 g/m*3 4.7 C 0 km/h
866 15-03-2010 05:10:07 4.6 C 4.5 g/m*3 4.6 C 0 km/h
867 15-03-2010 05:22:07 4.6 C 4.57 g/m*3 4.6 C 0 km/h
868 15-03-2010 05:34:07 4.6 C 4.43 g/m*3 4.6 C 0 km/h
869 15-03-2010 05:46:07 4.7 C 4.33 g/m*3 4.7 C 0 km/h
870 15-03-2010 05:58:07 4.7 C 4.33 g/m*3 4.7 C 0 km/h
871 15-03-2010 06:10:08 4.7 C 4.26 g/m*3 4.7 C 0 km/h
872 15-03-2010 06:22:03 4.7 C 4.2 g/m*3 4.7 C 0 km/h
873 15-03-2010 06:34:04 4.6 C 4.17 g/m*3 4.6 C 0 km/h
874 15-03-2010 06:46:02 4.6 C 4.23 g/m*3 4.6 C 0 km/h
875 15-03-2010 06:58:02 4.7 C 4.2 g/m*3 4.7 C 0 km/h
Sensor: Nr:Datum:Temp:Abs-Feuchte:Windchill:Wind:
Aussen-T/F 876 15-03-2010 07:10:02 4.4 C 4.37 g/m*3 4.4 C 0 km/h
877 15-03-2010 07:22:02 4 C 4.64 g/m*3 4 C 0 km/h
878 15-03-2010 07:34:02 3.7 C 4.86 g/m*3 3.7 C 0 km/h
879 15-03-2010 07:46:02 3.6 C 4.95 g/m*3 3.6 C 0 km/h
880 15-03-2010 07:58:02 3.7 C 5.11 g/m*3 3.7 C 0 km/h
881 15-03-2010 08:10:02 3.8 C 5.21 g/m*3 3.8 C 0 km/h
882 15-03-2010 08:22:02 3.7 C 5.23 g/m*3 3.7 C 0 km/h
883 15-03-2010 08:34:02 3.8 C 5.33 g/m*3 3.8 C 0 km/h
884 15-03-2010 08:46:02 4 C 5.4 g/m*3 4 C 0 km/h
885 15-03-2010 08:58:02 4.2 C 5.54 g/m*3 4.2 C 0 km/h
886 15-03-2010 09:10:02 4.3 C 5.51 g/m*3 4.3 C 0 km/h
887 15-03-2010 09:22:02 4.3 C 5.51 g/m*3 4.3 C 0 km/h
888 15-03-2010 09:34:02 4.4 C 5.55 g/m*3 4.4 C 0 km/h
889 15-03-2010 09:46:02 4.6 C 5.62 g/m*3 4.6 C 0 km/h
890 15-03-2010 09:58:02 4.5 C 5.52 g/m*3 4.5 C 0 km/h
891 15-03-2010 10:10:02 4.5 C 5.52 g/m*3 4.5 C 0 km/h
892 15-03-2010 10:22:02 4.6 C 5.56 g/m*3 4.6 C 0 km/h
893 15-03-2010 10:34:02 5.1 C 5.61 g/m*3 5.1 C 0 km/h
894 15-03-2010 10:46:02 5.5 C 5.48 g/m*3 5.5 C 0 km/h
895 15-03-2010 10:58:02 6 C 5.44 g/m*3 6 C 0 km/h
896 15-03-2010 11:10:02 5.9 C 5.26 g/m*3 5.9 C 0 km/h
897 15-03-2010 11:22:02 6 C 5.08 g/m*3 6 C 0 km/h
898 15-03-2010 11:34:01 5.9 C 5.05 g/m*3 5.9 C 0 km/h
899 15-03-2010 11:46:02 5.9 C 4.98 g/m*3 5.9 C 0 km/h
900 15-03-2010 11:58:02 6 C 4.94 g/m*3 6 C 0 km/h
Sensor: Nr:Datum:Temp:Abs-Feuchte:Windchill:Wind:
Aussen-T/F 901 15-03-2010 12:10:01 6 C 4.79 g/m*3 6 C 0 km/h
902 15-03-2010 12:22:02 6.6 C 4.98 g/m*3 6.6 C 0 km/h
903 15-03-2010 12:34:01 7.4 C 4.85 g/m*3 7.4 C 0 km/h
904 15-03-2010 12:46:02 7.8 C 4.98 g/m*3 7.8 C 0 km/h
905 15-03-2010 12:58:02 8.5 C 4.87 g/m*3 8.5 C 0 km/h
906 15-03-2010 13:10:02 9.3 C 4.67 g/m*3 9.3 C 0 km/h
907 15-03-2010 13:22:02 9 C 4.58 g/m*3 9 C 0 km/h
908 15-03-2010 13:34:02 9.4 C 4.61 g/m*3 9.4 C 0 km/h
909 15-03-2010 13:46:02 9.9 C 4.58 g/m*3 9.9 C 0 km/h
910 15-03-2010 13:58:03 9.7 C 4.33 g/m*3 9.7 C 0 km/h
911 15-03-2010 14:10:01 10.1 C 4.35 g/m*3 10.1 C 0 km/h
912 15-03-2010 14:22:01 10 C 4.04 g/m*3 10 C 0 km/h
913 15-03-2010 14:34:02 10.4 C 3.95 g/m*3 10.4 C 0 km/h
914 15-03-2010 14:46:02 10.5 C 4.07 g/m*3 10.5 C 0 km/h
915 15-03-2010 14:58:02 10.3 C 4.02 g/m*3 10.3 C 0 km/h
916 15-03-2010 15:10:01 10.4 C 4.05 g/m*3 10.4 C 0 km/h
917 15-03-2010 15:22:02 11 C 4.1 g/m*3 11 C 0 km/h
918 15-03-2010 15:34:02 10.5 C 3.98 g/m*3 10.5 C 0 km/h
919 15-03-2010 15:46:02 10.4 C 4.05 g/m*3 10.4 C 0 km/h
920 15-03-2010 15:58:02 10.1 C 4.07 g/m*3 10.1 C 0 km/h
921 15-03-2010 16:10:03 9.9 C 4.2 g/m*3 9.9 C 0 km/h
922 15-03-2010 16:22:02 10 C 4.23 g/m*3 10 C 0 km/h
923 15-03-2010 16:34:02 9.9 C 4.29 g/m*3 9.9 C 0 km/h
924 15-03-2010 16:46:01 9.8 C 4.27 g/m*3 9.8 C 0 km/h
925 15-03-2010 16:58:01 9.7 C 4.43 g/m*3 9.7 C 0 km/h
Sensor: Nr:Datum:Temp:Abs-Feuchte:Windchill:Wind:
Aussen-T/F 926 15-03-2010 17:10:02 9.6 C 4.4 g/m*3 9.6 C 0 km/h
927 15-03-2010 17:22:01 9.2 C 4.55 g/m*3 9.2 C 0 km/h
928 15-03-2010 17:34:01 8.6 C 4.98 g/m*3 8.6 C 0 km/h
929 15-03-2010 17:46:01 8.3 C 5.06 g/m*3 8.3 C 0 km/h
930 15-03-2010 17:58:01 8.2 C 4.94 g/m*3 8.2 C 0 km/h
931 15-03-2010 18:10:02 8.2 C 5.11 g/m*3 8.2 C 0 km/h
932 15-03-2010 18:22:01 8.1 C 5.16 g/m*3 8.1 C 0 km/h
933 15-03-2010 18:34:02 8 C 5.21 g/m*3 8 C 0 km/h
934 15-03-2010 18:46:01 8.1 C 5.08 g/m*3 8.1 C 0 km/h
935 15-03-2010 18:58:01 7.7 C 5.27 g/m*3 7.7 C 0 km/h
936 15-03-2010 19:10:02 7.5 C 5.36 g/m*3 7.5 C 0 km/h
937 15-03-2010 19:22:01 7.2 C 5.42 g/m*3 7.2 C 0 km/h
938 15-03-2010 19:34:02 7.1 C 5.46 g/m*3 7.1 C 0 km/h
939 15-03-2010 19:46:01 7 C 5.5 g/m*3 7 C 0 km/h
940 15-03-2010 19:58:01 7 C 5.58 g/m*3 7 C 0 km/h
941 15-03-2010 20:10:02 6.7 C 5.77 g/m*3 6.7 C 0 km/h
942 15-03-2010 20:22:01 6.8 C 5.81 g/m*3 6.8 C 0 km/h
943 15-03-2010 20:34:02 6.9 C 5.62 g/m*3 6.9 C 0 km/h
944 15-03-2010 20:46:01 6.8 C 5.58 g/m*3 6.8 C 0 km/h
945 15-03-2010 20:58:01 6.8 C 5.58 g/m*3 6.8 C 0 km/h
946 15-03-2010 21:10:02 6.9 C 5.47 g/m*3 6.9 C 0 km/h
947 15-03-2010 21:22:02 6.6 C 5.59 g/m*3 6.6 C 0 km/h
948 15-03-2010 21:34:02 6.4 C 5.66 g/m*3 6.4 C 0 km/h
949 15-03-2010 21:46:01 6.3 C 5.85 g/m*3 6.3 C 0 km/h
950 15-03-2010 21:58:01 6.2 C 5.81 g/m*3 6.2 C 0 km/h
Sensor: Nr:Datum:Temp:Abs-Feuchte:Windchill:Wind:
Aussen-T/F 951 15-03-2010 22:10:01 6.1 C 5.77 g/m*3 6.1 C 0 km/h
952 15-03-2010 22:23:02 6 C 5.73 g/m*3 6 C 0 km/h
953 15-03-2010 22:35:02 6 C 5.88 g/m*3 6 C 0 km/h
954 15-03-2010 22:47:02 5.8 C 5.95 g/m*3 5.8 C 0 km/h
955 15-03-2010 22:59:02 5.8 C 6.02 g/m*3 5.8 C 0 km/h
956 15-03-2010 23:11:02 5.7 C 6.05 g/m*3 5.7 C 0 km/h
957 15-03-2010 23:23:02 5.6 C 6.08 g/m*3 5.6 C 0 km/h
958 15-03-2010 23:35:03 5.5 C 6.11 g/m*3 5.5 C 0 km/h
959 15-03-2010 23:47:03 5.5 C 6.11 g/m*3 5.5 C 0 km/h
960 15-03-2010 23:59:03 5.4 C 6.07 g/m*3 5.4 C 0 km/h
961 16-03-2010 00:11:03 5.4 C 6.14 g/m*3 5.4 C 0 km/h
962 16-03-2010 00:23:03 5.4 C 6.14 g/m*3 5.4 C 0 km/h
963 16-03-2010 00:35:03 5.3 C 6.1 g/m*3 5.3 C 0 km/h
964 16-03-2010 00:47:03 5.2 C 6.13 g/m*3 5.2 C 0 km/h
965 16-03-2010 00:59:03 5.1 C 6.09 g/m*3 5.1 C 0 km/h
966 16-03-2010 01:11:03 5 C 5.98 g/m*3 5 C 0 km/h
967 16-03-2010 01:23:03 5 C 6.05 g/m*3 5 C 0 km/h
968 16-03-2010 01:35:03 5 C 6.05 g/m*3 5 C 0 km/h
969 16-03-2010 01:47:03 5 C 6.05 g/m*3 5 C 0 km/h
970 16-03-2010 01:59:03 5 C 6.05 g/m*3 5 C 0 km/h
971 16-03-2010 02:11:03 5 C 6.12 g/m*3 5 C 0 km/h
972 16-03-2010 02:23:03 4.9 C 6.08 g/m*3 4.9 C 0 km/h
973 16-03-2010 02:35:03 4.9 C 6.08 g/m*3 4.9 C 0 km/h
974 16-03-2010 02:47:03 4.9 C 6.08 g/m*3 4.9 C 0 km/h
975 16-03-2010 02:59:03 4.8 C 5.97 g/m*3 4.8 C 0 km/h
Sensor: Nr:Datum:Temp:Abs-Feuchte:Windchill:Wind:
Aussen-T/F 976 16-03-2010 03:11:03 4.8 C 5.97 g/m*3 4.8 C 0 km/h
977 16-03-2010 03:23:03 4.7 C 5.93 g/m*3 4.7 C 0 km/h
978 16-03-2010 03:35:04 4.8 C 6.04 g/m*3 4.8 C 0 km/h
979 16-03-2010 03:47:04 4.8 C 6.04 g/m*3 4.8 C 0 km/h
980 16-03-2010 03:59:04 4.8 C 6.1 g/m*3 4.8 C 0 km/h
981 16-03-2010 04:11:04 4.8 C 6.1 g/m*3 4.8 C 0 km/h
982 16-03-2010 04:23:04 4.8 C 6.1 g/m*3 4.8 C 0 km/h
983 16-03-2010 04:35:04 4.7 C 6.06 g/m*3 4.7 C 0 km/h
984 16-03-2010 04:47:04 4.8 C 6.1 g/m*3 4.8 C 0 km/h
985 16-03-2010 04:59:04 4.7 C 6.06 g/m*3 4.7 C 0 km/h
986 16-03-2010 05:11:04 4.7 C 6.06 g/m*3 4.7 C 0 km/h
987 16-03-2010 05:23:04 4.7 C 6.13 g/m*3 4.7 C 0 km/h
988 16-03-2010 05:35:04 4.7 C 6.13 g/m*3 4.7 C 0 km/h
989 16-03-2010 05:47:04 4.6 C 6.02 g/m*3 4.6 C 0 km/h
990 16-03-2010 05:59:04 4.6 C 6.02 g/m*3 4.6 C 0 km/h
991 16-03-2010 06:11:04 4.6 C 6.02 g/m*3 4.6 C 0 km/h
992 16-03-2010 06:23:04 4.6 C 5.96 g/m*3 4.6 C 0 km/h
993 16-03-2010 06:35:04 4.6 C 5.96 g/m*3 4.6 C 0 km/h
994 16-03-2010 06:47:04 4.7 C 6.06 g/m*3 4.7 C 0 km/h
995 16-03-2010 06:59:04 4.7 C 6.06 g/m*3 4.7 C 0 km/h
996 16-03-2010 07:11:02 4.7 C 6.06 g/m*3 4.7 C 0 km/h
997 16-03-2010 07:23:01 4.8 C 6.1 g/m*3 4.8 C 0 km/h
998 16-03-2010 07:35:02 4.9 C 6.21 g/m*3 4.9 C 0 km/h
999 16-03-2010 07:47:02 5 C 6.18 g/m*3 5 C 0 km/h
1000 16-03-2010 07:59:02 5 C 6.18 g/m*3 5 C 0 km/h
Sensor: Nr:Datum:Temp:Abs-Feuchte:Windchill:Wind:
Aussen-T/F 1001 16-03-2010 08:11:02 5 C 6.18 g/m*3 5 C 0 km/h
1002 16-03-2010 08:23:02 5.1 C 6.22 g/m*3 5.1 C 0 km/h
1003 16-03-2010 08:35:02 5.3 C 6.31 g/m*3 5.3 C 0 km/h
1004 16-03-2010 08:47:02 5.3 C 6.24 g/m*3 5.3 C 0 km/h
1005 16-03-2010 08:59:02 5.5 C 6.32 g/m*3 5.5 C 0 km/h
1006 16-03-2010 09:11:01 5.7 C 6.4 g/m*3 5.7 C 0 km/h
1007 16-03-2010 09:23:02 6 C 6.46 g/m*3 6 C 0 km/h
1008 16-03-2010 09:35:01 6.4 C 6.48 g/m*3 6.4 C 0 km/h
1009 16-03-2010 09:47:02 6.4 C 6.26 g/m*3 6.4 C 0 km/h
1010 16-03-2010 09:59:02 6.6 C 6.11 g/m*3 6.6 C 0 km/h
1011 16-03-2010 10:11:01 6.7 C 6 g/m*3 6.7 C 0 km/h
1012 16-03-2010 10:23:01 6.8 C 5.97 g/m*3 6.8 C 0 km/h
1013 16-03-2010 10:35:02 6.8 C 5.81 g/m*3 6.8 C 0 km/h
1014 16-03-2010 10:47:02 6.8 C 5.66 g/m*3 6.8 C 0 km/h
1015 16-03-2010 10:59:03 6.9 C 5.7 g/m*3 6.9 C 0 km/h
1016 16-03-2010 11:11:01 7.1 C 5.62 g/m*3 7.1 C 0 km/h
1017 16-03-2010 11:23:02 7.5 C 5.44 g/m*3 7.5 C 0 km/h
1018 16-03-2010 11:35:02 8.1 C 5.41 g/m*3 8.1 C 0 km/h
1019 16-03-2010 11:47:02 8.5 C 5.29 g/m*3 8.5 C 0 km/h
1020 16-03-2010 11:59:02 8.7 C 5.1 g/m*3 8.7 C 0 km/h
1021 16-03-2010 12:11:03 8.7 C 5.1 g/m*3 8.7 C 0 km/h
1022 16-03-2010 12:23:02 8.9 C 5.26 g/m*3 8.9 C 0 km/h
1023 16-03-2010 12:35:02 8.4 C 5.17 g/m*3 8.4 C 0 km/h
1024 16-03-2010 12:47:02 7.9 C 5.34 g/m*3 7.9 C 0 km/h
1025 16-03-2010 12:59:02 7.8 C 5.39 g/m*3 7.8 C 0 km/h
Sensor: Nr:Datum:Temp:Abs-Feuchte:Windchill:Wind:
Aussen-T/F 1026 16-03-2010 13:11:02 8 C 5.29 g/m*3 8 C 0 km/h
1027 16-03-2010 13:23:01 7.8 C 5.14 g/m*3 7.8 C 0 km/h
1028 16-03-2010 13:35:02 8.7 C 5.45 g/m*3 8.7 C 0 km/h
1029 16-03-2010 13:47:02 8.2 C 5.11 g/m*3 8.2 C 0 km/h
1030 16-03-2010 13:59:02 8.1 C 5.08 g/m*3 8.1 C 0 km/h
1031 16-03-2010 14:11:02 8.1 C 5.16 g/m*3 8.1 C 0 km/h
1032 16-03-2010 14:23:01 8.7 C 5.36 g/m*3 8.7 C 0 km/h
1033 16-03-2010 14:35:02 8.7 C 5.1 g/m*3 8.7 C 0 km/h
1034 16-03-2010 14:47:02 8.2 C 4.94 g/m*3 8.2 C 0 km/h
1035 16-03-2010 14:59:02 8.1 C 4.99 g/m*3 8.1 C 0 km/h
1036 16-03-2010 15:11:02 8.1 C 5.08 g/m*3 8.1 C 0 km/h
1037 16-03-2010 15:23:01 8.5 C 5.12 g/m*3 8.5 C 0 km/h
1038 16-03-2010 15:35:02 8.6 C 4.81 g/m*3 8.6 C 0 km/h
1039 16-03-2010 15:47:01 8.8 C 4.79 g/m*3 8.8 C 0 km/h
1040 16-03-2010 15:59:01 9 C 4.85 g/m*3 9 C 0 km/h
1041 16-03-2010 16:11:02 8.7 C 4.76 g/m*3 8.7 C 0 km/h
1042 16-03-2010 16:23:02 8.5 C 4.78 g/m*3 8.5 C 0 km/h
1043 16-03-2010 16:35:02 8.7 C 4.84 g/m*3 8.7 C 0 km/h
1044 16-03-2010 16:47:02 8.7 C 4.84 g/m*3 8.7 C 0 km/h
1045 16-03-2010 16:59:02 8.7 C 4.84 g/m*3 8.7 C 0 km/h
1046 16-03-2010 17:11:02 8.9 C 4.99 g/m*3 8.9 C 0 km/h
1047 16-03-2010 17:23:02 8.8 C 5.05 g/m*3 8.8 C 0 km/h
1048 16-03-2010 17:35:01 8.6 C 4.98 g/m*3 8.6 C 0 km/h
1049 16-03-2010 17:47:02 8.6 C 4.98 g/m*3 8.6 C 0 km/h
1050 16-03-2010 17:59:02 8.4 C 5.01 g/m*3 8.4 C 0 km/h
Sensor: Nr:Datum:Temp:Abs-Feuchte:Windchill:Wind:
Aussen-T/F 1051 16-03-2010 18:11:01 8.2 C 5.28 g/m*3 8.2 C 0 km/h
1052 16-03-2010 18:23:02 8 C 5.37 g/m*3 8 C 0 km/h
1053 16-03-2010 18:35:01 7.8 C 5.55 g/m*3 7.8 C 0 km/h
1054 16-03-2010 18:47:02 7.5 C 5.52 g/m*3 7.5 C 0 km/h
1055 16-03-2010 18:59:02 7.3 C 5.53 g/m*3 7.3 C 0 km/h
1056 16-03-2010 19:11:02 7.1 C 5.46 g/m*3 7.1 C 0 km/h
1057 16-03-2010 19:23:02 7 C 5.58 g/m*3 7 C 0 km/h
1058 16-03-2010 19:35:03 6.9 C 5.62 g/m*3 6.9 C 0 km/h
1059 16-03-2010 19:47:02 6.8 C 5.58 g/m*3 6.8 C 0 km/h
1060 16-03-2010 19:59:02 6.6 C 5.51 g/m*3 6.6 C 0 km/h
1061 16-03-2010 20:11:01 6.2 C 5.37 g/m*3 6.2 C 0 km/h
1062 16-03-2010 20:23:02 5.7 C 5.34 g/m*3 5.7 C 0 km/h
1063 16-03-2010 20:35:02 5.3 C 5.2 g/m*3 5.3 C 0 km/h
1064 16-03-2010 20:47:02 4.9 C 5.2 g/m*3 4.9 C 0 km/h
1065 16-03-2010 20:59:03 4.6 C 5.16 g/m*3 4.6 C 0 km/h
1066 16-03-2010 21:11:01 4.4 C 5.09 g/m*3 4.4 C 0 km/h
1067 16-03-2010 21:23:01 4.2 C 5.03 g/m*3 4.2 C 0 km/h
1068 16-03-2010 21:36:04 4 C 5.02 g/m*3 4 C 0 km/h
1069 16-03-2010 21:48:04 3.8 C 5.02 g/m*3 3.8 C 0 km/h
1070 16-03-2010 22:00:04 3.7 C 5.05 g/m*3 3.7 C 0 km/h
1071 16-03-2010 22:12:04 3.3 C 4.91 g/m*3 3.3 C 0 km/h
1072 16-03-2010 22:24:04 3.2 C 4.88 g/m*3 3.2 C 0 km/h
1073 16-03-2010 22:36:04 2.9 C 4.84 g/m*3 2.9 C 0 km/h
1074 16-03-2010 22:48:04 2.8 C 4.81 g/m*3 2.8 C 0 km/h
1075 16-03-2010 23:00:04 2.7 C 4.78 g/m*3 2.7 C 0 km/h
Sensor: Nr:Datum:Temp:Abs-Feuchte:Windchill:Wind:
Aussen-T/F 1076 16-03-2010 23:12:04 2.5 C 4.71 g/m*3 2.5 C 0 km/h
1077 16-03-2010 23:24:04 2.4 C 4.74 g/m*3 2.4 C 0 km/h
1078 16-03-2010 23:36:04 2.2 C 4.68 g/m*3 2.2 C 0 km/h
1079 16-03-2010 23:48:04 2 C 4.61 g/m*3 2 C 0 km/h
1080 17-03-2010 00:00:04 2.3 C 4.76 g/m*3 2.3 C 0 km/h
1081 17-03-2010 00:12:04 2 C 4.67 g/m*3 2 C 0 km/h
1082 17-03-2010 00:24:05 2.2 C 4.73 g/m*3 2.2 C 0 km/h
1083 17-03-2010 00:36:05 2.3 C 4.82 g/m*3 2.3 C 0 km/h
1084 17-03-2010 00:48:05 2.3 C 4.76 g/m*3 2.3 C 0 km/h
1085 17-03-2010 01:00:05 2.3 C 4.76 g/m*3 2.3 C 0 km/h
1086 17-03-2010 01:12:05 2.3 C 4.76 g/m*3 2.3 C 0 km/h
1087 17-03-2010 01:24:05 1.8 C 4.6 g/m*3 1.8 C 0 km/h
1088 17-03-2010 01:36:05 1.6 C 4.54 g/m*3 1.6 C 0 km/h
1089 17-03-2010 01:48:05 1.7 C 4.63 g/m*3 1.7 C 0 km/h
1090 17-03-2010 02:00:05 2 C 4.67 g/m*3 2 C 0 km/h
1091 17-03-2010 02:12:05 2 C 4.67 g/m*3 2 C 0 km/h
1092 17-03-2010 02:24:05 2.1 C 4.64 g/m*3 2.1 C 0 km/h
1093 17-03-2010 02:36:05 2.1 C 4.64 g/m*3 2.1 C 0 km/h
1094 17-03-2010 02:48:05 2.1 C 4.59 g/m*3 2.1 C 0 km/h
1095 17-03-2010 03:00:05 2.2 C 4.62 g/m*3 2.2 C 0 km/h
1096 17-03-2010 03:12:05 2 C 4.56 g/m*3 2 C 0 km/h
1097 17-03-2010 03:24:05 2.1 C 4.59 g/m*3 2.1 C 0 km/h
1098 17-03-2010 03:36:05 2 C 4.56 g/m*3 2 C 0 km/h
1099 17-03-2010 03:48:05 2.1 C 4.59 g/m*3 2.1 C 0 km/h
1100 17-03-2010 04:00:05 2 C 4.56 g/m*3 2 C 0 km/h
Sensor: Nr:Datum:Temp:Abs-Feuchte:Windchill:Wind:
Aussen-T/F 1101 17-03-2010 04:12:05 1.9 C 4.58 g/m*3 1.9 C 0 km/h
1102 17-03-2010 04:24:05 1.7 C 4.46 g/m*3 1.7 C 0 km/h
1103 17-03-2010 04:36:06 1.4 C 4.37 g/m*3 1.4 C 0 km/h
1104 17-03-2010 04:48:06 1.1 C 4.34 g/m*3 1.1 C 0 km/h
1105 17-03-2010 05:00:06 1 C 4.31 g/m*3 1 C 0 km/h
1106 17-03-2010 05:12:06 0.8 C 4.3 g/m*3 0.8 C 0 km/h
1107 17-03-2010 05:24:06 0.8 C 4.35 g/m*3 0.8 C 0 km/h
1108 17-03-2010 05:36:06 0.7 C 4.32 g/m*3 0.7 C 0 km/h
1109 17-03-2010 05:48:06 0.7 C 4.37 g/m*3 0.7 C 0 km/h
1110 17-03-2010 06:00:06 0.6 C 4.34 g/m*3 0.6 C 0 km/h
1111 17-03-2010 06:12:06 0.5 C 4.31 g/m*3 0.5 C 0 km/h
1112 17-03-2010 06:24:06 0.6 C 4.39 g/m*3 0.6 C 0 km/h
1113 17-03-2010 06:36:06 0.4 C 4.33 g/m*3 0.4 C 0 km/h
1114 17-03-2010 06:48:02 0.6 C 4.39 g/m*3 0.6 C 0 km/h
1115 17-03-2010 07:00:02 0.5 C 4.36 g/m*3 0.5 C 0 km/h
1116 17-03-2010 07:12:02 0.6 C 4.44 g/m*3 0.6 C 0 km/h
1117 17-03-2010 07:24:03 0.8 C 4.51 g/m*3 0.8 C 0 km/h
1118 17-03-2010 07:36:02 1.2 C 4.63 g/m*3 1.2 C 0 km/h
1119 17-03-2010 07:48:02 1.5 C 4.73 g/m*3 1.5 C 0 km/h
1120 17-03-2010 08:00:02 1.6 C 4.7 g/m*3 1.6 C 0 km/h
1121 17-03-2010 08:12:02 1.8 C 4.77 g/m*3 1.8 C 0 km/h
1122 17-03-2010 08:24:02 2 C 4.72 g/m*3 2 C 0 km/h
1123 17-03-2010 08:36:02 2.3 C 4.76 g/m*3 2.3 C 0 km/h
1124 17-03-2010 08:48:02 2.6 C 4.8 g/m*3 2.6 C 0 km/h
1125 17-03-2010 09:00:02 2.9 C 4.67 g/m*3 2.9 C 0 km/h
Sensor: Nr:Datum:Temp:Abs-Feuchte:Windchill:Wind:
Aussen-T/F 1126 17-03-2010 09:12:02 3.5 C 4.67 g/m*3 3.5 C 0 km/h
1127 17-03-2010 09:24:03 4.2 C 4.77 g/m*3 4.2 C 0 km/h
1128 17-03-2010 09:36:02 4.6 C 4.5 g/m*3 4.6 C 0 km/h
1129 17-03-2010 09:48:02 4.8 C 4.36 g/m*3 4.8 C 0 km/h
1130 17-03-2010 10:00:02 5.2 C 4.41 g/m*3 5.2 C 0 km/h
1131 17-03-2010 10:12:02 5.5 C 4.35 g/m*3 5.5 C 0 km/h
1132 17-03-2010 10:24:02 6.2 C 4.27 g/m*3 6.2 C 0 km/h
1133 17-03-2010 10:36:02 6.8 C 4.36 g/m*3 6.8 C 0 km/h
1134 17-03-2010 10:48:02 7.1 C 4.21 g/m*3 7.1 C 0 km/h
1135 17-03-2010 11:00:02 7.6 C 4.11 g/m*3 7.6 C 0 km/h
1136 17-03-2010 11:12:02 8.2 C 3.94 g/m*3 8.2 C 0 km/h
1137 17-03-2010 11:24:02 8.8 C 3.92 g/m*3 8.8 C 0 km/h
1138 17-03-2010 11:36:01 9 C 3.79 g/m*3 9 C 0 km/h
1139 17-03-2010 11:48:02 9.1 C 3.73 g/m*3 9.1 C 0 km/h
1140 17-03-2010 12:00:02 9.6 C 3.94 g/m*3 9.6 C 0 km/h
1141 17-03-2010 12:12:01 10.1 C 3.78 g/m*3 10.1 C 0 km/h
1142 17-03-2010 12:24:02 10.4 C 3.66 g/m*3 10.4 C 0 km/h
1143 17-03-2010 12:36:02 11.1 C 3.73 g/m*3 11.1 C 0 km/h
1144 17-03-2010 12:48:02 11.5 C 3.72 g/m*3 11.5 C 0 km/h
1145 17-03-2010 13:00:03 11.8 C 3.58 g/m*3 11.8 C 0 km/h
1146 17-03-2010 13:12:02 12.2 C 3.45 g/m*3 12.2 C 0 km/h
1147 17-03-2010 13:24:02 12.8 C 3.47 g/m*3 12.8 C 0 km/h
1148 17-03-2010 13:36:02 13.1 C 3.42 g/m*3 13.1 C 0 km/h
1149 17-03-2010 13:48:02 13.2 C 3.44 g/m*3 13.2 C 0 km/h
1150 17-03-2010 14:00:02 13.4 C 3.02 g/m*3 13.4 C 0 km/h
Sensor: Nr:Datum:Temp:Abs-Feuchte:Windchill:Wind:
Aussen-T/F 1151 17-03-2010 14:12:02 13.5 C 2.92 g/m*3 13.5 C 0 km/h
1152 17-03-2010 14:24:01 13.4 C 2.91 g/m*3 13.4 C 0 km/h
1153 17-03-2010 14:36:02 13.8 C 3.1 g/m*3 13.8 C 0 km/h
1154 17-03-2010 14:48:02 14.1 C 2.79 g/m*3 14.1 C 0 km/h
1155 17-03-2010 15:00:02 14.5 C 3.11 g/m*3 14.5 C 0 km/h
1156 17-03-2010 15:12:02 14.7 C 3.15 g/m*3 14.7 C 0 km/h
1157 17-03-2010 15:24:02 14.6 C 3.13 g/m*3 14.6 C 0 km/h
1158 17-03-2010 15:36:02 14.6 C 3.13 g/m*3 14.6 C 0 km/h
1159 17-03-2010 15:48:02 14.1 C 3.16 g/m*3 14.1 C 0 km/h
1160 17-03-2010 16:00:02 14.1 C 3.03 g/m*3 14.1 C 0 km/h
1161 17-03-2010 16:12:03 13.9 C 3 g/m*3 13.9 C 0 km/h
1162 17-03-2010 16:24:02 14 C 3.14 g/m*3 14 C 0 km/h
1163 17-03-2010 16:36:02 13.9 C 3.12 g/m*3 13.9 C 0 km/h
1164 17-03-2010 16:48:01 13.8 C 2.98 g/m*3 13.8 C 0 km/h
1165 17-03-2010 17:00:01 13.7 C 3.08 g/m*3 13.7 C 0 km/h
1166 17-03-2010 17:12:02 13.7 C 3.08 g/m*3 13.7 C 0 km/h
1167 17-03-2010 17:24:01 13.4 C 3.25 g/m*3 13.4 C 0 km/h
1168 17-03-2010 17:36:01 13.1 C 3.42 g/m*3 13.1 C 0 km/h
1169 17-03-2010 17:48:01 12.5 C 3.63 g/m*3 12.5 C 0 km/h
1170 17-03-2010 18:00:01 12 C 3.62 g/m*3 12 C 0 km/h
1171 17-03-2010 18:12:02 11.7 C 3.77 g/m*3 11.7 C 0 km/h
1172 17-03-2010 18:24:02 11.2 C 3.75 g/m*3 11.2 C 0 km/h
1173 17-03-2010 18:36:01 10.8 C 3.76 g/m*3 10.8 C 0 km/h
1174 17-03-2010 18:48:01 10.4 C 3.86 g/m*3 10.4 C 0 km/h
1175 17-03-2010 19:00:01 10 C 3.95 g/m*3 10 C 0 km/h
Sensor: Nr:Datum:Temp:Abs-Feuchte:Windchill:Wind:
Aussen-T/F 1176 17-03-2010 19:12:01 9.6 C 3.94 g/m*3 9.6 C 0 km/h
1177 17-03-2010 19:24:02 9.5 C 3.91 g/m*3 9.5 C 0 km/h
1178 17-03-2010 19:36:01 9.2 C 4.02 g/m*3 9.2 C 0 km/h
1179 17-03-2010 19:48:03 9 C 4.14 g/m*3 9 C 0 km/h
1180 17-03-2010 20:00:03 8.6 C 4.12 g/m*3 8.6 C 0 km/h
1181 17-03-2010 20:12:02 8.5 C 4.18 g/m*3 8.5 C 0 km/h
1182 17-03-2010 20:24:02 8.2 C 4.19 g/m*3 8.2 C 0 km/h
1183 17-03-2010 20:36:02 7.9 C 4.19 g/m*3 7.9 C 0 km/h
1184 17-03-2010 20:48:02 7.8 C 4.24 g/m*3 7.8 C 0 km/h
1185 17-03-2010 21:00:02 7.5 C 4.32 g/m*3 7.5 C 0 km/h
1186 17-03-2010 21:13:03 7.3 C 4.35 g/m*3 7.3 C 0 km/h
1187 17-03-2010 21:25:03 7.3 C 4.35 g/m*3 7.3 C 0 km/h
1188 17-03-2010 21:37:03 7 C 4.26 g/m*3 7 C 0 km/h
1189 17-03-2010 21:49:03 6.9 C 4.39 g/m*3 6.9 C 0 km/h
1190 17-03-2010 22:01:03 6.9 C 4.39 g/m*3 6.9 C 0 km/h
1191 17-03-2010 22:13:03 6.9 C 4.39 g/m*3 6.9 C 0 km/h
1192 17-03-2010 22:25:03 6.9 C 4.31 g/m*3 6.9 C 0 km/h
1193 17-03-2010 22:37:03 6.9 C 4.23 g/m*3 6.9 C 0 km/h
1194 17-03-2010 22:49:03 6.8 C 4.28 g/m*3 6.8 C 0 km/h
1195 17-03-2010 23:01:03 6.6 C 4.38 g/m*3 6.6 C 0 km/h
1196 17-03-2010 23:13:03 6.4 C 4.4 g/m*3 6.4 C 0 km/h
1197 17-03-2010 23:25:03 6.1 C 4.38 g/m*3 6.1 C 0 km/h
1198 17-03-2010 23:37:03 5.9 C 4.47 g/m*3 5.9 C 0 km/h
1199 17-03-2010 23:49:03 6.2 C 4.49 g/m*3 6.2 C 0 km/h
1200 18-03-2010 00:01:03 6.1 C 4.38 g/m*3 6.1 C 0 km/h
Sensor: Nr:Datum:Temp:Abs-Feuchte:Windchill:Wind:
Aussen-T/F 1201 18-03-2010 00:13:03 6.1 C 4.38 g/m*3 6.1 C 0 km/h
1202 18-03-2010 00:25:03 5.8 C 4.44 g/m*3 5.8 C 0 km/h
1203 18-03-2010 00:37:03 5.7 C 4.41 g/m*3 5.7 C 0 km/h
1204 18-03-2010 00:49:03 5.7 C 4.41 g/m*3 5.7 C 0 km/h
1205 18-03-2010 01:01:03 5.6 C 4.38 g/m*3 5.6 C 0 km/h
1206 18-03-2010 01:13:04 5.5 C 4.35 g/m*3 5.5 C 0 km/h
1207 18-03-2010 01:25:04 5.6 C 4.38 g/m*3 5.6 C 0 km/h
1208 18-03-2010 01:37:04 5.4 C 4.4 g/m*3 5.4 C 0 km/h
1209 18-03-2010 01:49:04 5.4 C 4.47 g/m*3 5.4 C 0 km/h
1210 18-03-2010 02:01:04 5.4 C 4.4 g/m*3 5.4 C 0 km/h
1211 18-03-2010 02:13:04 5.4 C 4.4 g/m*3 5.4 C 0 km/h
1212 18-03-2010 02:25:04 5.3 C 4.37 g/m*3 5.3 C 0 km/h
1213 18-03-2010 02:37:04 4.9 C 4.39 g/m*3 4.9 C 0 km/h
1214 18-03-2010 02:49:04 4.5 C 4.34 g/m*3 4.5 C 0 km/h
1215 18-03-2010 03:01:04 4.3 C 4.35 g/m*3 4.3 C 0 km/h
1216 18-03-2010 03:13:04 4 C 4.32 g/m*3 4 C 0 km/h
1217 18-03-2010 03:25:04 3.8 C 4.39 g/m*3 3.8 C 0 km/h
1218 18-03-2010 03:37:04 3.8 C 4.39 g/m*3 3.8 C 0 km/h
1219 18-03-2010 03:49:04 3.8 C 4.39 g/m*3 3.8 C 0 km/h
1220 18-03-2010 04:01:04 3.8 C 4.39 g/m*3 3.8 C 0 km/h
1221 18-03-2010 04:13:04 3.7 C 4.42 g/m*3 3.7 C 0 km/h
1222 18-03-2010 04:25:04 3.4 C 4.4 g/m*3 3.4 C 0 km/h
1223 18-03-2010 04:37:04 3.2 C 4.34 g/m*3 3.2 C 0 km/h
1224 18-03-2010 04:49:04 3 C 4.28 g/m*3 3 C 0 km/h
1225 18-03-2010 05:01:04 2.8 C 4.34 g/m*3 2.8 C 0 km/h
Sensor: Nr:Datum:Temp:Abs-Feuchte:Windchill:Wind:
Aussen-T/F 1226 18-03-2010 05:13:04 2.7 C 4.31 g/m*3 2.7 C 0 km/h
1227 18-03-2010 05:25:04 2.5 C 4.25 g/m*3 2.5 C 0 km/h
1228 18-03-2010 05:37:04 2.5 C 4.25 g/m*3 2.5 C 0 km/h
1229 18-03-2010 05:49:05 2.2 C 4.17 g/m*3 2.2 C 0 km/h
1230 18-03-2010 06:01:05 2.1 C 4.2 g/m*3 2.1 C 0 km/h
1231 18-03-2010 06:13:05 2.1 C 4.25 g/m*3 2.1 C 0 km/h
1232 18-03-2010 06:25:05 1.9 C 4.19 g/m*3 1.9 C 0 km/h
1233 18-03-2010 06:37:05 1.8 C 4.22 g/m*3 1.8 C 0 km/h
1234 18-03-2010 06:49:05 1.7 C 4.19 g/m*3 1.7 C 0 km/h
1235 18-03-2010 07:01:02 1.7 C 4.19 g/m*3 1.7 C 0 km/h
1236 18-03-2010 07:13:02 1.9 C 4.3 g/m*3 1.9 C 0 km/h
1237 18-03-2010 07:25:03 1.8 C 4.28 g/m*3 1.8 C 0 km/h
1238 18-03-2010 07:37:02 2 C 4.33 g/m*3 2 C 0 km/h
1239 18-03-2010 07:49:02 2.2 C 4.39 g/m*3 2.2 C 0 km/h
1240 18-03-2010 08:01:01 2.5 C 4.43 g/m*3 2.5 C 0 km/h
1241 18-03-2010 08:13:01 2.8 C 4.52 g/m*3 2.8 C 0 km/h
1242 18-03-2010 08:25:02 3.1 C 4.55 g/m*3 3.1 C 0 km/h
1243 18-03-2010 08:37:01 3.5 C 4.61 g/m*3 3.5 C 0 km/h
1244 18-03-2010 08:49:01 4 C 4.64 g/m*3 4 C 0 km/h
1245 18-03-2010 09:01:02 4.6 C 4.7 g/m*3 4.6 C 0 km/h
1246 18-03-2010 09:13:02 5.1 C 4.45 g/m*3 5.1 C 0 km/h
1247 18-03-2010 09:25:01 5.3 C 4.37 g/m*3 5.3 C 0 km/h
1248 18-03-2010 09:37:02 5.9 C 4.25 g/m*3 5.9 C 0 km/h
1249 18-03-2010 09:49:01 6.2 C 4.19 g/m*3 6.2 C 0 km/h
1250 18-03-2010 10:01:02 6.7 C 4.41 g/m*3 6.7 C 0 km/h
Sensor: Nr:Datum:Temp:Abs-Feuchte:Windchill:Wind:
Aussen-T/F 1251 18-03-2010 10:13:02 7.4 C 4.53 g/m*3 7.4 C 0 km/h
1252 18-03-2010 10:25:01 7.9 C 4.35 g/m*3 7.9 C 0 km/h
1253 18-03-2010 10:37:02 8.3 C 4.3 g/m*3 8.3 C 0 km/h
1254 18-03-2010 10:49:01 8.8 C 4.35 g/m*3 8.8 C 0 km/h
1255 18-03-2010 11:01:02 9.5 C 4.46 g/m*3 9.5 C 0 km/h
1256 18-03-2010 11:13:02 10.2 C 4.47 g/m*3 10.2 C 0 km/h
1257 18-03-2010 11:25:02 10.7 C 4.52 g/m*3 10.7 C 0 km/h
1258 18-03-2010 11:37:01 11.4 C 4.21 g/m*3 11.4 C 0 km/h
1259 18-03-2010 11:49:01 12 C 4.05 g/m*3 12 C 0 km/h
1260 18-03-2010 12:01:01 12.8 C 4.26 g/m*3 12.8 C 0 km/h
1261 18-03-2010 12:13:01 13.4 C 4.18 g/m*3 13.4 C 0 km/h
1262 18-03-2010 12:25:02 14.2 C 4.27 g/m*3 14.2 C 0 km/h
1263 18-03-2010 12:37:01 15 C 4.1 g/m*3 15 C 0 km/h
1264 18-03-2010 12:49:02 15.9 C 4.2 g/m*3 15.9 C 0 km/h
1265 18-03-2010 13:01:01 16.8 C 3.86 g/m*3 16.8 C 0 km/h
1266 18-03-2010 13:13:01 17.5 C 3.58 g/m*3 17.5 C 0 km/h
1267 18-03-2010 13:25:02 18.2 C 3.11 g/m*3 18.2 C 0 km/h
1268 18-03-2010 13:37:01 18.7 C 3.2 g/m*3 18.7 C 0 km/h
1269 18-03-2010 13:49:02 19 C 3.26 g/m*3 19 C 0 km/h
1270 18-03-2010 14:01:02 19.2 C 3.3 g/m*3 19.2 C 0 km/h
1271 18-03-2010 14:13:02 19.1 C 3.28 g/m*3 19.1 C 0 km/h
1272 18-03-2010 14:25:02 19 C 3.26 g/m*3 19 C 0 km/h
1273 18-03-2010 14:37:02 19.2 C 3.3 g/m*3 19.2 C 0 km/h
1274 18-03-2010 14:49:02 19.6 C 3.38 g/m*3 19.6 C 0 km/h
1275 18-03-2010 15:01:01 20.2 C 3.5 g/m*3 20.2 C 0 km/h
Sensor: Nr:Datum:Temp:Abs-Feuchte:Windchill:Wind:
Aussen-T/F 1276 18-03-2010 15:13:01 20 C 3.46 g/m*3 20 C 0 km/h
1277 18-03-2010 15:25:02 20.4 C 3.54 g/m*3 20.4 C 0 km/h
1278 18-03-2010 15:37:02 20.6 C 3.58 g/m*3 20.6 C 0 km/h
1279 18-03-2010 15:49:01 20.6 C 3.58 g/m*3 20.6 C 0 km/h
1280 18-03-2010 16:01:01 20 C 3.46 g/m*3 20 C 0 km/h
1281 18-03-2010 16:13:01 19.8 C 3.42 g/m*3 19.8 C 0 km/h
1282 18-03-2010 16:25:01 20 C 3.46 g/m*3 20 C 0 km/h
1283 18-03-2010 16:37:02 20 C 3.46 g/m*3 20 C 0 km/h
1284 18-03-2010 16:49:02 19.3 C 3.32 g/m*3 19.3 C 0 km/h
1285 18-03-2010 17:01:02 19.1 C 3.28 g/m*3 19.1 C 0 km/h
1286 18-03-2010 17:13:02 18.5 C 3.16 g/m*3 18.5 C 0 km/h
1287 18-03-2010 17:25:02 18 C 3.38 g/m*3 18 C 0 km/h
1288 18-03-2010 17:37:02 17.5 C 3.88 g/m*3 17.5 C 0 km/h
1289 18-03-2010 17:49:02 16.8 C 4.15 g/m*3 16.8 C 0 km/h
1290 18-03-2010 18:01:03 16.3 C 4.16 g/m*3 16.3 C 0 km/h
1291 18-03-2010 18:13:03 15.8 C 4.17 g/m*3 15.8 C 0 km/h
1292 18-03-2010 18:25:02 15.4 C 3.94 g/m*3 15.4 C 0 km/h
1293 18-03-2010 18:37:02 15 C 3.98 g/m*3 15 C 0 km/h
1294 18-03-2010 18:49:01 14.5 C 3.98 g/m*3 14.5 C 0 km/h
1295 18-03-2010 19:01:02 14.1 C 4 g/m*3 14.1 C 0 km/h
1296 18-03-2010 19:13:02 13.7 C 4.14 g/m*3 13.7 C 0 km/h
1297 18-03-2010 19:25:01 13.4 C 4.18 g/m*3 13.4 C 0 km/h
1298 18-03-2010 19:37:02 13.3 C 4.04 g/m*3 13.3 C 0 km/h
1299 18-03-2010 19:49:02 13.2 C 4.13 g/m*3 13.2 C 0 km/h
1300 18-03-2010 20:01:02 13.1 C 4.11 g/m*3 13.1 C 0 km/h
Sensor: Nr:Datum:Temp:Abs-Feuchte:Windchill:Wind:
Aussen-T/F 1301 18-03-2010 20:13:02 13.1 C 3.99 g/m*3 13.1 C 0 km/h
1302 18-03-2010 20:25:01 13 C 3.86 g/m*3 13 C 0 km/h
1303 18-03-2010 20:37:02 12.8 C 4.03 g/m*3 12.8 C 0 km/h
1304 18-03-2010 20:49:02 12.6 C 3.98 g/m*3 12.6 C 0 km/h
1305 18-03-2010 21:01:02 12.4 C 3.93 g/m*3 12.4 C 0 km/h
1306 18-03-2010 21:13:02 12.4 C 3.82 g/m*3 12.4 C 0 km/h
1307 18-03-2010 21:25:02 12.4 C 3.82 g/m*3 12.4 C 0 km/h
1308 18-03-2010 21:37:02 12.1 C 3.97 g/m*3 12.1 C 0 km/h
1309 18-03-2010 21:49:02 11.8 C 3.89 g/m*3 11.8 C 0 km/h
1310 18-03-2010 22:01:02 11.7 C 3.97 g/m*3 11.7 C 0 km/h
1311 18-03-2010 22:13:02 11.4 C 3.9 g/m*3 11.4 C 0 km/h
1312 18-03-2010 22:25:02 11.2 C 4.05 g/m*3 11.2 C 0 km/h
1313 18-03-2010 22:38:04 11.1 C 4.03 g/m*3 11.1 C 0 km/h
1314 18-03-2010 22:50:04 10.8 C 4.05 g/m*3 10.8 C 0 km/h
1315 18-03-2010 23:02:04 10.5 C 4.07 g/m*3 10.5 C 0 km/h
1316 18-03-2010 23:14:04 10.7 C 3.93 g/m*3 10.7 C 0 km/h
1317 18-03-2010 23:26:04 10.7 C 3.93 g/m*3 10.7 C 0 km/h
1318 18-03-2010 23:38:04 10.5 C 3.98 g/m*3 10.5 C 0 km/h
1319 18-03-2010 23:50:04 10.4 C 3.86 g/m*3 10.4 C 0 km/h
1320 19-03-2010 00:02:04 10 C 4.04 g/m*3 10 C 0 km/h
1321 19-03-2010 00:14:04 9.8 C 4.08 g/m*3 9.8 C 0 km/h
1322 19-03-2010 00:26:04 9.8 C 4.08 g/m*3 9.8 C 0 km/h
1323 19-03-2010 00:38:04 9.9 C 4.01 g/m*3 9.9 C 0 km/h
1324 19-03-2010 00:50:04 10.1 C 3.88 g/m*3 10.1 C 0 km/h
1325 19-03-2010 01:02:04 10.8 C 3.56 g/m*3 10.8 C 0 km/h
Sensor: Nr:Datum:Temp:Abs-Feuchte:Windchill:Wind:
Aussen-T/F 1326 19-03-2010 01:14:04 11.4 C 3.39 g/m*3 11.4 C 0 km/h
1327 19-03-2010 01:26:04 11.5 C 3.31 g/m*3 11.5 C 0 km/h
1328 19-03-2010 01:38:04 11.4 C 3.28 g/m*3 11.4 C 0 km/h
1329 19-03-2010 01:50:05 11.4 C 3.28 g/m*3 11.4 C 0 km/h
1330 19-03-2010 02:02:05 11.4 C 3.28 g/m*3 11.4 C 0 km/h
1331 19-03-2010 02:14:05 11.5 C 3.31 g/m*3 11.5 C 0 km/h
1332 19-03-2010 02:26:05 11.4 C 3.39 g/m*3 11.4 C 0 km/h
1333 19-03-2010 02:38:05 11.6 C 3.33 g/m*3 11.6 C 0 km/h
1334 19-03-2010 02:50:05 11.6 C 3.33 g/m*3 11.6 C 0 km/h
1335 19-03-2010 03:02:05 11.6 C 3.33 g/m*3 11.6 C 0 km/h
1336 19-03-2010 03:14:05 12 C 3.2 g/m*3 12 C 0 km/h
1337 19-03-2010 03:26:05 12 C 3.2 g/m*3 12 C 0 km/h
1338 19-03-2010 03:38:05 12.1 C 3.22 g/m*3 12.1 C 0 km/h
1339 19-03-2010 03:50:05 12.1 C 3.22 g/m*3 12.1 C 0 km/h
1340 19-03-2010 04:02:05 12.2 C 3.24 g/m*3 12.2 C 0 km/h
1341 19-03-2010 04:14:05 12.1 C 3.22 g/m*3 12.1 C 0 km/h
1342 19-03-2010 04:26:05 11.9 C 3.28 g/m*3 11.9 C 0 km/h
1343 19-03-2010 04:38:05 11.8 C 3.37 g/m*3 11.8 C 0 km/h
1344 19-03-2010 04:50:05 11.6 C 3.43 g/m*3 11.6 C 0 km/h
1345 19-03-2010 05:02:05 11.4 C 3.49 g/m*3 11.4 C 0 km/h
1346 19-03-2010 05:14:05 11.3 C 3.57 g/m*3 11.3 C 0 km/h
1347 19-03-2010 05:26:05 11.3 C 3.57 g/m*3 11.3 C 0 km/h
1348 19-03-2010 05:38:05 11.3 C 3.57 g/m*3 11.3 C 0 km/h
1349 19-03-2010 05:50:06 11.6 C 3.64 g/m*3 11.6 C 0 km/h
1350 19-03-2010 06:02:06 11.5 C 3.62 g/m*3 11.5 C 0 km/h
Sensor: Nr:Datum:Temp:Abs-Feuchte:Windchill:Wind:
Aussen-T/F 1351 19-03-2010 06:14:06 11.5 C 3.62 g/m*3 11.5 C 0 km/h
1352 19-03-2010 06:26:06 11.5 C 3.62 g/m*3 11.5 C 0 km/h
1353 19-03-2010 06:38:06 11.5 C 3.72 g/m*3 11.5 C 0 km/h
1354 19-03-2010 06:50:02 11.4 C 3.7 g/m*3 11.4 C 0 km/h
1355 19-03-2010 07:02:02 11.4 C 3.9 g/m*3 11.4 C 0 km/h
1356 19-03-2010 07:14:02 11.8 C 4 g/m*3 11.8 C 0 km/h
1357 19-03-2010 07:26:02 12.3 C 4.02 g/m*3 12.3 C 0 km/h
1358 19-03-2010 07:38:01 12.4 C 4.04 g/m*3 12.4 C 0 km/h
1359 19-03-2010 07:50:02 12.4 C 4.04 g/m*3 12.4 C 0 km/h
1360 19-03-2010 08:02:02 12.3 C 4.13 g/m*3 12.3 C 0 km/h
1361 19-03-2010 08:14:02 12.6 C 4.43 g/m*3 12.6 C 0 km/h
1362 19-03-2010 08:26:02 12.9 C 4.62 g/m*3 12.9 C 0 km/h
1363 19-03-2010 08:38:02 13.1 C 4.56 g/m*3 13.1 C 0 km/h
1364 19-03-2010 08:50:02 13.3 C 4.74 g/m*3 13.3 C 0 km/h
1365 19-03-2010 09:02:01 13.4 C 4.77 g/m*3 13.4 C 0 km/h
1366 19-03-2010 09:14:01 13.5 C 4.8 g/m*3 13.5 C 0 km/h
1367 19-03-2010 09:26:01 13.5 C 4.91 g/m*3 13.5 C 0 km/h
1368 19-03-2010 09:38:02 13.6 C 4.94 g/m*3 13.6 C 0 km/h
1369 19-03-2010 09:50:02 13.8 C 5 g/m*3 13.8 C 0 km/h
1370 19-03-2010 10:02:01 14.1 C 5.1 g/m*3 14.1 C 0 km/h
1371 19-03-2010 10:14:01 14.4 C 5.07 g/m*3 14.4 C 0 km/h
1372 19-03-2010 10:26:02 14.9 C 5.23 g/m*3 14.9 C 0 km/h
1373 19-03-2010 10:38:02 15.2 C 5.19 g/m*3 15.2 C 0 km/h
1374 19-03-2010 10:50:02 15.5 C 5.16 g/m*3 15.5 C 0 km/h
1375 19-03-2010 11:02:01 15.8 C 5.25 g/m*3 15.8 C 0 km/h
Sensor: Nr:Datum:Temp:Abs-Feuchte:Windchill:Wind:
Aussen-T/F 1376 19-03-2010 11:14:01 16.2 C 5.24 g/m*3 16.2 C 0 km/h
1377 19-03-2010 11:26:02 16.3 C 5.27 g/m*3 16.3 C 0 km/h
1378 19-03-2010 11:38:01 16 C 5.31 g/m*3 16 C 0 km/h
1379 19-03-2010 11:50:02 16.5 C 5.48 g/m*3 16.5 C 0 km/h
1380 19-03-2010 12:02:01 17 C 5.35 g/m*3 17 C 0 km/h
1381 19-03-2010 12:14:01 18.1 C 5.41 g/m*3 18.1 C 0 km/h
1382 19-03-2010 12:26:02 18.6 C 5.57 g/m*3 18.6 C 0 km/h
1383 19-03-2010 12:38:01 19 C 5.38 g/m*3 19 C 0 km/h
1384 19-03-2010 12:50:02 18.9 C 5.35 g/m*3 18.9 C 0 km/h
1385 19-03-2010 13:02:02 18.3 C 5.47 g/m*3 18.3 C 0 km/h
1386 19-03-2010 13:14:02 18.7 C 5.44 g/m*3 18.7 C 0 km/h
1387 19-03-2010 13:26:02 18.7 C 5.28 g/m*3 18.7 C 0 km/h
1388 19-03-2010 13:38:02 19.3 C 5.14 g/m*3 19.3 C 0 km/h
1389 19-03-2010 13:50:02 19.4 C 5.17 g/m*3 19.4 C 0 km/h
1390 19-03-2010 14:02:01 20 C 5.18 g/m*3 20 C 0 km/h
1391 19-03-2010 14:14:01 19.8 C 5.12 g/m*3 19.8 C 0 km/h
1392 19-03-2010 14:26:02 20.3 C 5.1 g/m*3 20.3 C 0 km/h
1393 19-03-2010 14:38:01 20.6 C 4.83 g/m*3 20.6 C 0 km/h
1394 19-03-2010 14:50:02 20.7 C 4.86 g/m*3 20.7 C 0 km/h
1395 19-03-2010 15:02:01 20.6 C 4.65 g/m*3 20.6 C 0 km/h
1396 19-03-2010 15:14:01 21 C 4.58 g/m*3 21 C 0 km/h
1397 19-03-2010 15:26:01 21.2 C 4.63 g/m*3 21.2 C 0 km/h
1398 19-03-2010 15:38:02 20.6 C 4.65 g/m*3 20.6 C 0 km/h
1399 19-03-2010 15:50:02 20.8 C 4.71 g/m*3 20.8 C 0 km/h
1400 19-03-2010 16:02:01 20.7 C 4.68 g/m*3 20.7 C 0 km/h
Sensor: Nr:Datum:Temp:Abs-Feuchte:Windchill:Wind:
Aussen-T/F 1401 19-03-2010 16:14:01 20.8 C 4.89 g/m*3 20.8 C 0 km/h
1402 19-03-2010 16:26:02 20 C 4.84 g/m*3 20 C 0 km/h
1403 19-03-2010 16:38:02 20 C 4.84 g/m*3 20 C 0 km/h
1404 19-03-2010 16:50:01 19.7 C 5.09 g/m*3 19.7 C 0 km/h
1405 19-03-2010 17:02:02 19.4 C 5.17 g/m*3 19.4 C 0 km/h
1406 19-03-2010 17:14:02 19.1 C 5.08 g/m*3 19.1 C 0 km/h
1407 19-03-2010 17:26:01 18.8 C 5.15 g/m*3 18.8 C 0 km/h
1408 19-03-2010 17:38:01 18.6 C 5.09 g/m*3 18.6 C 0 km/h
1409 19-03-2010 17:50:01 18.3 C 5.32 g/m*3 18.3 C 0 km/h
1410 19-03-2010 18:02:02 18.1 C 5.41 g/m*3 18.1 C 0 km/h
1411 19-03-2010 18:14:02 17.9 C 5.5 g/m*3 17.9 C 0 km/h
1412 19-03-2010 18:26:01 17.7 C 5.43 g/m*3 17.7 C 0 km/h
1413 19-03-2010 18:38:02 17.3 C 5.45 g/m*3 17.3 C 0 km/h
1414 19-03-2010 18:50:02 16.8 C 5.58 g/m*3 16.8 C 0 km/h
1415 19-03-2010 19:02:02 16.4 C 5.58 g/m*3 16.4 C 0 km/h
1416 19-03-2010 19:14:02 16.4 C 5.58 g/m*3 16.4 C 0 km/h
1417 19-03-2010 19:26:01 15.9 C 5.69 g/m*3 15.9 C 0 km/h
1418 19-03-2010 19:38:02 15.7 C 5.62 g/m*3 15.7 C 0 km/h
1419 19-03-2010 19:50:02 15.7 C 5.62 g/m*3 15.7 C 0 km/h
1420 19-03-2010 20:02:02 15.7 C 5.49 g/m*3 15.7 C 0 km/h
1421 19-03-2010 20:14:02 15.6 C 5.59 g/m*3 15.6 C 0 km/h
1422 19-03-2010 20:26:01 15.5 C 5.42 g/m*3 15.5 C 0 km/h
1423 19-03-2010 20:38:02 15.6 C 5.45 g/m*3 15.6 C 0 km/h
1424 19-03-2010 20:50:02 15.5 C 5.42 g/m*3 15.5 C 0 km/h
1425 19-03-2010 21:02:02 15.4 C 5.39 g/m*3 15.4 C 0 km/h
Sensor: Nr:Datum:Temp:Abs-Feuchte:Windchill:Wind:
Aussen-T/F 1426 19-03-2010 21:14:02 15.5 C 5.55 g/m*3 15.5 C 0 km/h
1427 19-03-2010 21:26:02 15.4 C 5.52 g/m*3 15.4 C 0 km/h
1428 19-03-2010 21:38:02 15.4 C 5.52 g/m*3 15.4 C 0 km/h
1429 19-03-2010 21:50:02 15.3 C 5.48 g/m*3 15.3 C 0 km/h
1430 19-03-2010 22:02:02 15.2 C 5.58 g/m*3 15.2 C 0 km/h
1431 19-03-2010 22:14:02 15.2 C 5.58 g/m*3 15.2 C 0 km/h
1432 19-03-2010 22:26:02 15.1 C 5.68 g/m*3 15.1 C 0 km/h
1433 19-03-2010 22:38:02 15 C 5.77 g/m*3 15 C 0 km/h
1434 19-03-2010 22:50:02 14.9 C 5.74 g/m*3 14.9 C 0 km/h
1435 19-03-2010 23:02:01 14.7 C 5.79 g/m*3 14.7 C 0 km/h
1436 19-03-2010 23:14:01 14.7 C 5.79 g/m*3 14.7 C 0 km/h
1437 19-03-2010 23:26:02 14.6 C 5.76 g/m*3 14.6 C 0 km/h
1438 19-03-2010 23:38:02 14.5 C 5.85 g/m*3 14.5 C 0 km/h
1439 19-03-2010 23:51:04 14.5 C 5.72 g/m*3 14.5 C 0 km/h
1440 20-03-2010 00:03:04 14.4 C 5.93 g/m*3 14.4 C 0 km/h
1441 20-03-2010 00:15:04 14.2 C 5.86 g/m*3 14.2 C 0 km/h
1442 20-03-2010 00:27:04 14.1 C 5.95 g/m*3 14.1 C 0 km/h
1443 20-03-2010 00:39:04 14.1 C 5.83 g/m*3 14.1 C 0 km/h
1444 20-03-2010 00:51:04 14.1 C 5.83 g/m*3 14.1 C 0 km/h
1445 20-03-2010 01:03:04 14.1 C 5.83 g/m*3 14.1 C 0 km/h
1446 20-03-2010 01:15:04 14.1 C 5.95 g/m*3 14.1 C 0 km/h
1447 20-03-2010 01:27:04 13.9 C 5.99 g/m*3 13.9 C 0 km/h
1448 20-03-2010 01:39:04 13.9 C 5.87 g/m*3 13.9 C 0 km/h
1449 20-03-2010 01:51:04 14.1 C 5.58 g/m*3 14.1 C 0 km/h
1450 20-03-2010 02:03:04 14.7 C 5.41 g/m*3 14.7 C 0 km/h
Sensor: Nr:Datum:Temp:Abs-Feuchte:Windchill:Wind:
Aussen-T/F 1451 20-03-2010 02:15:04 14.7 C 5.67 g/m*3 14.7 C 0 km/h
1452 20-03-2010 02:27:04 14.4 C 6.43 g/m*3 14.4 C 0 km/h
1453 20-03-2010 02:39:04 13.8 C 7.03 g/m*3 13.8 C 0 km/h
1454 20-03-2010 02:51:04 13.5 C 7.49 g/m*3 13.5 C 0 km/h
1455 20-03-2010 03:03:05 13 C 7.83 g/m*3 13 C 0 km/h
1456 20-03-2010 03:15:05 12.5 C 8.14 g/m*3 12.5 C 0 km/h
1457 20-03-2010 03:27:05 12.1 C 8.26 g/m*3 12.1 C 0 km/h
1458 20-03-2010 03:39:05 12.2 C 8.52 g/m*3 12.2 C 0 km/h
1459 20-03-2010 03:51:05 12.1 C 8.47 g/m*3 12.1 C 0 km/h
1460 20-03-2010 04:03:05 12 C 8.63 g/m*3 12 C 0 km/h
1461 20-03-2010 04:15:05 12.2 C 8.85 g/m*3 12.2 C 0 km/h
1462 20-03-2010 04:27:05 12 C 8.85 g/m*3 12 C 0 km/h
1463 20-03-2010 04:39:05 12.1 C 9.01 g/m*3 12.1 C 0 km/h
1464 20-03-2010 04:51:05 12.1 C 9.12 g/m*3 12.1 C 0 km/h
1465 20-03-2010 05:03:05 12.1 C 9.12 g/m*3 12.1 C 0 km/h
1466 20-03-2010 05:15:05 12.4 C 9.4 g/m*3 12.4 C 0 km/h
1467 20-03-2010 05:27:05 12.7 C 9.46 g/m*3 12.7 C 0 km/h
1468 20-03-2010 05:39:05 12.6 C 9.29 g/m*3 12.6 C 0 km/h
1469 20-03-2010 05:51:05 12.7 C 9.35 g/m*3 12.7 C 0 km/h
1470 20-03-2010 06:03:06 12.7 C 9.24 g/m*3 12.7 C 0 km/h
1471 20-03-2010 06:15:06 13.1 C 9.24 g/m*3 13.1 C 0 km/h
1472 20-03-2010 06:27:06 13.2 C 9.19 g/m*3 13.2 C 0 km/h
1473 20-03-2010 06:39:06 13.2 C 9.07 g/m*3 13.2 C 0 km/h
1474 20-03-2010 06:51:06 13.2 C 9.19 g/m*3 13.2 C 0 km/h
1475 20-03-2010 07:03:06 13.3 C 9.13 g/m*3 13.3 C 0 km/h
Sensor: Nr:Datum:Temp:Abs-Feuchte:Windchill:Wind:
Aussen-T/F 1476 20-03-2010 07:15:06 13.4 C 9.18 g/m*3 13.4 C 0 km/h
1477 20-03-2010 07:27:06 13.4 C 9.18 g/m*3 13.4 C 0 km/h
1478 20-03-2010 07:39:06 13.6 C 9.18 g/m*3 13.6 C 0 km/h
1479 20-03-2010 07:51:06 13.9 C 9.23 g/m*3 13.9 C 0 km/h
1480 20-03-2010 08:03:06 14 C 9.05 g/m*3 14 C 0 km/h
1481 20-03-2010 08:15:06 14.2 C 9.04 g/m*3 14.2 C 0 km/h
1482 20-03-2010 08:27:06 14.2 C 9.16 g/m*3 14.2 C 0 km/h
1483 20-03-2010 08:39:03 14.3 C 9.09 g/m*3 14.3 C 0 km/h
1484 20-03-2010 08:51:02 14.4 C 9.15 g/m*3 14.4 C 0 km/h
1485 20-03-2010 09:03:03 14.6 C 9.13 g/m*3 14.6 C 0 km/h
1486 20-03-2010 09:15:02 14.8 C 9.12 g/m*3 14.8 C 0 km/h
1487 20-03-2010 09:27:02 14.6 C 9.39 g/m*3 14.6 C 0 km/h
1488 20-03-2010 09:39:02 14.2 C 9.52 g/m*3 14.2 C 0 km/h
1489 20-03-2010 09:51:01 15 C 9.36 g/m*3 15 C 0 km/h
1490 20-03-2010 10:03:02 15.4 C 9.2 g/m*3 15.4 C 0 km/h
1491 20-03-2010 10:15:01 15.8 C 9.29 g/m*3 15.8 C 0 km/h
1492 20-03-2010 10:27:01 16.1 C 9.05 g/m*3 16.1 C 0 km/h
1493 20-03-2010 10:39:02 16.1 C 8.91 g/m*3 16.1 C 0 km/h
1494 20-03-2010 10:51:01 15.8 C 9.02 g/m*3 15.8 C 0 km/h
1495 20-03-2010 11:03:02 15.1 C 9.29 g/m*3 15.1 C 0 km/h
1496 20-03-2010 11:15:01 15.2 C 9.35 g/m*3 15.2 C 0 km/h
1497 20-03-2010 11:27:01 15.6 C 9.31 g/m*3 15.6 C 0 km/h
1498 20-03-2010 11:39:02 15.5 C 9.25 g/m*3 15.5 C 0 km/h
1499 20-03-2010 11:51:02 15.1 C 9.16 g/m*3 15.1 C 0 km/h
1500 20-03-2010 12:03:02 15.1 C 9.29 g/m*3 15.1 C 0 km/h
Sensor: Nr:Datum:Temp:Abs-Feuchte:Windchill:Wind:
Aussen-T/F 1501 20-03-2010 12:15:01 15.4 C 9.33 g/m*3 15.4 C 0 km/h
1502 20-03-2010 12:27:01 15.7 C 9.1 g/m*3 15.7 C 0 km/h
1503 20-03-2010 12:39:02 15.4 C 8.93 g/m*3 15.4 C 0 km/h
1504 20-03-2010 12:51:01 15.4 C 8.93 g/m*3 15.4 C 0 km/h
1505 20-03-2010 13:03:02 16.2 C 8.83 g/m*3 16.2 C 0 km/h
1506 20-03-2010 13:15:02 15.9 C 8.67 g/m*3 15.9 C 0 km/h
1507 20-03-2010 13:27:02 15.9 C 8.94 g/m*3 15.9 C 0 km/h
1508 20-03-2010 13:39:02 16 C 8.86 g/m*3 16 C 0 km/h
1509 20-03-2010 13:51:01 15.6 C 9.04 g/m*3 15.6 C 0 km/h
1510 20-03-2010 14:03:02 15.1 C 9.03 g/m*3 15.1 C 0 km/h
1511 20-03-2010 14:15:02 15 C 8.98 g/m*3 15 C 0 km/h
1512 20-03-2010 14:27:02 15.5 C 8.99 g/m*3 15.5 C 0 km/h
1513 20-03-2010 14:39:02 15.6 C 8.78 g/m*3 15.6 C 0 km/h
1514 20-03-2010 14:51:01 15.8 C 8.48 g/m*3 15.8 C 0 km/h
1515 20-03-2010 15:03:02 16.7 C 8.38 g/m*3 16.7 C 0 km/h
1516 20-03-2010 15:15:02 17 C 8.1 g/m*3 17 C 0 km/h
1517 20-03-2010 15:27:02 16.8 C 8.15 g/m*3 16.8 C 0 km/h
1518 20-03-2010 15:39:01 17 C 8.25 g/m*3 17 C 0 km/h
1519 20-03-2010 15:51:02 16.8 C 8.15 g/m*3 16.8 C 0 km/h
1520 20-03-2010 16:03:01 16.5 C 8 g/m*3 16.5 C 0 km/h
1521 20-03-2010 16:15:02 16.4 C 8.1 g/m*3 16.4 C 0 km/h
1522 20-03-2010 16:27:02 16.1 C 8.09 g/m*3 16.1 C 0 km/h
1523 20-03-2010 16:39:01 16 C 8.17 g/m*3 16 C 0 km/h
1524 20-03-2010 16:51:03 15.9 C 8.26 g/m*3 15.9 C 0 km/h
1525 20-03-2010 17:03:02 15.7 C 8.16 g/m*3 15.7 C 0 km/h
Sensor: Nr:Datum:Temp:Abs-Feuchte:Windchill:Wind:
Aussen-T/F 1526 20-03-2010 17:15:02 15.1 C 8.39 g/m*3 15.1 C 0 km/h
1527 20-03-2010 17:27:02 14.4 C 8.78 g/m*3 14.4 C 0 km/h
1528 20-03-2010 17:39:02 14.6 C 8.63 g/m*3 14.6 C 0 km/h
1529 20-03-2010 17:51:02 14.7 C 8.56 g/m*3 14.7 C 0 km/h
1530 20-03-2010 18:03:01 14.6 C 8.38 g/m*3 14.6 C 0 km/h
1531 20-03-2010 18:15:02 14.6 C 8.38 g/m*3 14.6 C 0 km/h
1532 20-03-2010 18:27:02 14.5 C 8.33 g/m*3 14.5 C 0 km/h
1533 20-03-2010 18:39:02 14.5 C 8.33 g/m*3 14.5 C 0 km/h
1534 20-03-2010 18:51:02 14.4 C 8.41 g/m*3 14.4 C 0 km/h
1535 20-03-2010 19:03:01 14.3 C 8.48 g/m*3 14.3 C 0 km/h
1536 20-03-2010 19:15:01 14.2 C 8.43 g/m*3 14.2 C 0 km/h
1537 20-03-2010 19:27:01 14.3 C 8.48 g/m*3 14.3 C 0 km/h
1538 20-03-2010 19:39:02 14.4 C 8.53 g/m*3 14.4 C 0 km/h
1539 20-03-2010 19:51:02 14.5 C 8.46 g/m*3 14.5 C 0 km/h
1540 20-03-2010 20:03:02 14.6 C 8.38 g/m*3 14.6 C 0 km/h
1541 20-03-2010 20:15:02 14.5 C 8.46 g/m*3 14.5 C 0 km/h
1542 20-03-2010 20:27:02 14.6 C 8.38 g/m*3 14.6 C 0 km/h
1543 20-03-2010 20:39:02 14.6 C 8.38 g/m*3 14.6 C 0 km/h
1544 20-03-2010 20:51:02 14.5 C 8.21 g/m*3 14.5 C 0 km/h
1545 20-03-2010 21:03:02 14.6 C 8.26 g/m*3 14.6 C 0 km/h
1546 20-03-2010 21:15:02 14.5 C 8.21 g/m*3 14.5 C 0 km/h
1547 20-03-2010 21:27:02 14.4 C 8.16 g/m*3 14.4 C 0 km/h
1548 20-03-2010 21:39:02 14.2 C 8.18 g/m*3 14.2 C 0 km/h
1549 20-03-2010 21:51:01 14.2 C 8.18 g/m*3 14.2 C 0 km/h
1550 20-03-2010 22:03:02 14.2 C 8.18 g/m*3 14.2 C 0 km/h
Sensor: Nr:Datum:Temp:Abs-Feuchte:Windchill:Wind:
Aussen-T/F 1551 20-03-2010 22:16:01 14.3 C 8.11 g/m*3 14.3 C 0 km/h
1552 20-03-2010 22:28:01 13.9 C 8.39 g/m*3 13.9 C 0 km/h
1553 20-03-2010 22:40:01 14.1 C 8.25 g/m*3 14.1 C 0 km/h
1554 20-03-2010 22:52:01 13.7 C 8.53 g/m*3 13.7 C 0 km/h
1555 20-03-2010 23:04:02 13 C 8.85 g/m*3 13 C 0 km/h
1556 20-03-2010 23:16:02 12.6 C 9.07 g/m*3 12.6 C 0 km/h
1557 20-03-2010 23:28:02 12.5 C 9.24 g/m*3 12.5 C 0 km/h
1558 20-03-2010 23:40:02 12.4 C 9.29 g/m*3 12.4 C 0 km/h
1559 20-03-2010 23:52:02 12.3 C 9.34 g/m*3 12.3 C 0 km/h
1560 21-03-2010 00:04:02 12.1 C 9.44 g/m*3 12.1 C 0 km/h
1561 21-03-2010 00:16:02 12 C 9.38 g/m*3 12 C 0 km/h
1562 21-03-2010 00:28:02 12.1 C 9.54 g/m*3 12.1 C 0 km/h
1563 21-03-2010 00:40:02 12.1 C 9.54 g/m*3 12.1 C 0 km/h
1564 21-03-2010 00:52:02 12.1 C 9.54 g/m*3 12.1 C 0 km/h
1565 21-03-2010 01:04:02 12 C 9.59 g/m*3 12 C 0 km/h
1566 21-03-2010 01:16:02 12 C 9.59 g/m*3 12 C 0 km/h
1567 21-03-2010 01:28:02 11.9 C 9.64 g/m*3 11.9 C 0 km/h
1568 21-03-2010 01:40:02 11.9 C 9.64 g/m*3 11.9 C 0 km/h
1569 21-03-2010 01:52:02 11.8 C 9.68 g/m*3 11.8 C 0 km/h
1570 21-03-2010 02:04:02 11.8 C 9.68 g/m*3 11.8 C 0 km/h
1571 21-03-2010 02:16:02 11.8 C 9.79 g/m*3 11.8 C 0 km/h
1572 21-03-2010 02:28:02 11.7 C 9.73 g/m*3 11.7 C 0 km/h
1573 21-03-2010 02:40:02 11.7 C 9.73 g/m*3 11.7 C 0 km/h
1574 21-03-2010 02:52:02 11.5 C 9.61 g/m*3 11.5 C 0 km/h
1575 21-03-2010 03:04:02 11.5 C 9.61 g/m*3 11.5 C 0 km/h
Sensor: Nr:Datum:Temp:Abs-Feuchte:Windchill:Wind:
Aussen-T/F 1576 21-03-2010 03:16:02 11.4 C 9.55 g/m*3 11.4 C 0 km/h
1577 21-03-2010 03:28:02 11.4 C 9.55 g/m*3 11.4 C 0 km/h
1578 21-03-2010 03:40:03 11.5 C 9.71 g/m*3 11.5 C 0 km/h
1579 21-03-2010 03:52:03 11.6 C 9.77 g/m*3 11.6 C 0 km/h
1580 21-03-2010 04:04:03 11.6 C 9.77 g/m*3 11.6 C 0 km/h
1581 21-03-2010 04:16:03 11.5 C 9.71 g/m*3 11.5 C 0 km/h
1582 21-03-2010 04:28:03 11.6 C 9.77 g/m*3 11.6 C 0 km/h
1583 21-03-2010 04:40:03 11.6 C 9.87 g/m*3 11.6 C 0 km/h
1584 21-03-2010 04:52:03 11.6 C 9.87 g/m*3 11.6 C 0 km/h
1585 21-03-2010 05:04:03 11.5 C 9.81 g/m*3 11.5 C 0 km/h
1586 21-03-2010 05:16:03 11.4 C 9.75 g/m*3 11.4 C 0 km/h
1587 21-03-2010 05:28:03 11.3 C 9.69 g/m*3 11.3 C 0 km/h
1588 21-03-2010 05:40:03 11.3 C 9.69 g/m*3 11.3 C 0 km/h
1589 21-03-2010 05:52:03 11.4 C 9.75 g/m*3 11.4 C 0 km/h
1590 21-03-2010 06:04:03 11.4 C 9.65 g/m*3 11.4 C 0 km/h
1591 21-03-2010 06:16:03 11.4 C 9.65 g/m*3 11.4 C 0 km/h
1592 21-03-2010 06:28:03 11.4 C 9.55 g/m*3 11.4 C 0 km/h
1593 21-03-2010 06:40:03 11.3 C 9.38 g/m*3 11.3 C 0 km/h
1594 21-03-2010 06:52:03 11.3 C 9.38 g/m*3 11.3 C 0 km/h
1595 21-03-2010 07:04:03 11.3 C 9.38 g/m*3 11.3 C 0 km/h
1596 21-03-2010 07:16:03 11.3 C 9.38 g/m*3 11.3 C 0 km/h
1597 21-03-2010 07:28:03 11.2 C 9.33 g/m*3 11.2 C 0 km/h
1598 21-03-2010 07:40:03 11.3 C 9.49 g/m*3 11.3 C 0 km/h
1599 21-03-2010 07:52:03 11.2 C 9.43 g/m*3 11.2 C 0 km/h
1600 21-03-2010 08:04:04 11.5 C 9.61 g/m*3 11.5 C 0 km/h
Sensor: Nr:Datum:Temp:Abs-Feuchte:Windchill:Wind:
Aussen-T/F 1601 21-03-2010 08:16:04 11.9 C 9.96 g/m*3 11.9 C 0 km/h
1602 21-03-2010 08:28:04 12.2 C 9.93 g/m*3 12.2 C 0 km/h
1603 21-03-2010 08:40:01 12.5 C 9.78 g/m*3 12.5 C 0 km/h
1604 21-03-2010 08:52:02 12.4 C 9.4 g/m*3 12.4 C 0 km/h
1605 21-03-2010 09:04:02 12.9 C 9.35 g/m*3 12.9 C 0 km/h
1606 21-03-2010 09:16:02 13.5 C 8.89 g/m*3 13.5 C 0 km/h
1607 21-03-2010 09:28:02 13.5 C 8.66 g/m*3 13.5 C 0 km/h
1608 21-03-2010 09:40:01 12.7 C 8.68 g/m*3 12.7 C 0 km/h
1609 21-03-2010 09:52:02 12.1 C 8.58 g/m*3 12.1 C 0 km/h
1610 21-03-2010 10:04:01 12.4 C 8.85 g/m*3 12.4 C 0 km/h
1611 21-03-2010 10:16:02 13 C 8.85 g/m*3 13 C 0 km/h
1612 21-03-2010 10:28:03 13.2 C 8.15 g/m*3 13.2 C 0 km/h
1613 21-03-2010 10:40:01 12.8 C 7.84 g/m*3 12.8 C 0 km/h
1614 21-03-2010 10:52:02 13.2 C 7.81 g/m*3 13.2 C 0 km/h
1615 21-03-2010 11:04:02 13.5 C 7.95 g/m*3 13.5 C 0 km/h
1616 21-03-2010 11:16:02 13.5 C 7.84 g/m*3 13.5 C 0 km/h
1617 21-03-2010 11:28:02 13.6 C 7.89 g/m*3 13.6 C 0 km/h
1618 21-03-2010 11:40:03 12.5 C 8.14 g/m*3 12.5 C 0 km/h
1619 21-03-2010 11:52:02 12.1 C 8.69 g/m*3 12.1 C 0 km/h
1620 21-03-2010 12:04:02 11.9 C 8.9 g/m*3 11.9 C 0 km/h
1621 21-03-2010 12:16:02 11.9 C 8.9 g/m*3 11.9 C 0 km/h
1622 21-03-2010 12:28:02 12.4 C 9.18 g/m*3 12.4 C 0 km/h
1623 21-03-2010 12:40:03 13.6 C 8.94 g/m*3 13.6 C 0 km/h
1624 21-03-2010 12:52:02 13.7 C 8.29 g/m*3 13.7 C 0 km/h
1625 21-03-2010 13:04:02 13.2 C 8.04 g/m*3 13.2 C 0 km/h
Sensor: Nr:Datum:Temp:Abs-Feuchte:Windchill:Wind:
Aussen-T/F 1626 21-03-2010 13:16:02 13 C 8.05 g/m*3 13 C 0 km/h
1627 21-03-2010 13:28:02 12.6 C 7.97 g/m*3 12.6 C 0 km/h
1628 21-03-2010 13:40:02 12.6 C 7.97 g/m*3 12.6 C 0 km/h
1629 21-03-2010 13:52:01 12.4 C 7.87 g/m*3 12.4 C 0 km/h
1630 21-03-2010 14:04:02 12.4 C 7.98 g/m*3 12.4 C 0 km/h
1631 21-03-2010 14:16:01 12.2 C 7.99 g/m*3 12.2 C 0 km/h
1632 21-03-2010 14:28:01 11.8 C 8.42 g/m*3 11.8 C 0 km/h
1633 21-03-2010 14:40:02 11.4 C 8.42 g/m*3 11.4 C 0 km/h
1634 21-03-2010 14:52:02 11.5 C 8.57 g/m*3 11.5 C 0 km/h
1635 21-03-2010 15:04:02 11.5 C 8.57 g/m*3 11.5 C 0 km/h
1636 21-03-2010 15:16:01 11.5 C 8.57 g/m*3 11.5 C 0 km/h
1637 21-03-2010 15:28:01 11.5 C 8.57 g/m*3 11.5 C 0 km/h
1638 21-03-2010 15:40:02 11.3 C 8.57 g/m*3 11.3 C 0 km/h
1639 21-03-2010 15:52:03 11.1 C 8.46 g/m*3 11.1 C 0 km/h
1640 21-03-2010 16:04:03 11.1 C 8.56 g/m*3 11.1 C 0 km/h
1641 21-03-2010 16:16:02 10.8 C 8.6 g/m*3 10.8 C 0 km/h
1642 21-03-2010 16:28:02 10.7 C 8.74 g/m*3 10.7 C 0 km/h
1643 21-03-2010 16:40:02 10.5 C 8.63 g/m*3 10.5 C 0 km/h
1644 21-03-2010 16:52:02 10.5 C 8.53 g/m*3 10.5 C 0 km/h
1645 21-03-2010 17:04:01 10.5 C 8.53 g/m*3 10.5 C 0 km/h
1646 21-03-2010 17:16:02 10.7 C 8.45 g/m*3 10.7 C 0 km/h
1647 21-03-2010 17:28:02 10.7 C 8.45 g/m*3 10.7 C 0 km/h
1648 21-03-2010 17:40:02 10.7 C 8.35 g/m*3 10.7 C 0 km/h
1649 21-03-2010 17:52:02 10.7 C 7.96 g/m*3 10.7 C 0 km/h
1650 21-03-2010 18:04:02 10.1 C 7.66 g/m*3 10.1 C 0 km/h
Sensor: Nr:Datum:Temp:Abs-Feuchte:Windchill:Wind:
Aussen-T/F 1651 21-03-2010 18:16:02 9.8 C 7.79 g/m*3 9.8 C 0 km/h
1652 21-03-2010 18:28:02 9.5 C 7.74 g/m*3 9.5 C 0 km/h
1653 21-03-2010 18:40:03 9.4 C 7.69 g/m*3 9.4 C 0 km/h
1654 21-03-2010 18:52:02 9.5 C 7.74 g/m*3 9.5 C 0 km/h
1655 21-03-2010 19:04:02 9.6 C 7.79 g/m*3 9.6 C 0 km/h
1656 21-03-2010 19:16:01 9.6 C 7.79 g/m*3 9.6 C 0 km/h
1657 21-03-2010 19:28:01 9.5 C 7.74 g/m*3 9.5 C 0 km/h
1658 21-03-2010 19:40:02 9.3 C 7.64 g/m*3 9.3 C 0 km/h
1659 21-03-2010 19:52:02 9.3 C 7.73 g/m*3 9.3 C 0 km/h
1660 21-03-2010 20:04:02 9.3 C 7.73 g/m*3 9.3 C 0 km/h
1661 21-03-2010 20:16:02 9.4 C 7.78 g/m*3 9.4 C 0 km/h
1662 21-03-2010 20:28:02 9.5 C 7.92 g/m*3 9.5 C 0 km/h
1663 21-03-2010 20:40:02 9.5 C 7.92 g/m*3 9.5 C 0 km/h
1664 21-03-2010 20:52:02 9.5 C 7.83 g/m*3 9.5 C 0 km/h
1665 21-03-2010 21:04:02 9.5 C 7.83 g/m*3 9.5 C 0 km/h
1666 21-03-2010 21:16:02 9.4 C 7.78 g/m*3 9.4 C 0 km/h
1667 21-03-2010 21:28:02 9.3 C 7.46 g/m*3 9.3 C 0 km/h
1668 21-03-2010 21:40:02 9.4 C 7.15 g/m*3 9.4 C 0 km/h
1669 21-03-2010 21:52:01 9.4 C 7.05 g/m*3 9.4 C 0 km/h
1670 21-03-2010 22:05:03 9.4 C 7.05 g/m*3 9.4 C 0 km/h
1671 21-03-2010 22:17:03 9.3 C 7.1 g/m*3 9.3 C 0 km/h
1672 21-03-2010 22:29:03 9.2 C 7.14 g/m*3 9.2 C 0 km/h
1673 21-03-2010 22:41:03 9.1 C 7.19 g/m*3 9.1 C 0 km/h
1674 21-03-2010 22:53:03 9.1 C 7.19 g/m*3 9.1 C 0 km/h
1675 21-03-2010 23:05:03 8.9 C 7.27 g/m*3 8.9 C 0 km/h
Sensor: Nr:Datum:Temp:Abs-Feuchte:Windchill:Wind:
Aussen-T/F 1676 21-03-2010 23:17:03 8.8 C 7.49 g/m*3 8.8 C 0 km/h
1677 21-03-2010 23:29:03 8.6 C 7.48 g/m*3 8.6 C 0 km/h
1678 21-03-2010 23:41:03 8.5 C 7.51 g/m*3 8.5 C 0 km/h
1679 21-03-2010 23:53:04 8.5 C 7.6 g/m*3 8.5 C 0 km/h
1680 22-03-2010 00:05:04 8.5 C 7.68 g/m*3 8.5 C 0 km/h
1681 22-03-2010 00:17:04 8.5 C 7.68 g/m*3 8.5 C 0 km/h
1682 22-03-2010 00:29:04 8.4 C 7.63 g/m*3 8.4 C 0 km/h
1683 22-03-2010 00:41:04 8.3 C 7.67 g/m*3 8.3 C 0 km/h
1684 22-03-2010 00:53:04 8.3 C 7.67 g/m*3 8.3 C 0 km/h
1685 22-03-2010 01:05:04 8.3 C 7.67 g/m*3 8.3 C 0 km/h
1686 22-03-2010 01:17:04 8.2 C 7.62 g/m*3 8.2 C 0 km/h
1687 22-03-2010 01:29:04 8.2 C 7.62 g/m*3 8.2 C 0 km/h
1688 22-03-2010 01:41:04 8.3 C 7.75 g/m*3 8.3 C 0 km/h
1689 22-03-2010 01:53:04 8.3 C 7.75 g/m*3 8.3 C 0 km/h
1690 22-03-2010 02:05:04 8.4 C 7.8 g/m*3 8.4 C 0 km/h
1691 22-03-2010 02:17:04 8.2 C 7.7 g/m*3 8.2 C 0 km/h
1692 22-03-2010 02:29:04 8.2 C 7.7 g/m*3 8.2 C 0 km/h
1693 22-03-2010 02:41:04 8.3 C 7.75 g/m*3 8.3 C 0 km/h
1694 22-03-2010 02:53:04 8.4 C 7.8 g/m*3 8.4 C 0 km/h
1695 22-03-2010 03:05:04 8.4 C 7.8 g/m*3 8.4 C 0 km/h
1696 22-03-2010 03:17:04 8.4 C 7.8 g/m*3 8.4 C 0 km/h
1697 22-03-2010 03:29:04 8.4 C 7.8 g/m*3 8.4 C 0 km/h
1698 22-03-2010 03:41:04 8.4 C 7.8 g/m*3 8.4 C 0 km/h
1699 22-03-2010 03:53:04 8.4 C 7.8 g/m*3 8.4 C 0 km/h
1700 22-03-2010 04:05:05 8.4 C 7.8 g/m*3 8.4 C 0 km/h
Sensor: Nr:Datum:Temp:Abs-Feuchte:Windchill:Wind:
Aussen-T/F 1701 22-03-2010 04:17:05 8.4 C 7.8 g/m*3 8.4 C 0 km/h
1702 22-03-2010 04:29:05 8.3 C 7.75 g/m*3 8.3 C 0 km/h
1703 22-03-2010 04:41:05 8.2 C 7.7 g/m*3 8.2 C 0 km/h
1704 22-03-2010 04:53:05 8.1 C 7.66 g/m*3 8.1 C 0 km/h
1705 22-03-2010 05:05:05 8.1 C 7.66 g/m*3 8.1 C 0 km/h
1706 22-03-2010 05:17:05 8.2 C 7.7 g/m*3 8.2 C 0 km/h
1707 22-03-2010 05:29:05 8.2 C 7.7 g/m*3 8.2 C 0 km/h
1708 22-03-2010 05:41:05 8.1 C 7.66 g/m*3 8.1 C 0 km/h
1709 22-03-2010 05:53:01 8.1 C 7.66 g/m*3 8.1 C 0 km/h
1710 22-03-2010 06:05:01 8.2 C 7.7 g/m*3 8.2 C 0 km/h
1711 22-03-2010 06:17:02 8.2 C 7.7 g/m*3 8.2 C 0 km/h
1712 22-03-2010 06:29:02 8.2 C 7.7 g/m*3 8.2 C 0 km/h
1713 22-03-2010 06:41:01 8.1 C 7.66 g/m*3 8.1 C 0 km/h
1714 22-03-2010 06:53:02 8.1 C 7.66 g/m*3 8.1 C 0 km/h
1715 22-03-2010 07:05:01 8.2 C 7.7 g/m*3 8.2 C 0 km/h
1716 22-03-2010 07:17:02 8.2 C 7.7 g/m*3 8.2 C 0 km/h
1717 22-03-2010 07:29:02 8.3 C 7.84 g/m*3 8.3 C 0 km/h
1718 22-03-2010 07:41:01 8.4 C 7.89 g/m*3 8.4 C 0 km/h
1719 22-03-2010 07:53:01 8.5 C 7.94 g/m*3 8.5 C 0 km/h
1720 22-03-2010 08:05:01 8.6 C 7.99 g/m*3 8.6 C 0 km/h
1721 22-03-2010 08:17:02 8.8 C 8.09 g/m*3 8.8 C 0 km/h
1722 22-03-2010 08:29:02 8.8 C 8.01 g/m*3 8.8 C 0 km/h
1723 22-03-2010 08:41:01 8.9 C 8.06 g/m*3 8.9 C 0 km/h
1724 22-03-2010 08:53:02 8.9 C 8.06 g/m*3 8.9 C 0 km/h
1725 22-03-2010 09:05:01 8.9 C 7.97 g/m*3 8.9 C 0 km/h
Sensor: Nr:Datum:Temp:Abs-Feuchte:Windchill:Wind:
Aussen-T/F 1726 22-03-2010 09:17:02 9 C 7.93 g/m*3 9 C 0 km/h
1727 22-03-2010 09:29:02 9 C 7.93 g/m*3 9 C 0 km/h
1728 22-03-2010 09:41:02 9.2 C 7.95 g/m*3 9.2 C 0 km/h
1729 22-03-2010 09:53:02 9.3 C 8 g/m*3 9.3 C 0 km/h
1730 22-03-2010 10:05:03 9.6 C 8.06 g/m*3 9.6 C 0 km/h
1731 22-03-2010 10:17:02 10 C 8.08 g/m*3 10 C 0 km/h
1732 22-03-2010 10:29:02 9.9 C 8.03 g/m*3 9.9 C 0 km/h
1733 22-03-2010 10:41:02 9.5 C 7.65 g/m*3 9.5 C 0 km/h
1734 22-03-2010 10:53:02 9.4 C 7.69 g/m*3 9.4 C 0 km/h
1735 22-03-2010 11:05:02 9.5 C 7.92 g/m*3 9.5 C 0 km/h
1736 22-03-2010 11:17:01 9.5 C 7.92 g/m*3 9.5 C 0 km/h
1737 22-03-2010 11:29:01 9.5 C 7.83 g/m*3 9.5 C 0 km/h
1738 22-03-2010 11:41:02 9.7 C 7.74 g/m*3 9.7 C 0 km/h
1739 22-03-2010 11:53:02 10.2 C 7.8 g/m*3 10.2 C 0 km/h
1740 22-03-2010 12:05:02 10.6 C 7.81 g/m*3 10.6 C 0 km/h
1741 22-03-2010 12:17:01 10.7 C 7.76 g/m*3 10.7 C 0 km/h
1742 22-03-2010 12:29:01 11 C 7.61 g/m*3 11 C 0 km/h
1743 22-03-2010 12:41:02 11.1 C 7.45 g/m*3 11.1 C 0 km/h
1744 22-03-2010 12:53:02 11.4 C 7.39 g/m*3 11.4 C 0 km/h
1745 22-03-2010 13:05:02 11.5 C 7.23 g/m*3 11.5 C 0 km/h
1746 22-03-2010 13:17:01 12.1 C 7.18 g/m*3 12.1 C 0 km/h
1747 22-03-2010 13:29:01 12.4 C 6.66 g/m*3 12.4 C 0 km/h
1748 22-03-2010 13:41:02 12.6 C 6.42 g/m*3 12.6 C 0 km/h
1749 22-03-2010 13:53:01 12.6 C 6.31 g/m*3 12.6 C 0 km/h
1750 22-03-2010 14:05:02 13.3 C 6.47 g/m*3 13.3 C 0 km/h
Sensor: Nr:Datum:Temp:Abs-Feuchte:Windchill:Wind:
Aussen-T/F 1751 22-03-2010 14:17:02 14.2 C 6.11 g/m*3 14.2 C 0 km/h
1752 22-03-2010 14:29:02 14.2 C 5.86 g/m*3 14.2 C 0 km/h
1753 22-03-2010 14:41:02 14.5 C 5.72 g/m*3 14.5 C 0 km/h
1754 22-03-2010 14:53:01 14.6 C 5.51 g/m*3 14.6 C 0 km/h
1755 22-03-2010 15:05:02 14.2 C 5.49 g/m*3 14.2 C 0 km/h
1756 22-03-2010 15:17:02 14 C 5.43 g/m*3 14 C 0 km/h
1757 22-03-2010 15:29:02 14 C 5.31 g/m*3 14 C 0 km/h
1758 22-03-2010 15:41:01 14.6 C 5.51 g/m*3 14.6 C 0 km/h
1759 22-03-2010 15:53:02 14.9 C 5.23 g/m*3 14.9 C 0 km/h
1760 22-03-2010 16:05:01 14.4 C 5.07 g/m*3 14.4 C 0 km/h
1761 22-03-2010 16:17:02 14.3 C 5.28 g/m*3 14.3 C 0 km/h
1762 22-03-2010 16:29:02 14.5 C 5.1 g/m*3 14.5 C 0 km/h
1763 22-03-2010 16:41:01 15.2 C 5.32 g/m*3 15.2 C 0 km/h
1764 22-03-2010 16:53:03 15.2 C 5.45 g/m*3 15.2 C 0 km/h
1765 22-03-2010 17:05:02 14.9 C 5.35 g/m*3 14.9 C 0 km/h
1766 22-03-2010 17:17:02 14.2 C 5.01 g/m*3 14.2 C 0 km/h
1767 22-03-2010 17:29:02 13.9 C 4.8 g/m*3 13.9 C 0 km/h
1768 22-03-2010 17:41:02 13.4 C 4.77 g/m*3 13.4 C 0 km/h
1769 22-03-2010 17:53:02 13.2 C 4.82 g/m*3 13.2 C 0 km/h
1770 22-03-2010 18:05:01 13 C 4.88 g/m*3 13 C 0 km/h
1771 22-03-2010 18:17:02 12.9 C 5.3 g/m*3 12.9 C 0 km/h
1772 22-03-2010 18:29:02 12.4 C 5.35 g/m*3 12.4 C 0 km/h
1773 22-03-2010 18:41:02 11.8 C 5.58 g/m*3 11.8 C 0 km/h
1774 22-03-2010 18:53:02 11.3 C 5.61 g/m*3 11.3 C 0 km/h
1775 22-03-2010 19:05:01 10.5 C 5.72 g/m*3 10.5 C 0 km/h
Sensor: Nr:Datum:Temp:Abs-Feuchte:Windchill:Wind:
Aussen-T/F 1776 22-03-2010 19:17:01 10 C 5.64 g/m*3 10 C 0 km/h
1777 22-03-2010 19:29:01 9.7 C 5.72 g/m*3 9.7 C 0 km/h
1778 22-03-2010 19:41:02 9.5 C 5.83 g/m*3 9.5 C 0 km/h
1779 22-03-2010 19:53:02 9.2 C 5.8 g/m*3 9.2 C 0 km/h
1780 22-03-2010 20:05:02 9 C 5.99 g/m*3 9 C 0 km/h
1781 22-03-2010 20:17:02 8.7 C 6.14 g/m*3 8.7 C 0 km/h
1782 22-03-2010 20:29:02 8.7 C 6.23 g/m*3 8.7 C 0 km/h
1783 22-03-2010 20:41:02 8.5 C 6.15 g/m*3 8.5 C 0 km/h
1784 22-03-2010 20:53:02 8.3 C 6.07 g/m*3 8.3 C 0 km/h
1785 22-03-2010 21:05:02 8.1 C 6.07 g/m*3 8.1 C 0 km/h
1786 22-03-2010 21:17:02 7.8 C 6.12 g/m*3 7.8 C 0 km/h
1787 22-03-2010 21:29:02 7.4 C 6.04 g/m*3 7.4 C 0 km/h
1788 22-03-2010 21:41:02 7.3 C 6.08 g/m*3 7.3 C 0 km/h
1789 22-03-2010 21:53:02 7.1 C 6.08 g/m*3 7.1 C 0 km/h
1790 22-03-2010 22:05:02 6.9 C 6.08 g/m*3 6.9 C 0 km/h
1791 22-03-2010 22:17:02 6.6 C 5.96 g/m*3 6.6 C 0 km/h
1792 22-03-2010 22:29:02 6.5 C 6 g/m*3 6.5 C 0 km/h
1793 22-03-2010 22:41:02 6.2 C 5.88 g/m*3 6.2 C 0 km/h
1794 22-03-2010 22:54:02 6 C 5.88 g/m*3 6 C 0 km/h
1795 22-03-2010 23:06:02 6 C 5.95 g/m*3 6 C 0 km/h
1796 22-03-2010 23:18:03 5.7 C 5.91 g/m*3 5.7 C 0 km/h
1797 22-03-2010 23:30:03 5.6 C 5.87 g/m*3 5.6 C 0 km/h
1798 22-03-2010 23:42:03 5.6 C 5.94 g/m*3 5.6 C 0 km/h
1799 22-03-2010 23:54:03 5.4 C 5.86 g/m*3 5.4 C 0 km/h
1800 23-03-2010 00:06:03 5.2 C 5.78 g/m*3 5.2 C 0 km/h
Sensor: Nr:Datum:Temp:Abs-Feuchte:Windchill:Wind:
Aussen-T/F 1801 23-03-2010 00:18:03 5 C 5.78 g/m*3 5 C 0 km/h
1802 23-03-2010 00:30:03 5 C 5.78 g/m*3 5 C 0 km/h
1803 23-03-2010 00:42:03 4.8 C 5.83 g/m*3 4.8 C 0 km/h
1804 23-03-2010 00:54:03 4.6 C 5.76 g/m*3 4.6 C 0 km/h
1805 23-03-2010 01:06:03 4.4 C 5.68 g/m*3 4.4 C 0 km/h
1806 23-03-2010 01:18:03 4.3 C 5.64 g/m*3 4.3 C 0 km/h
1807 23-03-2010 01:30:03 4.3 C 5.71 g/m*3 4.3 C 0 km/h
1808 23-03-2010 01:42:03 4.2 C 5.67 g/m*3 4.2 C 0 km/h
1809 23-03-2010 01:54:03 4.1 C 5.63 g/m*3 4.1 C 0 km/h
1810 23-03-2010 02:06:03 4 C 5.59 g/m*3 4 C 0 km/h
1811 23-03-2010 02:18:03 3.9 C 5.62 g/m*3 3.9 C 0 km/h
1812 23-03-2010 02:30:03 3.7 C 5.55 g/m*3 3.7 C 0 km/h
1813 23-03-2010 02:42:03 3.6 C 5.57 g/m*3 3.6 C 0 km/h
1814 23-03-2010 02:54:03 3.5 C 5.53 g/m*3 3.5 C 0 km/h
1815 23-03-2010 03:06:03 3.4 C 5.56 g/m*3 3.4 C 0 km/h
1816 23-03-2010 03:18:04 3.3 C 5.52 g/m*3 3.3 C 0 km/h
1817 23-03-2010 03:30:04 3.2 C 5.48 g/m*3 3.2 C 0 km/h
1818 23-03-2010 03:42:04 3.1 C 5.45 g/m*3 3.1 C 0 km/h
1819 23-03-2010 03:54:04 2.9 C 5.43 g/m*3 2.9 C 0 km/h
1820 23-03-2010 04:06:04 2.9 C 5.43 g/m*3 2.9 C 0 km/h
1821 23-03-2010 04:18:04 2.7 C 5.3 g/m*3 2.7 C 0 km/h
1822 23-03-2010 04:30:04 2.6 C 5.27 g/m*3 2.6 C 0 km/h
1823 23-03-2010 04:42:04 2.5 C 5.29 g/m*3 2.5 C 0 km/h
1824 23-03-2010 04:54:04 2.4 C 5.25 g/m*3 2.4 C 0 km/h
1825 23-03-2010 05:06:04 2.4 C 5.25 g/m*3 2.4 C 0 km/h
Sensor: Nr:Datum:Temp:Abs-Feuchte:Windchill:Wind:
Aussen-T/F 1826 23-03-2010 05:18:04 2.4 C 5.25 g/m*3 2.4 C 0 km/h
1827 23-03-2010 05:30:04 2.3 C 5.22 g/m*3 2.3 C 0 km/h
1828 23-03-2010 05:42:04 2.2 C 5.24 g/m*3 2.2 C 0 km/h
1829 23-03-2010 05:54:04 2.1 C 5.2 g/m*3 2.1 C 0 km/h
1830 23-03-2010 06:06:04 2.1 C 5.2 g/m*3 2.1 C 0 km/h
1831 23-03-2010 06:18:04 2.1 C 5.2 g/m*3 2.1 C 0 km/h
1832 23-03-2010 06:30:04 2.2 C 5.24 g/m*3 2.2 C 0 km/h
1833 23-03-2010 06:42:04 2.4 C 5.31 g/m*3 2.4 C 0 km/h
1834 23-03-2010 06:54:04 2.7 C 5.48 g/m*3 2.7 C 0 km/h
1835 23-03-2010 07:06:02 2.7 C 5.48 g/m*3 2.7 C 0 km/h
1836 23-03-2010 07:18:02 2.6 C 5.44 g/m*3 2.6 C 0 km/h
1837 23-03-2010 07:30:02 2.7 C 5.48 g/m*3 2.7 C 0 km/h
1838 23-03-2010 07:42:02 2.9 C 5.55 g/m*3 2.9 C 0 km/h
1839 23-03-2010 07:54:02 3.4 C 5.74 g/m*3 3.4 C 0 km/h
1840 23-03-2010 08:06:02 3.6 C 5.82 g/m*3 3.6 C 0 km/h
1841 23-03-2010 08:18:01 3.8 C 5.83 g/m*3 3.8 C 0 km/h
1842 23-03-2010 08:30:01 3.9 C 5.87 g/m*3 3.9 C 0 km/h
1843 23-03-2010 08:42:02 4.1 C 5.95 g/m*3 4.1 C 0 km/h
1844 23-03-2010 08:54:02 4.4 C 6.07 g/m*3 4.4 C 0 km/h
1845 23-03-2010 09:06:01 4.8 C 6.24 g/m*3 4.8 C 0 km/h
1846 23-03-2010 09:18:02 5.3 C 6.45 g/m*3 5.3 C 0 km/h
1847 23-03-2010 09:30:02 5.9 C 6.71 g/m*3 5.9 C 0 km/h
1848 23-03-2010 09:42:01 6.7 C 6.99 g/m*3 6.7 C 0 km/h
1849 23-03-2010 09:54:03 7.3 C 6.95 g/m*3 7.3 C 0 km/h
1850 23-03-2010 10:06:02 7.9 C 7.06 g/m*3 7.9 C 0 km/h
Sensor: Nr:Datum:Temp:Abs-Feuchte:Windchill:Wind:
Aussen-T/F 1851 23-03-2010 10:18:02 8.4 C 6.96 g/m*3 8.4 C 0 km/h
1852 23-03-2010 10:30:03 8.9 C 6.75 g/m*3 8.9 C 0 km/h
1853 23-03-2010 10:42:02 9.3 C 6.56 g/m*3 9.3 C 0 km/h
1854 23-03-2010 10:54:02 9.8 C 6.59 g/m*3 9.8 C 0 km/h
1855 23-03-2010 11:06:01 10.3 C 6.61 g/m*3 10.3 C 0 km/h
1856 23-03-2010 11:18:02 11.2 C 6.49 g/m*3 11.2 C 0 km/h
1857 23-03-2010 11:30:02 11.8 C 6.42 g/m*3 11.8 C 0 km/h
1858 23-03-2010 11:42:02 12.3 C 6.08 g/m*3 12.3 C 0 km/h
1859 23-03-2010 11:54:02 12.8 C 5.94 g/m*3 12.8 C 0 km/h
1860 23-03-2010 12:06:01 13.3 C 5.89 g/m*3 13.3 C 0 km/h
1861 23-03-2010 12:18:01 13.7 C 5.92 g/m*3 13.7 C 0 km/h
1862 23-03-2010 12:30:01 14 C 5.67 g/m*3 14 C 0 km/h
1863 23-03-2010 12:42:02 13.9 C 5.87 g/m*3 13.9 C 0 km/h
1864 23-03-2010 12:54:02 14.4 C 5.56 g/m*3 14.4 C 0 km/h
1865 23-03-2010 13:06:02 14.9 C 5.23 g/m*3 14.9 C 0 km/h
1866 23-03-2010 13:18:02 15 C 5.13 g/m*3 15 C 0 km/h
1867 23-03-2010 13:30:02 15.6 C 5.59 g/m*3 15.6 C 0 km/h
1868 23-03-2010 13:42:02 16.1 C 5.35 g/m*3 16.1 C 0 km/h
1869 23-03-2010 13:54:01 16 C 5.31 g/m*3 16 C 0 km/h
1870 23-03-2010 14:06:02 16.4 C 5.44 g/m*3 16.4 C 0 km/h
1871 23-03-2010 14:18:01 16.8 C 5.43 g/m*3 16.8 C 0 km/h
1872 23-03-2010 14:30:01 16.9 C 5.32 g/m*3 16.9 C 0 km/h
1873 23-03-2010 14:42:01 17.2 C 5.27 g/m*3 17.2 C 0 km/h
1874 23-03-2010 14:54:02 16.6 C 5.09 g/m*3 16.6 C 0 km/h
1875 23-03-2010 15:06:02 17.1 C 5.24 g/m*3 17.1 C 0 km/h
Sensor: Nr:Datum:Temp:Abs-Feuchte:Windchill:Wind:
Aussen-T/F 1876 23-03-2010 15:18:01 17.3 C 5.01 g/m*3 17.3 C 0 km/h
1877 23-03-2010 15:30:01 17.2 C 5.13 g/m*3 17.2 C 0 km/h
1878 23-03-2010 15:42:02 17.1 C 4.8 g/m*3 17.1 C 0 km/h
1879 23-03-2010 15:54:02 17.4 C 5.19 g/m*3 17.4 C 0 km/h
1880 23-03-2010 16:06:02 17.3 C 5.16 g/m*3 17.3 C 0 km/h
1881 23-03-2010 16:18:01 16.7 C 5.12 g/m*3 16.7 C 0 km/h
1882 23-03-2010 16:30:01 16.3 C 5.13 g/m*3 16.3 C 0 km/h
1883 23-03-2010 16:42:02 16.3 C 5.13 g/m*3 16.3 C 0 km/h
1884 23-03-2010 16:54:02 16.1 C 5.35 g/m*3 16.1 C 0 km/h
1885 23-03-2010 17:06:02 16.2 C 5.38 g/m*3 16.2 C 0 km/h
1886 23-03-2010 17:18:01 16.5 C 5.34 g/m*3 16.5 C 0 km/h
1887 23-03-2010 17:30:01 15.8 C 5.38 g/m*3 15.8 C 0 km/h
1888 23-03-2010 17:42:02 15.2 C 5.32 g/m*3 15.2 C 0 km/h
1889 23-03-2010 17:54:02 14.8 C 5.45 g/m*3 14.8 C 0 km/h
1890 23-03-2010 18:06:02 14.6 C 5.63 g/m*3 14.6 C 0 km/h
1891 23-03-2010 18:18:02 14.2 C 5.62 g/m*3 14.2 C 0 km/h
1892 23-03-2010 18:30:02 13.9 C 5.87 g/m*3 13.9 C 0 km/h
1893 23-03-2010 18:42:02 13.5 C 6.08 g/m*3 13.5 C 0 km/h
1894 23-03-2010 18:54:01 12.8 C 6.27 g/m*3 12.8 C 0 km/h
1895 23-03-2010 19:06:02 12.1 C 6.22 g/m*3 12.1 C 0 km/h
1896 23-03-2010 19:18:02 11.7 C 6.28 g/m*3 11.7 C 0 km/h
1897 23-03-2010 19:30:02 11.4 C 6.26 g/m*3 11.4 C 0 km/h
1898 23-03-2010 19:42:02 11.2 C 6.18 g/m*3 11.2 C 0 km/h
1899 23-03-2010 19:54:02 10.8 C 6.23 g/m*3 10.8 C 0 km/h
1900 23-03-2010 20:06:01 10.6 C 6.15 g/m*3 10.6 C 0 km/h
Sensor: Nr:Datum:Temp:Abs-Feuchte:Windchill:Wind:
Aussen-T/F 1901 23-03-2010 20:18:02 10.4 C 6.17 g/m*3 10.4 C 0 km/h
1902 23-03-2010 20:30:02 10.4 C 6.07 g/m*3 10.4 C 0 km/h
1903 23-03-2010 20:42:01 10.3 C 6.03 g/m*3 10.3 C 0 km/h
1904 23-03-2010 20:54:02 10.2 C 6.09 g/m*3 10.2 C 0 km/h
1905 23-03-2010 21:06:01 10 C 6.11 g/m*3 10 C 0 km/h
1906 23-03-2010 21:18:01 9.8 C 6.12 g/m*3 9.8 C 0 km/h
1907 23-03-2010 21:30:01 9.6 C 6.23 g/m*3 9.6 C 0 km/h
1908 23-03-2010 21:42:01 9.5 C 6.28 g/m*3 9.5 C 0 km/h
1909 23-03-2010 21:54:02 9.4 C 6.24 g/m*3 9.4 C 0 km/h
1910 23-03-2010 22:06:02 9.2 C 6.25 g/m*3 9.2 C 0 km/h
1911 23-03-2010 22:18:02 9 C 6.26 g/m*3 9 C 0 km/h
1912 23-03-2010 22:30:02 8.7 C 6.23 g/m*3 8.7 C 0 km/h
1913 23-03-2010 22:42:02 8.6 C 6.27 g/m*3 8.6 C 0 km/h
1914 23-03-2010 22:54:02 8.5 C 6.32 g/m*3 8.5 C 0 km/h
1915 23-03-2010 23:06:02 8.4 C 6.28 g/m*3 8.4 C 0 km/h
1916 23-03-2010 23:18:02 8.3 C 6.24 g/m*3 8.3 C 0 km/h
1917 23-03-2010 23:30:02 8.2 C 6.2 g/m*3 8.2 C 0 km/h
1918 23-03-2010 23:42:02 8.1 C 6.24 g/m*3 8.1 C 0 km/h
1919 23-03-2010 23:54:01 8 C 6.2 g/m*3 8 C 0 km/h
1920 24-03-2010 00:06:01 7.9 C 6.24 g/m*3 7.9 C 0 km/h
1921 24-03-2010 00:18:01 7.8 C 6.28 g/m*3 7.8 C 0 km/h
1922 24-03-2010 00:30:01 7.7 C 6.24 g/m*3 7.7 C 0 km/h
1923 24-03-2010 00:42:02 7.6 C 6.2 g/m*3 7.6 C 0 km/h
1924 24-03-2010 00:54:01 7.5 C 6.16 g/m*3 7.5 C 0 km/h
1925 24-03-2010 01:06:02 7.5 C 6.24 g/m*3 7.5 C 0 km/h
Sensor: Nr:Datum:Temp:Abs-Feuchte:Windchill:Wind:
Aussen-T/F 1926 24-03-2010 01:18:01 7.5 C 6.24 g/m*3 7.5 C 0 km/h
1927 24-03-2010 01:30:01 7.3 C 6.16 g/m*3 7.3 C 0 km/h
1928 24-03-2010 01:42:02 7.1 C 6.08 g/m*3 7.1 C 0 km/h
1929 24-03-2010 01:54:02 6.9 C 6.08 g/m*3 6.9 C 0 km/h
1930 24-03-2010 02:06:02 6.8 C 6.12 g/m*3 6.8 C 0 km/h
1931 24-03-2010 02:18:01 6.7 C 6.15 g/m*3 6.7 C 0 km/h
1932 24-03-2010 02:30:01 6.6 C 6.11 g/m*3 6.6 C 0 km/h
1933 24-03-2010 02:42:02 6.4 C 6.04 g/m*3 6.4 C 0 km/h
1934 24-03-2010 02:55:04 6.2 C 5.96 g/m*3 6.2 C 0 km/h
1935 24-03-2010 03:07:04 6.2 C 6.03 g/m*3 6.2 C 0 km/h
1936 24-03-2010 03:19:04 6.1 C 5.99 g/m*3 6.1 C 0 km/h
1937 24-03-2010 03:31:02 5.8 C 5.95 g/m*3 5.8 C 0 km/h
1938 24-03-2010 03:43:02 5.6 C 5.87 g/m*3 5.6 C 0 km/h
1939 24-03-2010 03:55:02 5.7 C 5.98 g/m*3 5.7 C 0 km/h
1940 24-03-2010 04:07:03 5.6 C 5.94 g/m*3 5.6 C 0 km/h
1941 24-03-2010 04:19:02 5.3 C 5.82 g/m*3 5.3 C 0 km/h
1942 24-03-2010 04:31:02 5.3 C 5.82 g/m*3 5.3 C 0 km/h
1943 24-03-2010 04:43:02 5.2 C 5.85 g/m*3 5.2 C 0 km/h
1944 24-03-2010 04:55:01 5.1 C 5.81 g/m*3 5.1 C 0 km/h
1945 24-03-2010 05:07:02 4.9 C 5.81 g/m*3 4.9 C 0 km/h
1946 24-03-2010 05:19:01 5 C 5.84 g/m*3 5 C 0 km/h
1947 24-03-2010 05:31:01 5 C 5.84 g/m*3 5 C 0 km/h
1948 24-03-2010 05:43:01 4.7 C 5.8 g/m*3 4.7 C 0 km/h
1949 24-03-2010 05:55:01 4.5 C 5.72 g/m*3 4.5 C 0 km/h
1950 24-03-2010 06:07:02 4.4 C 5.68 g/m*3 4.4 C 0 km/h
Sensor: Nr:Datum:Temp:Abs-Feuchte:Windchill:Wind:
Aussen-T/F 1951 24-03-2010 06:19:01 4.4 C 5.68 g/m*3 4.4 C 0 km/h
1952 24-03-2010 06:31:01 4.4 C 5.75 g/m*3 4.4 C 0 km/h
1953 24-03-2010 06:43:01 4.3 C 5.71 g/m*3 4.3 C 0 km/h
1954 24-03-2010 06:55:01 4.3 C 5.71 g/m*3 4.3 C 0 km/h
1955 24-03-2010 07:07:01 4.4 C 5.81 g/m*3 4.4 C 0 km/h
1956 24-03-2010 07:19:02 4.4 C 5.81 g/m*3 4.4 C 0 km/h
1957 24-03-2010 07:31:01 4.6 C 5.89 g/m*3 4.6 C 0 km/h
1958 24-03-2010 07:43:01 4.9 C 6.01 g/m*3 4.9 C 0 km/h
1959 24-03-2010 07:55:03 5.2 C 6.06 g/m*3 5.2 C 0 km/h
1960 24-03-2010 08:07:02 5.3 C 6.1 g/m*3 5.3 C 0 km/h
1961 24-03-2010 08:19:02 5.4 C 6.07 g/m*3 5.4 C 0 km/h
1962 24-03-2010 08:31:02 5.7 C 6.19 g/m*3 5.7 C 0 km/h
1963 24-03-2010 08:43:02 5.7 C 6.12 g/m*3 5.7 C 0 km/h
1964 24-03-2010 08:55:02 5.8 C 6.16 g/m*3 5.8 C 0 km/h
1965 24-03-2010 09:07:01 6.1 C 6.21 g/m*3 6.1 C 0 km/h
1966 24-03-2010 09:19:02 6.7 C 6.46 g/m*3 6.7 C 0 km/h
1967 24-03-2010 09:31:01 7.2 C 6.44 g/m*3 7.2 C 0 km/h
1968 24-03-2010 09:43:01 7.8 C 6.69 g/m*3 7.8 C 0 km/h
1969 24-03-2010 09:55:02 8.4 C 6.53 g/m*3 8.4 C 0 km/h
1970 24-03-2010 10:07:01 9.2 C 6.79 g/m*3 9.2 C 0 km/h
1971 24-03-2010 10:19:01 10.2 C 6.95 g/m*3 10.2 C 0 km/h
1972 24-03-2010 10:31:02 10.9 C 6.76 g/m*3 10.9 C 0 km/h
1973 24-03-2010 10:43:02 11.7 C 6.48 g/m*3 11.7 C 0 km/h
1974 24-03-2010 10:55:02 12.7 C 6.46 g/m*3 12.7 C 0 km/h
1975 24-03-2010 11:07:01 13.1 C 5.71 g/m*3 13.1 C 0 km/h
Sensor: Nr:Datum:Temp:Abs-Feuchte:Windchill:Wind:
Aussen-T/F 1976 24-03-2010 11:19:02 13.8 C 5.6 g/m*3 13.8 C 0 km/h
1977 24-03-2010 11:31:02 14.4 C 5.44 g/m*3 14.4 C 0 km/h
1978 24-03-2010 11:43:02 14.9 C 5.23 g/m*3 14.9 C 0 km/h
1979 24-03-2010 11:55:02 15.5 C 5.29 g/m*3 15.5 C 0 km/h
1980 24-03-2010 12:07:02 16.1 C 5.21 g/m*3 16.1 C 0 km/h
1981 24-03-2010 12:19:02 16.7 C 5.26 g/m*3 16.7 C 0 km/h
1982 24-03-2010 12:31:02 17.2 C 5.27 g/m*3 17.2 C 0 km/h
1983 24-03-2010 12:43:02 17.6 C 5.1 g/m*3 17.6 C 0 km/h
1984 24-03-2010 12:55:02 18.4 C 4.88 g/m*3 18.4 C 0 km/h
1985 24-03-2010 13:07:03 18.7 C 4.8 g/m*3 18.7 C 0 km/h
1986 24-03-2010 13:19:02 19 C 5.05 g/m*3 19 C 0 km/h
1987 24-03-2010 13:31:02 19.5 C 5.2 g/m*3 19.5 C 0 km/h
1988 24-03-2010 13:43:02 19.9 C 4.98 g/m*3 19.9 C 0 km/h
1989 24-03-2010 13:55:01 20.3 C 4.75 g/m*3 20.3 C 0 km/h
1990 24-03-2010 14:07:02 20.8 C 4.71 g/m*3 20.8 C 0 km/h
1991 24-03-2010 14:19:01 21.6 C 4.74 g/m*3 21.6 C 0 km/h
1992 24-03-2010 14:31:01 21.6 C 4.36 g/m*3 21.6 C 0 km/h
1993 24-03-2010 14:43:01 21.5 C 4.34 g/m*3 21.5 C 0 km/h
1994 24-03-2010 14:55:01 21.8 C 4.41 g/m*3 21.8 C 0 km/h
1995 24-03-2010 15:07:02 22 C 4.27 g/m*3 22 C 0 km/h
1996 24-03-2010 15:19:01 22 C 4.27 g/m*3 22 C 0 km/h
1997 24-03-2010 15:31:01 22.3 C 4.34 g/m*3 22.3 C 0 km/h
1998 24-03-2010 15:43:01 23 C 4.52 g/m*3 23 C 0 km/h
1999 24-03-2010 15:55:01 21.9 C 4.44 g/m*3 21.9 C 0 km/h
2000 24-03-2010 16:07:02 21.4 C 4.5 g/m*3 21.4 C 0 km/h
Sensor: Nr:Datum:Temp:Abs-Feuchte:Windchill:Wind:
Aussen-T/F 2001 24-03-2010 16:19:02 21 C 4.58 g/m*3 21 C 0 km/h
2002 24-03-2010 16:31:01 21.1 C 4.79 g/m*3 21.1 C 0 km/h
2003 24-03-2010 16:43:01 20.3 C 4.92 g/m*3 20.3 C 0 km/h
2004 24-03-2010 16:55:01 20.4 C 5.13 g/m*3 20.4 C 0 km/h
2005 24-03-2010 17:07:01 20.4 C 5.31 g/m*3 20.4 C 0 km/h
2006 24-03-2010 17:19:02 20 C 5.18 g/m*3 20 C 0 km/h
2007 24-03-2010 17:31:01 19.8 C 5.47 g/m*3 19.8 C 0 km/h
2008 24-03-2010 17:43:01 19.5 C 5.37 g/m*3 19.5 C 0 km/h
2009 24-03-2010 17:55:02 19.1 C 5.08 g/m*3 19.1 C 0 km/h
2010 24-03-2010 18:07:01 18.5 C 5.22 g/m*3 18.5 C 0 km/h
2011 24-03-2010 18:19:02 17.9 C 5.65 g/m*3 17.9 C 0 km/h
2012 24-03-2010 18:31:01 17.4 C 5.48 g/m*3 17.4 C 0 km/h
2013 24-03-2010 18:43:01 16.5 C 5.62 g/m*3 16.5 C 0 km/h
2014 24-03-2010 18:55:02 15.8 C 5.38 g/m*3 15.8 C 0 km/h
2015 24-03-2010 19:07:02 15.4 C 5.52 g/m*3 15.4 C 0 km/h
2016 24-03-2010 19:19:02 15 C 5.51 g/m*3 15 C 0 km/h
2017 24-03-2010 19:31:03 14.5 C 5.6 g/m*3 14.5 C 0 km/h
2018 24-03-2010 19:43:03 14.4 C 5.56 g/m*3 14.4 C 0 km/h
2019 24-03-2010 19:55:02 14.2 C 5.49 g/m*3 14.2 C 0 km/h
2020 24-03-2010 20:07:01 14 C 5.67 g/m*3 14 C 0 km/h
2021 24-03-2010 20:19:02 14 C 5.55 g/m*3 14 C 0 km/h
2022 24-03-2010 20:31:02 13.8 C 5.48 g/m*3 13.8 C 0 km/h
2023 24-03-2010 20:43:02 13.8 C 5.6 g/m*3 13.8 C 0 km/h
2024 24-03-2010 20:55:02 13.4 C 5.58 g/m*3 13.4 C 0 km/h
2025 24-03-2010 21:07:01 13.4 C 5.58 g/m*3 13.4 C 0 km/h
Sensor: Nr:Datum:Temp:Abs-Feuchte:Windchill:Wind:
Aussen-T/F 2026 24-03-2010 21:19:01 13.2 C 5.51 g/m*3 13.2 C 0 km/h
2027 24-03-2010 21:31:02 13.1 C 5.59 g/m*3 13.1 C 0 km/h
2028 24-03-2010 21:43:02 12.9 C 5.75 g/m*3 12.9 C 0 km/h
2029 24-03-2010 21:55:02 12.8 C 5.71 g/m*3 12.8 C 0 km/h
2030 24-03-2010 22:07:02 12.4 C 5.68 g/m*3 12.4 C 0 km/h
2031 24-03-2010 22:19:02 12.7 C 5.68 g/m*3 12.7 C 0 km/h
2032 24-03-2010 22:31:02 12.6 C 5.64 g/m*3 12.6 C 0 km/h
2033 24-03-2010 22:43:02 12.4 C 5.68 g/m*3 12.4 C 0 km/h
2034 24-03-2010 22:55:02 12 C 5.86 g/m*3 12 C 0 km/h
2035 24-03-2010 23:07:02 11.7 C 6.07 g/m*3 11.7 C 0 km/h
2036 24-03-2010 23:19:02 11.4 C 5.95 g/m*3 11.4 C 0 km/h
2037 24-03-2010 23:31:02 10.9 C 6.07 g/m*3 10.9 C 0 km/h
2038 24-03-2010 23:43:02 10.8 C 6.13 g/m*3 10.8 C 0 km/h
2039 24-03-2010 23:55:02 10.6 C 6.15 g/m*3 10.6 C 0 km/h
2040 25-03-2010 00:07:02 10.6 C 6.25 g/m*3 10.6 C 0 km/h
2041 25-03-2010 00:19:02 10.5 C 6.21 g/m*3 10.5 C 0 km/h
2042 25-03-2010 00:31:02 10.4 C 6.07 g/m*3 10.4 C 0 km/h
2043 25-03-2010 00:43:02 10.1 C 6.05 g/m*3 10.1 C 0 km/h
2044 25-03-2010 00:55:01 9.7 C 6.08 g/m*3 9.7 C 0 km/h
2045 25-03-2010 01:07:02 9.4 C 6.06 g/m*3 9.4 C 0 km/h
2046 25-03-2010 01:19:01 9.3 C 6.11 g/m*3 9.3 C 0 km/h
2047 25-03-2010 01:31:01 9.2 C 6.16 g/m*3 9.2 C 0 km/h
2048 25-03-2010 01:43:01 9 C 6.08 g/m*3 9 C 0 km/h
2049 25-03-2010 01:55:01 8.9 C 6.13 g/m*3 8.9 C 0 km/h
2050 25-03-2010 02:07:02 8.9 C 6.22 g/m*3 8.9 C 0 km/h
Sensor: Nr:Datum:Temp:Abs-Feuchte:Windchill:Wind:
Aussen-T/F 2051 25-03-2010 02:19:02 8.8 C 6.18 g/m*3 8.8 C 0 km/h
2052 25-03-2010 02:31:01 8.6 C 6.19 g/m*3 8.6 C 0 km/h
2053 25-03-2010 02:43:01 8.7 C 6.23 g/m*3 8.7 C 0 km/h
2054 25-03-2010 02:55:01 8.6 C 6.27 g/m*3 8.6 C 0 km/h
2055 25-03-2010 03:07:01 8.7 C 6.31 g/m*3 8.7 C 0 km/h
2056 25-03-2010 03:19:01 8.6 C 6.27 g/m*3 8.6 C 0 km/h
2057 25-03-2010 03:31:01 8.4 C 6.28 g/m*3 8.4 C 0 km/h
2058 25-03-2010 03:43:01 8.1 C 6.16 g/m*3 8.1 C 0 km/h
2059 25-03-2010 03:55:01 7.9 C 6.24 g/m*3 7.9 C 0 km/h
2060 25-03-2010 04:07:02 7.7 C 6.24 g/m*3 7.7 C 0 km/h
2061 25-03-2010 04:19:01 7.6 C 6.28 g/m*3 7.6 C 0 km/h
2062 25-03-2010 04:31:01 7.7 C 6.32 g/m*3 7.7 C 0 km/h
2063 25-03-2010 04:43:01 7.9 C 6.49 g/m*3 7.9 C 0 km/h
2064 25-03-2010 04:55:01 7.8 C 6.45 g/m*3 7.8 C 0 km/h
2065 25-03-2010 05:07:01 7.6 C 6.44 g/m*3 7.6 C 0 km/h
2066 25-03-2010 05:19:01 7.5 C 6.4 g/m*3 7.5 C 0 km/h
2067 25-03-2010 05:31:01 7.3 C 6.4 g/m*3 7.3 C 0 km/h
2068 25-03-2010 05:43:01 7.2 C 6.36 g/m*3 7.2 C 0 km/h
2069 25-03-2010 05:55:01 7.2 C 6.36 g/m*3 7.2 C 0 km/h
2070 25-03-2010 06:07:01 7.3 C 6.48 g/m*3 7.3 C 0 km/h
2071 25-03-2010 06:19:02 7.4 C 6.44 g/m*3 7.4 C 0 km/h
2072 25-03-2010 06:31:01 7.4 C 6.44 g/m*3 7.4 C 0 km/h
2073 25-03-2010 06:43:01 7.5 C 6.48 g/m*3 7.5 C 0 km/h
2074 25-03-2010 06:55:01 7.6 C 6.53 g/m*3 7.6 C 0 km/h
2075 25-03-2010 07:07:01 7.8 C 6.53 g/m*3 7.8 C 0 km/h
Sensor: Nr:Datum:Temp:Abs-Feuchte:Windchill:Wind:
Aussen-T/F 2076 25-03-2010 07:19:02 7.9 C 6.57 g/m*3 7.9 C 0 km/h
2077 25-03-2010 07:31:01 7.6 C 6.61 g/m*3 7.6 C 0 km/h
2078 25-03-2010 07:43:01 7.9 C 6.9 g/m*3 7.9 C 0 km/h
2079 25-03-2010 07:55:02 8.2 C 6.95 g/m*3 8.2 C 0 km/h
2080 25-03-2010 08:07:01 8.2 C 6.87 g/m*3 8.2 C 0 km/h
2081 25-03-2010 08:19:02 8.1 C 6.82 g/m*3 8.1 C 0 km/h
2082 25-03-2010 08:31:01 8.2 C 6.95 g/m*3 8.2 C 0 km/h
2083 25-03-2010 08:43:01 8.4 C 7.04 g/m*3 8.4 C 0 km/h
2084 25-03-2010 08:55:02 8.8 C 7.22 g/m*3 8.8 C 0 km/h
2085 25-03-2010 09:07:01 9.5 C 7.46 g/m*3 9.5 C 0 km/h
2086 25-03-2010 09:19:01 10.4 C 7.61 g/m*3 10.4 C 0 km/h
2087 25-03-2010 09:31:02 11 C 7.31 g/m*3 11 C 0 km/h
2088 25-03-2010 09:43:02 11.5 C 7.33 g/m*3 11.5 C 0 km/h
2089 25-03-2010 09:55:02 11.9 C 7.31 g/m*3 11.9 C 0 km/h
2090 25-03-2010 10:07:01 12.4 C 7.21 g/m*3 12.4 C 0 km/h
2091 25-03-2010 10:19:01 12.6 C 7.08 g/m*3 12.6 C 0 km/h
2092 25-03-2010 10:31:02 13.1 C 7.3 g/m*3 13.1 C 0 km/h
2093 25-03-2010 10:43:02 14.1 C 7.4 g/m*3 14.1 C 0 km/h
2094 25-03-2010 10:55:01 14.7 C 7.05 g/m*3 14.7 C 0 km/h
2095 25-03-2010 11:07:02 15.7 C 6.69 g/m*3 15.7 C 0 km/h
2096 25-03-2010 11:19:01 16.8 C 6.43 g/m*3 16.8 C 0 km/h
2097 25-03-2010 11:31:02 17.9 C 5.95 g/m*3 17.9 C 0 km/h
2098 25-03-2010 11:43:02 18.5 C 5.85 g/m*3 18.5 C 0 km/h
2099 25-03-2010 11:55:01 18.8 C 5.64 g/m*3 18.8 C 0 km/h
2100 25-03-2010 12:07:02 19.5 C 5.2 g/m*3 19.5 C 0 km/h
Sensor: Nr:Datum:Temp:Abs-Feuchte:Windchill:Wind:
Aussen-T/F 2101 25-03-2010 12:19:01 19.3 C 4.64 g/m*3 19.3 C 0 km/h
2102 25-03-2010 12:31:01 20.2 C 4.55 g/m*3 20.2 C 0 km/h
2103 25-03-2010 12:43:01 21 C 4.4 g/m*3 21 C 0 km/h
2104 25-03-2010 12:55:01 21.6 C 4.55 g/m*3 21.6 C 0 km/h
2105 25-03-2010 13:07:02 22 C 4.27 g/m*3 22 C 0 km/h
2106 25-03-2010 13:19:01 22.2 C 3.93 g/m*3 22.2 C 0 km/h
2107 25-03-2010 13:31:01 22.8 C 4.06 g/m*3 22.8 C 0 km/h
2108 25-03-2010 13:43:01 22.7 C 4.04 g/m*3 22.7 C 0 km/h
2109 25-03-2010 13:55:01 23.2 C 4.16 g/m*3 23.2 C 0 km/h
2110 25-03-2010 14:07:01 22.8 C 4.06 g/m*3 22.8 C 0 km/h
2111 25-03-2010 14:19:02 22.9 C 4.09 g/m*3 22.9 C 0 km/h
2112 25-03-2010 14:31:01 23.3 C 4.18 g/m*3 23.3 C 0 km/h
2113 25-03-2010 14:43:01 23.8 C 4.3 g/m*3 23.8 C 0 km/h
2114 25-03-2010 14:55:01 23.7 C 4.28 g/m*3 23.7 C 0 km/h
2115 25-03-2010 15:07:01 23.2 C 4.16 g/m*3 23.2 C 0 km/h
2116 25-03-2010 15:19:02 22.8 C 4.06 g/m*3 22.8 C 0 km/h
2117 25-03-2010 15:31:01 23.4 C 4.21 g/m*3 23.4 C 0 km/h
2118 25-03-2010 15:43:01 23.6 C 4.25 g/m*3 23.6 C 0 km/h
2119 25-03-2010 15:55:02 23.7 C 4.28 g/m*3 23.7 C 0 km/h
2120 25-03-2010 16:07:01 23.6 C 4.25 g/m*3 23.6 C 0 km/h
2121 25-03-2010 16:19:02 24.1 C 4.38 g/m*3 24.1 C 0 km/h
2122 25-03-2010 16:31:01 23.6 C 4.25 g/m*3 23.6 C 0 km/h
2123 25-03-2010 16:43:01 22.8 C 4.06 g/m*3 22.8 C 0 km/h
2124 25-03-2010 16:55:02 21.9 C 4.44 g/m*3 21.9 C 0 km/h
2125 25-03-2010 17:07:01 21.5 C 4.71 g/m*3 21.5 C 0 km/h
Sensor: Nr:Datum:Temp:Abs-Feuchte:Windchill:Wind:
Aussen-T/F 2126 25-03-2010 17:19:01 20.9 C 4.55 g/m*3 20.9 C 0 km/h
2127 25-03-2010 17:31:01 20.7 C 4.68 g/m*3 20.7 C 0 km/h
2128 25-03-2010 17:43:01 20 C 5.01 g/m*3 20 C 0 km/h
2129 25-03-2010 17:55:01 19.5 C 5.37 g/m*3 19.5 C 0 km/h
2130 25-03-2010 18:07:02 19.6 C 5.23 g/m*3 19.6 C 0 km/h
2131 25-03-2010 18:19:02 19.5 C 5.87 g/m*3 19.5 C 0 km/h
2132 25-03-2010 18:31:01 19.3 C 5.31 g/m*3 19.3 C 0 km/h
2133 25-03-2010 18:43:01 18.7 C 5.6 g/m*3 18.7 C 0 km/h
2134 25-03-2010 18:55:02 18.5 C 5.85 g/m*3 18.5 C 0 km/h
2135 25-03-2010 19:07:01 18.3 C 5.79 g/m*3 18.3 C 0 km/h
2136 25-03-2010 19:19:02 17.8 C 5.62 g/m*3 17.8 C 0 km/h
2137 25-03-2010 19:31:01 17.2 C 5.86 g/m*3 17.2 C 0 km/h
2138 25-03-2010 19:43:01 16.8 C 5.86 g/m*3 16.8 C 0 km/h
2139 25-03-2010 19:55:02 16.4 C 5.72 g/m*3 16.4 C 0 km/h
2140 25-03-2010 20:07:01 16.1 C 5.76 g/m*3 16.1 C 0 km/h
2141 25-03-2010 20:19:01 15.8 C 5.79 g/m*3 15.8 C 0 km/h
2142 25-03-2010 20:31:02 15.4 C 5.91 g/m*3 15.4 C 0 km/h
2143 25-03-2010 20:43:02 15.2 C 5.97 g/m*3 15.2 C 0 km/h
2144 25-03-2010 20:55:02 15 C 5.9 g/m*3 15 C 0 km/h
2145 25-03-2010 21:07:01 14.9 C 5.99 g/m*3 14.9 C 0 km/h
2146 25-03-2010 21:19:01 14.7 C 6.04 g/m*3 14.7 C 0 km/h
2147 25-03-2010 21:31:02 14.5 C 6.09 g/m*3 14.5 C 0 km/h
2148 25-03-2010 21:43:02 14.1 C 6.07 g/m*3 14.1 C 0 km/h
2149 25-03-2010 21:55:01 13.8 C 6.2 g/m*3 13.8 C 0 km/h
2150 25-03-2010 22:07:02 13.6 C 6.24 g/m*3 13.6 C 0 km/h
Sensor: Nr:Datum:Temp:Abs-Feuchte:Windchill:Wind:
Aussen-T/F 2151 25-03-2010 22:19:01 13.4 C 6.28 g/m*3 13.4 C 0 km/h
2152 25-03-2010 22:31:01 13.1 C 6.39 g/m*3 13.1 C 0 km/h
2153 25-03-2010 22:43:01 13 C 6.35 g/m*3 13 C 0 km/h
2154 25-03-2010 22:55:01 13 C 6.24 g/m*3 13 C 0 km/h
2155 25-03-2010 23:07:02 13 C 6.46 g/m*3 13 C 0 km/h
2156 25-03-2010 23:19:01 12.6 C 6.31 g/m*3 12.6 C 0 km/h
2157 25-03-2010 23:31:02 12.7 C 6.57 g/m*3 12.7 C 0 km/h
2158 25-03-2010 23:43:02 12.6 C 6.53 g/m*3 12.6 C 0 km/h
2159 25-03-2010 23:55:01 12.5 C 6.6 g/m*3 12.5 C 0 km/h
2160 26-03-2010 00:07:02 12.5 C 6.71 g/m*3 12.5 C 0 km/h
2161 26-03-2010 00:19:02 12.4 C 6.66 g/m*3 12.4 C 0 km/h
2162 26-03-2010 00:31:01 12.4 C 6.66 g/m*3 12.4 C 0 km/h
2163 26-03-2010 00:43:01 12.2 C 6.58 g/m*3 12.2 C 0 km/h
2164 26-03-2010 00:55:02 12.1 C 6.65 g/m*3 12.1 C 0 km/h
2165 26-03-2010 01:07:01 12.3 C 6.62 g/m*3 12.3 C 0 km/h
2166 26-03-2010 01:19:02 12.2 C 6.58 g/m*3 12.2 C 0 km/h
2167 26-03-2010 01:31:01 12.5 C 6.6 g/m*3 12.5 C 0 km/h
2168 26-03-2010 01:43:01 13 C 6.58 g/m*3 13 C 0 km/h
2169 26-03-2010 01:55:02 13.8 C 6.55 g/m*3 13.8 C 0 km/h
2170 26-03-2010 02:07:01 13.4 C 6.28 g/m*3 13.4 C 0 km/h
2171 26-03-2010 02:19:01 12.7 C 6.46 g/m*3 12.7 C 0 km/h
2172 26-03-2010 02:31:02 12.4 C 6.66 g/m*3 12.4 C 0 km/h
2173 26-03-2010 02:43:02 12.1 C 6.76 g/m*3 12.1 C 0 km/h
2174 26-03-2010 02:56:05 12 C 6.82 g/m*3 12 C 0 km/h
2175 26-03-2010 03:08:06 11.6 C 6.76 g/m*3 11.6 C 0 km/h
Sensor: Nr:Datum:Temp:Abs-Feuchte:Windchill:Wind:
Aussen-T/F 2176 26-03-2010 03:20:05 11.6 C 6.86 g/m*3 11.6 C 0 km/h
2177 26-03-2010 03:32:03 11.8 C 6.95 g/m*3 11.8 C 0 km/h
2178 26-03-2010 03:44:03 12 C 6.82 g/m*3 12 C 0 km/h
2179 26-03-2010 03:56:03 12.1 C 6.86 g/m*3 12.1 C 0 km/h
2180 26-03-2010 04:08:02 11.7 C 6.9 g/m*3 11.7 C 0 km/h
2181 26-03-2010 04:20:02 11.2 C 6.79 g/m*3 11.2 C 0 km/h
2182 26-03-2010 04:32:02 11.2 C 6.99 g/m*3 11.2 C 0 km/h
2183 26-03-2010 04:44:02 11.1 C 6.95 g/m*3 11.1 C 0 km/h
2184 26-03-2010 04:56:02 11.2 C 6.89 g/m*3 11.2 C 0 km/h
2185 26-03-2010 05:08:02 11 C 6.81 g/m*3 11 C 0 km/h
2186 26-03-2010 05:20:02 10.9 C 6.86 g/m*3 10.9 C 0 km/h
2187 26-03-2010 05:32:01 10.7 C 6.88 g/m*3 10.7 C 0 km/h
2188 26-03-2010 05:44:01 10.9 C 6.96 g/m*3 10.9 C 0 km/h
2189 26-03-2010 05:56:02 11 C 7.01 g/m*3 11 C 0 km/h
2190 26-03-2010 06:08:01 10.8 C 6.92 g/m*3 10.8 C 0 km/h
2191 26-03-2010 06:20:02 10.5 C 6.98 g/m*3 10.5 C 0 km/h
2192 26-03-2010 06:32:02 10.2 C 6.85 g/m*3 10.2 C 0 km/h
2193 26-03-2010 06:44:02 10.2 C 6.95 g/m*3 10.2 C 0 km/h
2194 26-03-2010 06:56:02 10.2 C 6.95 g/m*3 10.2 C 0 km/h
2195 26-03-2010 07:08:02 10.3 C 6.99 g/m*3 10.3 C 0 km/h
2196 26-03-2010 07:20:02 10.6 C 7.22 g/m*3 10.6 C 0 km/h
2197 26-03-2010 07:32:02 10.7 C 7.17 g/m*3 10.7 C 0 km/h
2198 26-03-2010 07:44:02 10.8 C 7.22 g/m*3 10.8 C 0 km/h
2199 26-03-2010 07:56:02 11 C 7.11 g/m*3 11 C 0 km/h
2200 26-03-2010 08:08:02 11.5 C 7.23 g/m*3 11.5 C 0 km/h
Sensor: Nr:Datum:Temp:Abs-Feuchte:Windchill:Wind:
Aussen-T/F 2201 26-03-2010 08:20:01 11.5 C 7.13 g/m*3 11.5 C 0 km/h
2202 26-03-2010 08:32:02 11.7 C 7.22 g/m*3 11.7 C 0 km/h
2203 26-03-2010 08:44:02 12.3 C 7.28 g/m*3 12.3 C 0 km/h
2204 26-03-2010 08:56:02 12.2 C 7.12 g/m*3 12.2 C 0 km/h
2205 26-03-2010 09:08:02 12.4 C 7.21 g/m*3 12.4 C 0 km/h
2206 26-03-2010 09:20:02 12.8 C 7.28 g/m*3 12.8 C 0 km/h
2207 26-03-2010 09:32:02 13.2 C 7.23 g/m*3 13.2 C 0 km/h
2208 26-03-2010 09:44:02 13.7 C 7.22 g/m*3 13.7 C 0 km/h
2209 26-03-2010 09:56:02 13.8 C 7.03 g/m*3 13.8 C 0 km/h
2210 26-03-2010 10:08:02 13.8 C 7.15 g/m*3 13.8 C 0 km/h
2211 26-03-2010 10:20:02 13.8 C 7.03 g/m*3 13.8 C 0 km/h
2212 26-03-2010 10:32:02 13.8 C 7.15 g/m*3 13.8 C 0 km/h
2213 26-03-2010 10:44:02 13.6 C 6.83 g/m*3 13.6 C 0 km/h
2214 26-03-2010 10:56:02 13.3 C 6.82 g/m*3 13.3 C 0 km/h
2215 26-03-2010 11:08:02 12.5 C 6.6 g/m*3 12.5 C 0 km/h
2216 26-03-2010 11:20:02 12.2 C 6.58 g/m*3 12.2 C 0 km/h
2217 26-03-2010 11:32:02 11 C 7.01 g/m*3 11 C 0 km/h
2218 26-03-2010 11:44:02 9.9 C 7.28 g/m*3 9.9 C 0 km/h
2219 26-03-2010 11:56:01 9 C 6.96 g/m*3 9 C 0 km/h
2220 26-03-2010 12:08:01 8.5 C 7.17 g/m*3 8.5 C 0 km/h
2221 26-03-2010 12:20:01 8.2 C 7.2 g/m*3 8.2 C 0 km/h
2222 26-03-2010 12:32:01 7.9 C 7.23 g/m*3 7.9 C 0 km/h
2223 26-03-2010 12:44:01 7.5 C 6.96 g/m*3 7.5 C 0 km/h
2224 26-03-2010 12:56:01 7.4 C 7 g/m*3 7.4 C 0 km/h
2225 26-03-2010 13:08:01 7.5 C 7.12 g/m*3 7.5 C 0 km/h
Sensor: Nr:Datum:Temp:Abs-Feuchte:Windchill:Wind:
Aussen-T/F 2226 26-03-2010 13:20:02 7.4 C 7.08 g/m*3 7.4 C 0 km/h
2227 26-03-2010 13:32:01 7.5 C 7.2 g/m*3 7.5 C 0 km/h
2228 26-03-2010 13:44:01 7.8 C 7.43 g/m*3 7.8 C 0 km/h
2229 26-03-2010 13:56:02 7.7 C 7.38 g/m*3 7.7 C 0 km/h
2230 26-03-2010 14:08:02 7.5 C 7.28 g/m*3 7.5 C 0 km/h
2231 26-03-2010 14:20:02 7.4 C 7.16 g/m*3 7.4 C 0 km/h
2232 26-03-2010 14:32:02 7.5 C 7.2 g/m*3 7.5 C 0 km/h
2233 26-03-2010 14:44:02 8.1 C 7.49 g/m*3 8.1 C 0 km/h
2234 26-03-2010 14:56:02 8.2 C 7.54 g/m*3 8.2 C 0 km/h
2235 26-03-2010 15:08:01 8.1 C 7.41 g/m*3 8.1 C 0 km/h
2236 26-03-2010 15:20:01 8.2 C 7.45 g/m*3 8.2 C 0 km/h
2237 26-03-2010 15:32:01 8.1 C 7.32 g/m*3 8.1 C 0 km/h
2238 26-03-2010 15:44:01 8.3 C 7.42 g/m*3 8.3 C 0 km/h
2239 26-03-2010 15:56:02 8.6 C 7.65 g/m*3 8.6 C 0 km/h
2240 26-03-2010 16:08:02 8.7 C 7.7 g/m*3 8.7 C 0 km/h
2241 26-03-2010 16:20:01 8.5 C 7.51 g/m*3 8.5 C 0 km/h
2242 26-03-2010 16:32:01 8.6 C 7.56 g/m*3 8.6 C 0 km/h
2243 26-03-2010 16:44:01 8.5 C 7.51 g/m*3 8.5 C 0 km/h
2244 26-03-2010 16:56:01 8.4 C 7.38 g/m*3 8.4 C 0 km/h
2245 26-03-2010 17:08:02 8.6 C 7.3 g/m*3 8.6 C 0 km/h
2246 26-03-2010 17:20:02 8.6 C 7.22 g/m*3 8.6 C 0 km/h
2247 26-03-2010 17:32:02 8.6 C 7.22 g/m*3 8.6 C 0 km/h
2248 26-03-2010 17:44:02 8.6 C 7.22 g/m*3 8.6 C 0 km/h
2249 26-03-2010 17:56:01 8.6 C 7.22 g/m*3 8.6 C 0 km/h
2250 26-03-2010 18:08:02 8.5 C 7.17 g/m*3 8.5 C 0 km/h
Sensor: Nr:Datum:Temp:Abs-Feuchte:Windchill:Wind:
Aussen-T/F 2251 26-03-2010 18:20:02 8.8 C 7.22 g/m*3 8.8 C 0 km/h
2252 26-03-2010 18:32:01 8.7 C 7.01 g/m*3 8.7 C 0 km/h
2253 26-03-2010 18:44:01 8.6 C 6.87 g/m*3 8.6 C 0 km/h
2254 26-03-2010 18:56:02 8.6 C 6.96 g/m*3 8.6 C 0 km/h
2255 26-03-2010 19:08:01 8.4 C 6.96 g/m*3 8.4 C 0 km/h
2256 26-03-2010 19:20:02 8.4 C 7.04 g/m*3 8.4 C 0 km/h
2257 26-03-2010 19:32:01 8.5 C 7.09 g/m*3 8.5 C 0 km/h
2258 26-03-2010 19:44:01 8.4 C 7.04 g/m*3 8.4 C 0 km/h
2259 26-03-2010 19:56:01 8.4 C 7.13 g/m*3 8.4 C 0 km/h
2260 26-03-2010 20:08:01 8.5 C 7.09 g/m*3 8.5 C 0 km/h
2261 26-03-2010 20:20:01 8.7 C 7.09 g/m*3 8.7 C 0 km/h
2262 26-03-2010 20:32:02 8.7 C 6.92 g/m*3 8.7 C 0 km/h
2263 26-03-2010 20:44:02 8.6 C 6.7 g/m*3 8.6 C 0 km/h
2264 26-03-2010 20:56:02 8.4 C 6.53 g/m*3 8.4 C 0 km/h
2265 26-03-2010 21:08:02 8.3 C 6.41 g/m*3 8.3 C 0 km/h
2266 26-03-2010 21:20:01 8.5 C 6.15 g/m*3 8.5 C 0 km/h
2267 26-03-2010 21:33:02 8.5 C 6.15 g/m*3 8.5 C 0 km/h
2268 26-03-2010 21:45:03 8.3 C 6.15 g/m*3 8.3 C 0 km/h
2269 26-03-2010 21:57:03 8.4 C 6.19 g/m*3 8.4 C 0 km/h
2270 26-03-2010 22:09:03 8.3 C 6.32 g/m*3 8.3 C 0 km/h
2271 26-03-2010 22:21:03 8.3 C 6.32 g/m*3 8.3 C 0 km/h
2272 26-03-2010 22:33:03 8.2 C 6.36 g/m*3 8.2 C 0 km/h
2273 26-03-2010 22:45:03 8.1 C 6.41 g/m*3 8.1 C 0 km/h
2274 26-03-2010 22:57:03 7.8 C 6.37 g/m*3 7.8 C 0 km/h
2275 26-03-2010 23:09:03 7.7 C 6.49 g/m*3 7.7 C 0 km/h
Sensor: Nr:Datum:Temp:Abs-Feuchte:Windchill:Wind:
Aussen-T/F 2276 26-03-2010 23:21:03 7.8 C 6.53 g/m*3 7.8 C 0 km/h
2277 26-03-2010 23:33:03 7.8 C 6.45 g/m*3 7.8 C 0 km/h
2278 26-03-2010 23:45:03 7.6 C 6.44 g/m*3 7.6 C 0 km/h
2279 26-03-2010 23:57:03 7.7 C 6.49 g/m*3 7.7 C 0 km/h
2280 27-03-2010 00:09:03 7.7 C 6.41 g/m*3 7.7 C 0 km/h
2281 27-03-2010 00:21:03 7.9 C 6.49 g/m*3 7.9 C 0 km/h
2282 27-03-2010 00:33:03 7.9 C 6.49 g/m*3 7.9 C 0 km/h
2283 27-03-2010 00:45:03 8 C 6.45 g/m*3 8 C 0 km/h
2284 27-03-2010 00:57:03 8.2 C 6.45 g/m*3 8.2 C 0 km/h
2285 27-03-2010 01:09:03 8.4 C 6.45 g/m*3 8.4 C 0 km/h
2286 27-03-2010 01:21:03 8.4 C 6.36 g/m*3 8.4 C 0 km/h
2287 27-03-2010 01:33:03 8.5 C 6.4 g/m*3 8.5 C 0 km/h
2288 27-03-2010 01:45:03 8.5 C 6.23 g/m*3 8.5 C 0 km/h
2289 27-03-2010 01:57:03 8.5 C 6.23 g/m*3 8.5 C 0 km/h
2290 27-03-2010 02:09:03 8.5 C 6.06 g/m*3 8.5 C 0 km/h
2291 27-03-2010 02:21:04 8.2 C 6.11 g/m*3 8.2 C 0 km/h
2292 27-03-2010 02:33:04 8.1 C 5.99 g/m*3 8.1 C 0 km/h
2293 27-03-2010 02:45:04 8 C 6.04 g/m*3 8 C 0 km/h
2294 27-03-2010 02:57:04 8.3 C 6.15 g/m*3 8.3 C 0 km/h
2295 27-03-2010 03:09:04 8.4 C 6.19 g/m*3 8.4 C 0 km/h
2296 27-03-2010 03:21:04 8.1 C 6.07 g/m*3 8.1 C 0 km/h
2297 27-03-2010 03:33:04 7.9 C 6.16 g/m*3 7.9 C 0 km/h
2298 27-03-2010 03:45:04 8 C 6.2 g/m*3 8 C 0 km/h
2299 27-03-2010 03:57:04 8.1 C 6.07 g/m*3 8.1 C 0 km/h
2300 27-03-2010 04:09:04 8.1 C 6.07 g/m*3 8.1 C 0 km/h
Sensor: Nr:Datum:Temp:Abs-Feuchte:Windchill:Wind:
Aussen-T/F 2301 27-03-2010 04:21:04 8.2 C 6.03 g/m*3 8.2 C 0 km/h
2302 27-03-2010 04:33:04 8.2 C 6.03 g/m*3 8.2 C 0 km/h
2303 27-03-2010 04:45:04 8.2 C 5.95 g/m*3 8.2 C 0 km/h
2304 27-03-2010 04:57:04 8.2 C 5.95 g/m*3 8.2 C 0 km/h
2305 27-03-2010 05:09:05 8.1 C 5.91 g/m*3 8.1 C 0 km/h
2306 27-03-2010 05:21:05 8.1 C 5.99 g/m*3 8.1 C 0 km/h
2307 27-03-2010 05:33:05 8.1 C 5.99 g/m*3 8.1 C 0 km/h
2308 27-03-2010 05:45:05 8 C 5.95 g/m*3 8 C 0 km/h
2309 27-03-2010 05:57:05 8 C 5.87 g/m*3 8 C 0 km/h
2310 27-03-2010 06:09:05 8 C 5.79 g/m*3 8 C 0 km/h
2311 27-03-2010 06:21:05 8 C 5.7 g/m*3 8 C 0 km/h
2312 27-03-2010 06:33:02 8.1 C 5.74 g/m*3 8.1 C 0 km/h
2313 27-03-2010 06:45:02 8.1 C 5.74 g/m*3 8.1 C 0 km/h
2314 27-03-2010 06:57:02 8.2 C 5.69 g/m*3 8.2 C 0 km/h
2315 27-03-2010 07:09:01 8.3 C 5.65 g/m*3 8.3 C 0 km/h
2316 27-03-2010 07:21:02 8.4 C 5.68 g/m*3 8.4 C 0 km/h
2317 27-03-2010 07:33:02 8.5 C 5.72 g/m*3 8.5 C 0 km/h
2318 27-03-2010 07:45:02 8.5 C 5.64 g/m*3 8.5 C 0 km/h
2319 27-03-2010 07:57:02 8.5 C 5.72 g/m*3 8.5 C 0 km/h
2320 27-03-2010 08:09:02 8.5 C 5.72 g/m*3 8.5 C 0 km/h
2321 27-03-2010 08:21:02 8.7 C 5.79 g/m*3 8.7 C 0 km/h
2322 27-03-2010 08:33:02 8.9 C 5.69 g/m*3 8.9 C 0 km/h
2323 27-03-2010 08:45:01 9.3 C 5.75 g/m*3 9.3 C 0 km/h
2324 27-03-2010 08:57:01 9.6 C 5.68 g/m*3 9.6 C 0 km/h
2325 27-03-2010 09:09:02 10 C 5.54 g/m*3 10 C 0 km/h
Sensor: Nr:Datum:Temp:Abs-Feuchte:Windchill:Wind:
Aussen-T/F 2326 27-03-2010 09:21:01 9.8 C 5.57 g/m*3 9.8 C 0 km/h
2327 27-03-2010 09:33:02 9.5 C 5.55 g/m*3 9.5 C 0 km/h
2328 27-03-2010 09:45:02 9.7 C 5.62 g/m*3 9.7 C 0 km/h
2329 27-03-2010 09:57:02 9.7 C 5.72 g/m*3 9.7 C 0 km/h
2330 27-03-2010 10:09:02 9.7 C 5.62 g/m*3 9.7 C 0 km/h
2331 27-03-2010 10:21:02 9.8 C 5.66 g/m*3 9.8 C 0 km/h
2332 27-03-2010 10:33:02 10.1 C 5.2 g/m*3 10.1 C 0 km/h
2333 27-03-2010 10:45:01 10.6 C 5.17 g/m*3 10.6 C 0 km/h
2334 27-03-2010 10:57:01 11.1 C 5.14 g/m*3 11.1 C 0 km/h
2335 27-03-2010 11:09:02 11.5 C 4.96 g/m*3 11.5 C 0 km/h
2336 27-03-2010 11:21:01 11.3 C 4.79 g/m*3 11.3 C 0 km/h
2337 27-03-2010 11:33:02 11.3 C 5 g/m*3 11.3 C 0 km/h
2338 27-03-2010 11:45:02 11.7 C 4.92 g/m*3 11.7 C 0 km/h
2339 27-03-2010 11:57:02 11.8 C 4.95 g/m*3 11.8 C 0 km/h
2340 27-03-2010 12:09:02 11.9 C 4.87 g/m*3 11.9 C 0 km/h
2341 27-03-2010 12:21:01 11.8 C 4.74 g/m*3 11.8 C 0 km/h
2342 27-03-2010 12:33:02 11.9 C 4.98 g/m*3 11.9 C 0 km/h
2343 27-03-2010 12:45:03 11.6 C 5.3 g/m*3 11.6 C 0 km/h
2344 27-03-2010 12:57:03 10.8 C 5.73 g/m*3 10.8 C 0 km/h
2345 27-03-2010 13:09:02 10.7 C 5.89 g/m*3 10.7 C 0 km/h
2346 27-03-2010 13:21:02 11.4 C 5.85 g/m*3 11.4 C 0 km/h
2347 27-03-2010 13:33:02 11.3 C 5.61 g/m*3 11.3 C 0 km/h
2348 27-03-2010 13:45:02 11.4 C 5.34 g/m*3 11.4 C 0 km/h
2349 27-03-2010 13:57:02 12 C 5.12 g/m*3 12 C 0 km/h
2350 27-03-2010 14:09:02 11.8 C 5.16 g/m*3 11.8 C 0 km/h
Sensor: Nr:Datum:Temp:Abs-Feuchte:Windchill:Wind:
Aussen-T/F 2351 27-03-2010 14:21:02 11.2 C 4.97 g/m*3 11.2 C 0 km/h
2352 27-03-2010 14:33:01 11.1 C 5.04 g/m*3 11.1 C 0 km/h
2353 27-03-2010 14:45:02 10.9 C 5.07 g/m*3 10.9 C 0 km/h
2354 27-03-2010 14:57:03 11 C 5 g/m*3 11 C 0 km/h
2355 27-03-2010 15:09:01 11.2 C 4.97 g/m*3 11.2 C 0 km/h
2356 27-03-2010 15:21:01 11.2 C 4.87 g/m*3 11.2 C 0 km/h
2357 27-03-2010 15:33:02 11.8 C 4.95 g/m*3 11.8 C 0 km/h
2358 27-03-2010 15:45:02 12.5 C 4.84 g/m*3 12.5 C 0 km/h
2359 27-03-2010 15:57:02 12.1 C 4.72 g/m*3 12.1 C 0 km/h
2360 27-03-2010 16:09:02 11.2 C 4.87 g/m*3 11.2 C 0 km/h
2361 27-03-2010 16:21:02 10.8 C 5.04 g/m*3 10.8 C 0 km/h
2362 27-03-2010 16:33:02 10.8 C 5.04 g/m*3 10.8 C 0 km/h
2363 27-03-2010 16:45:02 10.7 C 5.11 g/m*3 10.7 C 0 km/h
2364 27-03-2010 16:57:02 10.7 C 5.11 g/m*3 10.7 C 0 km/h
2365 27-03-2010 17:09:03 11 C 5.1 g/m*3 11 C 0 km/h
2366 27-03-2010 17:21:02 11.6 C 5.09 g/m*3 11.6 C 0 km/h
2367 27-03-2010 17:33:02 11.2 C 5.17 g/m*3 11.2 C 0 km/h
2368 27-03-2010 17:45:01 11.3 C 5.2 g/m*3 11.3 C 0 km/h
2369 27-03-2010 17:57:01 11.8 C 5.05 g/m*3 11.8 C 0 km/h
2370 27-03-2010 18:09:02 11.4 C 5.13 g/m*3 11.4 C 0 km/h
2371 27-03-2010 18:21:01 11.4 C 5.13 g/m*3 11.4 C 0 km/h
2372 27-03-2010 18:33:01 11.3 C 5 g/m*3 11.3 C 0 km/h
2373 27-03-2010 18:45:01 10.5 C 5.14 g/m*3 10.5 C 0 km/h
2374 27-03-2010 18:57:01 10 C 5.17 g/m*3 10 C 0 km/h
2375 27-03-2010 19:09:01 9.5 C 5.19 g/m*3 9.5 C 0 km/h
Sensor: Nr:Datum:Temp:Abs-Feuchte:Windchill:Wind:
Aussen-T/F 2376 27-03-2010 19:21:02 9.2 C 5.27 g/m*3 9.2 C 0 km/h
2377 27-03-2010 19:33:01 8.9 C 5.34 g/m*3 8.9 C 0 km/h
2378 27-03-2010 19:45:02 8.7 C 5.45 g/m*3 8.7 C 0 km/h
2379 27-03-2010 19:57:02 8.5 C 5.55 g/m*3 8.5 C 0 km/h
2380 27-03-2010 20:09:02 8.3 C 5.56 g/m*3 8.3 C 0 km/h
2381 27-03-2010 20:21:02 8.2 C 5.61 g/m*3 8.2 C 0 km/h
2382 27-03-2010 20:33:01 7.9 C 5.67 g/m*3 7.9 C 0 km/h
2383 27-03-2010 20:45:02 7.7 C 5.76 g/m*3 7.7 C 0 km/h
2384 27-03-2010 20:57:02 7.5 C 5.76 g/m*3 7.5 C 0 km/h
2385 27-03-2010 21:09:01 7.4 C 5.81 g/m*3 7.4 C 0 km/h
2386 27-03-2010 21:21:01 7.4 C 5.96 g/m*3 7.4 C 0 km/h
2387 27-03-2010 21:33:02 7.2 C 5.97 g/m*3 7.2 C 0 km/h
2388 27-03-2010 21:45:02 7.2 C 6.04 g/m*3 7.2 C 0 km/h
2389 27-03-2010 21:57:02 7.1 C 6.08 g/m*3 7.1 C 0 km/h
2390 27-03-2010 22:09:02 7.2 C 6.12 g/m*3 7.2 C 0 km/h
2391 27-03-2010 22:21:02 7.1 C 6.16 g/m*3 7.1 C 0 km/h
2392 27-03-2010 22:33:02 7.2 C 6.2 g/m*3 7.2 C 0 km/h
2393 27-03-2010 22:45:02 7.4 C 6.28 g/m*3 7.4 C 0 km/h
2394 27-03-2010 22:57:02 7.4 C 6.2 g/m*3 7.4 C 0 km/h
2395 27-03-2010 23:09:03 7.7 C 6.16 g/m*3 7.7 C 0 km/h
2396 27-03-2010 23:21:02 7.8 C 6.04 g/m*3 7.8 C 0 km/h
2397 27-03-2010 23:33:03 8 C 5.87 g/m*3 8 C 0 km/h
2398 27-03-2010 23:45:02 7.7 C 6 g/m*3 7.7 C 0 km/h
2399 27-03-2010 23:57:02 7.7 C 6 g/m*3 7.7 C 0 km/h
2400 28-03-2010 00:09:02 7.7 C 6 g/m*3 7.7 C 0 km/h
Sensor: Nr:Datum:Temp:Abs-Feuchte:Windchill:Wind:
Aussen-T/F 2401 28-03-2010 00:21:02 7.4 C 5.96 g/m*3 7.4 C 0 km/h
2402 28-03-2010 00:33:02 7.5 C 6.08 g/m*3 7.5 C 0 km/h
2403 28-03-2010 00:45:02 7.7 C 6.08 g/m*3 7.7 C 0 km/h
2404 28-03-2010 00:57:02 7.7 C 6.08 g/m*3 7.7 C 0 km/h
2405 28-03-2010 01:09:02 7.9 C 6.08 g/m*3 7.9 C 0 km/h
2406 28-03-2010 01:21:02 8.2 C 5.95 g/m*3 8.2 C 0 km/h
2407 28-03-2010 01:33:01 8.4 C 5.85 g/m*3 8.4 C 0 km/h
2408 28-03-2010 01:45:02 8.4 C 5.85 g/m*3 8.4 C 0 km/h
2409 28-03-2010 01:57:02 8.1 C 5.82 g/m*3 8.1 C 0 km/h
2410 28-03-2010 02:09:01 7.9 C 5.91 g/m*3 7.9 C 0 km/h
2411 28-03-2010 02:21:02 8.1 C 5.99 g/m*3 8.1 C 0 km/h
2412 28-03-2010 02:33:01 8.4 C 6.02 g/m*3 8.4 C 0 km/h
2413 28-03-2010 02:45:01 8.3 C 5.9 g/m*3 8.3 C 0 km/h
2414 28-03-2010 02:57:01 8.2 C 5.95 g/m*3 8.2 C 0 km/h
2415 28-03-2010 04:09:02 8.2 C 6.03 g/m*3 8.2 C 0 km/h
2416 28-03-2010 04:21:01 8.1 C 5.99 g/m*3 8.1 C 0 km/h
2417 28-03-2010 04:33:01 8.2 C 6.11 g/m*3 8.2 C 0 km/h
2418 28-03-2010 04:45:01 8.2 C 6.11 g/m*3 8.2 C 0 km/h
2419 28-03-2010 04:57:01 8.2 C 6.11 g/m*3 8.2 C 0 km/h
2420 28-03-2010 05:09:01 8.2 C 6.03 g/m*3 8.2 C 0 km/h
2421 28-03-2010 05:21:02 8.2 C 6.11 g/m*3 8.2 C 0 km/h
2422 28-03-2010 05:33:01 8.1 C 6.24 g/m*3 8.1 C 0 km/h
2423 28-03-2010 05:45:01 8.1 C 6.32 g/m*3 8.1 C 0 km/h
2424 28-03-2010 05:57:01 8.1 C 6.32 g/m*3 8.1 C 0 km/h
2425 28-03-2010 06:09:01 8.2 C 6.28 g/m*3 8.2 C 0 km/h
Sensor: Nr:Datum:Temp:Abs-Feuchte:Windchill:Wind:
Aussen-T/F 2426 28-03-2010 06:21:02 8.4 C 6.36 g/m*3 8.4 C 0 km/h
2427 28-03-2010 06:33:01 8.4 C 6.28 g/m*3 8.4 C 0 km/h
2428 28-03-2010 06:45:02 8.4 C 6.36 g/m*3 8.4 C 0 km/h
2429 28-03-2010 06:57:02 8.3 C 6.32 g/m*3 8.3 C 0 km/h
2430 28-03-2010 07:09:01 8.2 C 6.28 g/m*3 8.2 C 0 km/h
2431 28-03-2010 07:21:01 8.2 C 6.28 g/m*3 8.2 C 0 km/h
2432 28-03-2010 07:33:01 8.2 C 6.11 g/m*3 8.2 C 0 km/h
2433 28-03-2010 07:45:01 8.2 C 6.11 g/m*3 8.2 C 0 km/h
2434 28-03-2010 07:57:02 8.3 C 6.15 g/m*3 8.3 C 0 km/h
2435 28-03-2010 08:09:01 8.6 C 6.27 g/m*3 8.6 C 0 km/h
2436 28-03-2010 08:21:01 8.7 C 6.23 g/m*3 8.7 C 0 km/h
2437 28-03-2010 08:33:02 8.9 C 6.22 g/m*3 8.9 C 0 km/h
2438 28-03-2010 08:45:01 9 C 6.08 g/m*3 9 C 0 km/h
2439 28-03-2010 08:57:01 9.1 C 6.03 g/m*3 9.1 C 0 km/h
2440 28-03-2010 09:09:02 9.1 C 5.94 g/m*3 9.1 C 0 km/h
2441 28-03-2010 09:21:01 9.2 C 5.98 g/m*3 9.2 C 0 km/h
2442 28-03-2010 09:33:02 9.8 C 5.94 g/m*3 9.8 C 0 km/h
2443 28-03-2010 09:45:01 10.2 C 5.9 g/m*3 10.2 C 0 km/h
2444 28-03-2010 09:57:01 10.4 C 5.88 g/m*3 10.4 C 0 km/h
2445 28-03-2010 10:09:02 10.2 C 5.71 g/m*3 10.2 C 0 km/h
2446 28-03-2010 10:21:01 10.1 C 5.77 g/m*3 10.1 C 0 km/h
2447 28-03-2010 10:33:01 10.5 C 5.82 g/m*3 10.5 C 0 km/h
2448 28-03-2010 10:45:01 10.7 C 5.8 g/m*3 10.7 C 0 km/h
2449 28-03-2010 10:57:01 10.7 C 5.8 g/m*3 10.7 C 0 km/h
2450 28-03-2010 11:09:01 11.2 C 5.47 g/m*3 11.2 C 0 km/h
Sensor: Nr:Datum:Temp:Abs-Feuchte:Windchill:Wind:
Aussen-T/F 2451 28-03-2010 11:21:01 10.9 C 5.37 g/m*3 10.9 C 0 km/h
2452 28-03-2010 11:33:01 10.9 C 5.57 g/m*3 10.9 C 0 km/h
2453 28-03-2010 11:45:01 11.7 C 5.54 g/m*3 11.7 C 0 km/h
2454 28-03-2010 11:57:01 11.3 C 5.41 g/m*3 11.3 C 0 km/h
2455 28-03-2010 12:09:01 11 C 5.31 g/m*3 11 C 0 km/h
2456 28-03-2010 12:21:02 10.8 C 5.63 g/m*3 10.8 C 0 km/h
2457 28-03-2010 12:33:01 11.8 C 5.79 g/m*3 11.8 C 0 km/h
2458 28-03-2010 12:45:02 12 C 5.44 g/m*3 12 C 0 km/h
2459 28-03-2010 12:57:02 11.6 C 5.4 g/m*3 11.6 C 0 km/h
2460 28-03-2010 13:09:01 11.6 C 5.51 g/m*3 11.6 C 0 km/h
2461 28-03-2010 13:21:02 12.3 C 5.21 g/m*3 12.3 C 0 km/h
2462 28-03-2010 13:33:01 11.9 C 5.3 g/m*3 11.9 C 0 km/h
2463 28-03-2010 13:45:02 11.7 C 5.23 g/m*3 11.7 C 0 km/h
2464 28-03-2010 13:57:02 11.5 C 5.37 g/m*3 11.5 C 0 km/h
2465 28-03-2010 14:09:01 11.7 C 5.44 g/m*3 11.7 C 0 km/h
2466 28-03-2010 14:21:01 12 C 5.22 g/m*3 12 C 0 km/h
2467 28-03-2010 14:33:02 11.9 C 5.3 g/m*3 11.9 C 0 km/h
2468 28-03-2010 14:45:01 10.2 C 6.19 g/m*3 10.2 C 0 km/h
2469 28-03-2010 14:57:01 9.3 C 6.47 g/m*3 9.3 C 0 km/h
2470 28-03-2010 15:09:01 10.1 C 6.81 g/m*3 10.1 C 0 km/h
2471 28-03-2010 15:21:01 11.3 C 6.43 g/m*3 11.3 C 0 km/h
2472 28-03-2010 15:33:02 11.7 C 6.48 g/m*3 11.7 C 0 km/h
2473 28-03-2010 15:45:01 13.1 C 6.5 g/m*3 13.1 C 0 km/h
2474 28-03-2010 15:57:01 13.7 C 6.16 g/m*3 13.7 C 0 km/h
2475 28-03-2010 16:09:02 13.7 C 5.68 g/m*3 13.7 C 0 km/h
Sensor: Nr:Datum:Temp:Abs-Feuchte:Windchill:Wind:
Aussen-T/F 2476 28-03-2010 16:21:01 13.4 C 4.88 g/m*3 13.4 C 0 km/h
2477 28-03-2010 16:33:01 13.1 C 4.91 g/m*3 13.1 C 0 km/h
2478 28-03-2010 16:45:01 12.6 C 5.09 g/m*3 12.6 C 0 km/h
2479 28-03-2010 16:57:01 11 C 6.51 g/m*3 11 C 0 km/h
2480 28-03-2010 17:09:02 11.1 C 7.15 g/m*3 11.1 C 0 km/h
2481 28-03-2010 17:21:01 11.4 C 6.88 g/m*3 11.4 C 0 km/h
2482 28-03-2010 17:33:01 11.6 C 6.86 g/m*3 11.6 C 0 km/h
2483 28-03-2010 17:45:01 11.7 C 7.01 g/m*3 11.7 C 0 km/h
2484 28-03-2010 17:57:01 11.7 C 6.07 g/m*3 11.7 C 0 km/h
2485 28-03-2010 18:09:01 11.6 C 6.03 g/m*3 11.6 C 0 km/h
2486 28-03-2010 18:21:02 11.5 C 5.78 g/m*3 11.5 C 0 km/h
2487 28-03-2010 18:33:01 11.4 C 5.85 g/m*3 11.4 C 0 km/h
2488 28-03-2010 18:45:01 11.3 C 5.92 g/m*3 11.3 C 0 km/h
2489 28-03-2010 18:57:01 11.3 C 6.12 g/m*3 11.3 C 0 km/h
2490 28-03-2010 19:09:01 11.2 C 6.08 g/m*3 11.2 C 0 km/h
2491 28-03-2010 19:21:02 11.1 C 6.25 g/m*3 11.1 C 0 km/h
2492 28-03-2010 19:33:01 10.9 C 6.37 g/m*3 10.9 C 0 km/h
2493 28-03-2010 19:45:02 10.3 C 6.61 g/m*3 10.3 C 0 km/h
2494 28-03-2010 19:57:02 10 C 6.77 g/m*3 10 C 0 km/h
2495 28-03-2010 20:09:01 9.9 C 6.91 g/m*3 9.9 C 0 km/h
2496 28-03-2010 20:21:01 9.8 C 6.96 g/m*3 9.8 C 0 km/h
2497 28-03-2010 20:33:01 9.8 C 6.96 g/m*3 9.8 C 0 km/h
2498 28-03-2010 20:45:01 9.9 C 6.91 g/m*3 9.9 C 0 km/h
2499 28-03-2010 20:57:02 9.9 C 6.91 g/m*3 9.9 C 0 km/h
2500 28-03-2010 21:09:01 9.9 C 6.91 g/m*3 9.9 C 0 km/h
Sensor: Nr:Datum:Temp:Abs-Feuchte:Windchill:Wind:
Aussen-T/F 2501 28-03-2010 21:21:01 9.9 C 6.82 g/m*3 9.9 C 0 km/h
2502 28-03-2010 21:33:02 9.9 C 6.82 g/m*3 9.9 C 0 km/h
2503 28-03-2010 21:45:01 9.8 C 6.87 g/m*3 9.8 C 0 km/h
2504 28-03-2010 21:57:01 9.8 C 6.87 g/m*3 9.8 C 0 km/h
2505 28-03-2010 22:10:04 9.7 C 6.91 g/m*3 9.7 C 0 km/h
2506 28-03-2010 22:22:04 9.6 C 6.78 g/m*3 9.6 C 0 km/h
2507 28-03-2010 22:34:04 9.5 C 6.74 g/m*3 9.5 C 0 km/h
2508 28-03-2010 22:46:04 9.4 C 6.87 g/m*3 9.4 C 0 km/h
2509 28-03-2010 22:58:04 9.4 C 6.87 g/m*3 9.4 C 0 km/h
2510 28-03-2010 23:10:04 9.5 C 6.92 g/m*3 9.5 C 0 km/h
2511 28-03-2010 23:22:04 9.3 C 6.83 g/m*3 9.3 C 0 km/h
2512 28-03-2010 23:34:04 9.4 C 6.96 g/m*3 9.4 C 0 km/h
2513 28-03-2010 23:46:04 9.7 C 6.91 g/m*3 9.7 C 0 km/h
2514 28-03-2010 23:58:04 9.8 C 6.87 g/m*3 9.8 C 0 km/h
2515 29-03-2010 00:10:04 10 C 6.86 g/m*3 10 C 0 km/h
2516 29-03-2010 00:22:04 10 C 6.77 g/m*3 10 C 0 km/h
2517 29-03-2010 00:34:04 9.8 C 6.87 g/m*3 9.8 C 0 km/h
2518 29-03-2010 00:46:04 9.8 C 6.87 g/m*3 9.8 C 0 km/h
2519 29-03-2010 00:58:04 9.8 C 6.87 g/m*3 9.8 C 0 km/h
2520 29-03-2010 01:10:04 9.8 C 7.05 g/m*3 9.8 C 0 km/h
2521 29-03-2010 01:22:04 9.7 C 7.1 g/m*3 9.7 C 0 km/h
2522 29-03-2010 01:34:04 9.6 C 7.15 g/m*3 9.6 C 0 km/h
2523 29-03-2010 01:46:05 9.6 C 7.15 g/m*3 9.6 C 0 km/h
2524 29-03-2010 01:58:05 9.6 C 7.24 g/m*3 9.6 C 0 km/h
2525 29-03-2010 02:10:05 9.5 C 7.28 g/m*3 9.5 C 0 km/h
Sensor: Nr:Datum:Temp:Abs-Feuchte:Windchill:Wind:
Aussen-T/F 2526 29-03-2010 02:22:05 9.3 C 7.28 g/m*3 9.3 C 0 km/h
2527 29-03-2010 02:34:05 9.3 C 7.46 g/m*3 9.3 C 0 km/h
2528 29-03-2010 02:46:05 9.3 C 7.55 g/m*3 9.3 C 0 km/h
2529 29-03-2010 02:58:05 9.3 C 7.64 g/m*3 9.3 C 0 km/h
2530 29-03-2010 03:10:05 9.3 C 7.73 g/m*3 9.3 C 0 km/h
2531 29-03-2010 03:22:05 9.4 C 7.87 g/m*3 9.4 C 0 km/h
2532 29-03-2010 03:34:05 10 C 7.99 g/m*3 10 C 0 km/h
2533 29-03-2010 03:46:05 10.4 C 8.1 g/m*3 10.4 C 0 km/h
2534 29-03-2010 03:58:05 10.6 C 8 g/m*3 10.6 C 0 km/h
2535 29-03-2010 04:10:05 11 C 8.01 g/m*3 11 C 0 km/h
2536 29-03-2010 04:22:05 11.1 C 7.96 g/m*3 11.1 C 0 km/h
2537 29-03-2010 04:34:05 11.3 C 7.96 g/m*3 11.3 C 0 km/h
2538 29-03-2010 04:46:05 11.5 C 7.95 g/m*3 11.5 C 0 km/h
2539 29-03-2010 04:58:05 11.5 C 7.95 g/m*3 11.5 C 0 km/h
2540 29-03-2010 05:10:05 11.5 C 7.95 g/m*3 11.5 C 0 km/h
2541 29-03-2010 05:22:05 11.5 C 7.95 g/m*3 11.5 C 0 km/h
2542 29-03-2010 05:34:05 11.5 C 8.06 g/m*3 11.5 C 0 km/h
2543 29-03-2010 05:46:05 11.4 C 8.01 g/m*3 11.4 C 0 km/h
2544 29-03-2010 05:58:05 11.5 C 8.06 g/m*3 11.5 C 0 km/h
2545 29-03-2010 06:10:05 11.5 C 8.06 g/m*3 11.5 C 0 km/h
2546 29-03-2010 06:22:06 11.5 C 8.06 g/m*3 11.5 C 0 km/h
2547 29-03-2010 06:34:06 11.5 C 7.95 g/m*3 11.5 C 0 km/h
2548 29-03-2010 06:46:01 11.4 C 7.9 g/m*3 11.4 C 0 km/h
2549 29-03-2010 06:58:01 11.4 C 8.11 g/m*3 11.4 C 0 km/h
2550 29-03-2010 07:10:02 11.2 C 8.11 g/m*3 11.2 C 0 km/h
Sensor: Nr:Datum:Temp:Abs-Feuchte:Windchill:Wind:
Aussen-T/F 2551 29-03-2010 07:22:02 10.9 C 8.26 g/m*3 10.9 C 0 km/h
2552 29-03-2010 07:34:02 10.7 C 8.35 g/m*3 10.7 C 0 km/h
2553 29-03-2010 07:46:02 10.6 C 8.49 g/m*3 10.6 C 0 km/h
2554 29-03-2010 07:58:02 10.6 C 8.59 g/m*3 10.6 C 0 km/h
2555 29-03-2010 08:10:02 10.7 C 8.55 g/m*3 10.7 C 0 km/h
2556 29-03-2010 08:22:01 10.8 C 8.5 g/m*3 10.8 C 0 km/h
2557 29-03-2010 08:34:02 11.2 C 8.41 g/m*3 11.2 C 0 km/h
2558 29-03-2010 08:46:02 11.4 C 8.11 g/m*3 11.4 C 0 km/h
2559 29-03-2010 08:58:02 11.6 C 8 g/m*3 11.6 C 0 km/h
2560 29-03-2010 09:10:02 11.8 C 7.89 g/m*3 11.8 C 0 km/h
2561 29-03-2010 09:22:01 11.9 C 7.84 g/m*3 11.9 C 0 km/h
2562 29-03-2010 09:34:02 12 C 7.78 g/m*3 12 C 0 km/h
2563 29-03-2010 09:46:01 12.1 C 7.72 g/m*3 12.1 C 0 km/h
2564 29-03-2010 09:58:01 12.2 C 7.77 g/m*3 12.2 C 0 km/h
2565 29-03-2010 10:10:02 12.4 C 7.87 g/m*3 12.4 C 0 km/h
2566 29-03-2010 10:22:02 12.6 C 7.85 g/m*3 12.6 C 0 km/h
2567 29-03-2010 10:34:02 12.7 C 7.9 g/m*3 12.7 C 0 km/h
2568 29-03-2010 10:46:02 12.5 C 7.7 g/m*3 12.5 C 0 km/h
2569 29-03-2010 10:58:02 13 C 7.83 g/m*3 13 C 0 km/h
2570 29-03-2010 11:10:02 13.1 C 7.87 g/m*3 13.1 C 0 km/h
2571 29-03-2010 11:22:02 13.3 C 7.86 g/m*3 13.3 C 0 km/h
2572 29-03-2010 11:34:01 13.5 C 7.84 g/m*3 13.5 C 0 km/h
2573 29-03-2010 11:46:02 13.9 C 7.91 g/m*3 13.9 C 0 km/h
2574 29-03-2010 11:58:02 14 C 7.72 g/m*3 14 C 0 km/h
2575 29-03-2010 12:10:01 14.4 C 7.66 g/m*3 14.4 C 0 km/h
Sensor: Nr:Datum:Temp:Abs-Feuchte:Windchill:Wind:
Aussen-T/F 2576 29-03-2010 12:22:02 15 C 7.57 g/m*3 15 C 0 km/h
2577 29-03-2010 12:34:01 15.3 C 7.44 g/m*3 15.3 C 0 km/h
2578 29-03-2010 12:46:02 14.9 C 7.52 g/m*3 14.9 C 0 km/h
2579 29-03-2010 12:58:02 14.9 C 7.39 g/m*3 14.9 C 0 km/h
2580 29-03-2010 13:10:02 15.3 C 7.18 g/m*3 15.3 C 0 km/h
2581 29-03-2010 13:22:02 14.8 C 7.09 g/m*3 14.8 C 0 km/h
2582 29-03-2010 13:34:03 14.6 C 7.38 g/m*3 14.6 C 0 km/h
2583 29-03-2010 13:46:02 14.4 C 7.54 g/m*3 14.4 C 0 km/h
2584 29-03-2010 13:58:02 13.8 C 8.1 g/m*3 13.8 C 0 km/h
2585 29-03-2010 14:10:01 14.2 C 8.91 g/m*3 14.2 C 0 km/h
2586 29-03-2010 14:22:02 14.7 C 8.69 g/m*3 14.7 C 0 km/h
2587 29-03-2010 14:34:02 14.2 C 7.82 g/m*3 14.2 C 0 km/h
2588 29-03-2010 14:46:02 13.1 C 8.33 g/m*3 13.1 C 0 km/h
2589 29-03-2010 14:58:02 12.7 C 8.13 g/m*3 12.7 C 0 km/h
2590 29-03-2010 15:10:02 13.2 C 8.38 g/m*3 13.2 C 0 km/h
2591 29-03-2010 15:22:02 12.8 C 8.4 g/m*3 12.8 C 0 km/h
2592 29-03-2010 15:34:02 12.8 C 8.62 g/m*3 12.8 C 0 km/h
2593 29-03-2010 15:46:02 12.7 C 8.68 g/m*3 12.7 C 0 km/h
2594 29-03-2010 15:58:02 13.4 C 8.6 g/m*3 13.4 C 0 km/h
2595 29-03-2010 16:10:02 14 C 8.2 g/m*3 14 C 0 km/h
2596 29-03-2010 16:22:02 14.2 C 7.69 g/m*3 14.2 C 0 km/h
2597 29-03-2010 16:34:02 14.3 C 7.62 g/m*3 14.3 C 0 km/h
2598 29-03-2010 16:46:02 14 C 7.96 g/m*3 14 C 0 km/h
2599 29-03-2010 16:58:02 13.8 C 8.22 g/m*3 13.8 C 0 km/h
2600 29-03-2010 17:10:02 12.2 C 8.31 g/m*3 12.2 C 0 km/h
Sensor: Nr:Datum:Temp:Abs-Feuchte:Windchill:Wind:
Aussen-T/F 2601 29-03-2010 17:22:03 12.2 C 8.96 g/m*3 12.2 C 0 km/h
2602 29-03-2010 17:34:02 12.6 C 9.4 g/m*3 12.6 C 0 km/h
2603 29-03-2010 17:46:02 14.2 C 10.14 g/m*3 14.2 C 0 km/h
2604 29-03-2010 17:58:02 14.5 C 9.45 g/m*3 14.5 C 0 km/h
2605 29-03-2010 18:10:02 14.7 C 9.44 g/m*3 14.7 C 0 km/h
2606 29-03-2010 18:22:02 14.9 C 8.92 g/m*3 14.9 C 0 km/h
2607 29-03-2010 18:34:02 14.8 C 8.87 g/m*3 14.8 C 0 km/h
2608 29-03-2010 18:46:02 14.5 C 8.83 g/m*3 14.5 C 0 km/h
2609 29-03-2010 18:58:02 14.4 C 9.02 g/m*3 14.4 C 0 km/h
2610 29-03-2010 19:10:01 14.2 C 8.91 g/m*3 14.2 C 0 km/h
2611 29-03-2010 19:22:02 13.7 C 8.76 g/m*3 13.7 C 0 km/h
2612 29-03-2010 19:34:01 13 C 8.73 g/m*3 13 C 0 km/h
2613 29-03-2010 19:46:02 12.2 C 8.52 g/m*3 12.2 C 0 km/h
2614 29-03-2010 19:58:02 11.7 C 8.37 g/m*3 11.7 C 0 km/h
2615 29-03-2010 20:10:01 11.2 C 8.21 g/m*3 11.2 C 0 km/h
2616 29-03-2010 20:22:01 10.8 C 8.2 g/m*3 10.8 C 0 km/h
2617 29-03-2010 20:34:02 10.6 C 8.2 g/m*3 10.6 C 0 km/h
2618 29-03-2010 20:46:02 10.5 C 8.15 g/m*3 10.5 C 0 km/h
2619 29-03-2010 20:58:02 10.4 C 8.1 g/m*3 10.4 C 0 km/h
2620 29-03-2010 21:10:01 10.3 C 8.04 g/m*3 10.3 C 0 km/h
2621 29-03-2010 21:22:02 10.2 C 7.99 g/m*3 10.2 C 0 km/h
2622 29-03-2010 21:34:02 10.3 C 8.04 g/m*3 10.3 C 0 km/h
2623 29-03-2010 21:47:02 10.3 C 8.04 g/m*3 10.3 C 0 km/h
2624 29-03-2010 21:59:02 10.2 C 7.99 g/m*3 10.2 C 0 km/h
2625 29-03-2010 22:11:02 10 C 7.89 g/m*3 10 C 0 km/h
Sensor: Nr:Datum:Temp:Abs-Feuchte:Windchill:Wind:
Aussen-T/F 2626 29-03-2010 22:23:03 10 C 7.89 g/m*3 10 C 0 km/h
2627 29-03-2010 22:35:03 9.9 C 7.94 g/m*3 9.9 C 0 km/h
2628 29-03-2010 22:47:03 9.8 C 7.89 g/m*3 9.8 C 0 km/h
2629 29-03-2010 22:59:03 9.9 C 8.03 g/m*3 9.9 C 0 km/h
2630 29-03-2010 23:11:03 9.9 C 7.94 g/m*3 9.9 C 0 km/h
2631 29-03-2010 23:23:03 9.9 C 7.94 g/m*3 9.9 C 0 km/h
2632 29-03-2010 23:35:03 10.1 C 7.85 g/m*3 10.1 C 0 km/h
2633 29-03-2010 23:47:03 10.1 C 7.66 g/m*3 10.1 C 0 km/h
2634 29-03-2010 23:59:03 10.2 C 7.71 g/m*3 10.2 C 0 km/h
2635 30-03-2010 00:11:03 10.2 C 7.61 g/m*3 10.2 C 0 km/h
2636 30-03-2010 00:23:03 10.3 C 7.66 g/m*3 10.3 C 0 km/h
2637 30-03-2010 00:35:03 10.6 C 7.71 g/m*3 10.6 C 0 km/h
2638 30-03-2010 00:47:03 10.7 C 7.66 g/m*3 10.7 C 0 km/h
2639 30-03-2010 00:59:03 11.1 C 7.66 g/m*3 11.1 C 0 km/h
2640 30-03-2010 01:11:03 11.3 C 7.65 g/m*3 11.3 C 0 km/h
2641 30-03-2010 01:23:03 11.3 C 7.65 g/m*3 11.3 C 0 km/h
2642 30-03-2010 01:35:03 11.3 C 7.55 g/m*3 11.3 C 0 km/h
2643 30-03-2010 01:47:03 11 C 7.41 g/m*3 11 C 0 km/h
2644 30-03-2010 01:59:03 11.1 C 7.35 g/m*3 11.1 C 0 km/h
2645 30-03-2010 02:11:03 11.3 C 7.24 g/m*3 11.3 C 0 km/h
2646 30-03-2010 02:23:03 11.3 C 7.24 g/m*3 11.3 C 0 km/h
2647 30-03-2010 02:35:03 11.1 C 7.25 g/m*3 11.1 C 0 km/h
2648 30-03-2010 02:47:04 11.7 C 7.22 g/m*3 11.7 C 0 km/h
2649 30-03-2010 02:59:04 11.6 C 7.17 g/m*3 11.6 C 0 km/h
2650 30-03-2010 03:11:04 11.3 C 7.14 g/m*3 11.3 C 0 km/h
Sensor: Nr:Datum:Temp:Abs-Feuchte:Windchill:Wind:
Aussen-T/F 2651 30-03-2010 03:23:04 11.3 C 7.24 g/m*3 11.3 C 0 km/h
2652 30-03-2010 03:35:04 10.9 C 7.16 g/m*3 10.9 C 0 km/h
2653 30-03-2010 03:47:04 10.8 C 7.22 g/m*3 10.8 C 0 km/h
2654 30-03-2010 03:59:04 11 C 7.21 g/m*3 11 C 0 km/h
2655 30-03-2010 04:11:04 11.4 C 7.29 g/m*3 11.4 C 0 km/h
2656 30-03-2010 04:23:04 11.4 C 7.19 g/m*3 11.4 C 0 km/h
2657 30-03-2010 04:35:04 11.5 C 7.13 g/m*3 11.5 C 0 km/h
2658 30-03-2010 04:47:04 11.4 C 7.08 g/m*3 11.4 C 0 km/h
2659 30-03-2010 04:59:04 11.3 C 7.14 g/m*3 11.3 C 0 km/h
2660 30-03-2010 05:11:04 11.4 C 7.29 g/m*3 11.4 C 0 km/h
2661 30-03-2010 05:23:04 11.1 C 7.05 g/m*3 11.1 C 0 km/h
2662 30-03-2010 05:35:04 11 C 7.01 g/m*3 11 C 0 km/h
2663 30-03-2010 05:47:04 10.7 C 7.07 g/m*3 10.7 C 0 km/h
2664 30-03-2010 05:59:04 10.5 C 6.98 g/m*3 10.5 C 0 km/h
2665 30-03-2010 06:11:04 10.5 C 7.08 g/m*3 10.5 C 0 km/h
2666 30-03-2010 06:23:04 10.3 C 7.09 g/m*3 10.3 C 0 km/h
2667 30-03-2010 06:35:04 10 C 6.95 g/m*3 10 C 0 km/h
2668 30-03-2010 06:47:04 9.8 C 7.14 g/m*3 9.8 C 0 km/h
2669 30-03-2010 06:59:04 9.8 C 7.24 g/m*3 9.8 C 0 km/h
2670 30-03-2010 07:11:01 10 C 7.14 g/m*3 10 C 0 km/h
2671 30-03-2010 07:23:02 10.2 C 7.04 g/m*3 10.2 C 0 km/h
2672 30-03-2010 07:35:02 10.5 C 6.89 g/m*3 10.5 C 0 km/h
2673 30-03-2010 07:47:02 10.6 C 6.83 g/m*3 10.6 C 0 km/h
2674 30-03-2010 07:59:02 10.7 C 6.88 g/m*3 10.7 C 0 km/h
2675 30-03-2010 08:11:02 10.7 C 6.88 g/m*3 10.7 C 0 km/h
Sensor: Nr:Datum:Temp:Abs-Feuchte:Windchill:Wind:
Aussen-T/F 2676 30-03-2010 08:23:02 11 C 6.91 g/m*3 11 C 0 km/h
2677 30-03-2010 08:35:02 11.1 C 6.85 g/m*3 11.1 C 0 km/h
2678 30-03-2010 08:47:01 11.4 C 6.67 g/m*3 11.4 C 0 km/h
2679 30-03-2010 08:59:01 11.4 C 6.77 g/m*3 11.4 C 0 km/h
2680 30-03-2010 09:11:02 11.8 C 6.95 g/m*3 11.8 C 0 km/h
2681 30-03-2010 09:23:01 12.2 C 6.69 g/m*3 12.2 C 0 km/h
2682 30-03-2010 09:35:02 12.6 C 6.75 g/m*3 12.6 C 0 km/h
2683 30-03-2010 09:47:02 12.9 C 6.54 g/m*3 12.9 C 0 km/h
2684 30-03-2010 09:59:02 13.1 C 6.39 g/m*3 13.1 C 0 km/h
2685 30-03-2010 10:11:02 13.2 C 6.43 g/m*3 13.2 C 0 km/h
2686 30-03-2010 10:23:01 13.1 C 5.93 g/m*3 13.1 C 0 km/h
2687 30-03-2010 10:35:02 14.2 C 6.11 g/m*3 14.2 C 0 km/h
2688 30-03-2010 10:47:02 14.4 C 5.07 g/m*3 14.4 C 0 km/h
2689 30-03-2010 10:59:02 14.1 C 4.85 g/m*3 14.1 C 0 km/h
2690 30-03-2010 11:11:02 14.1 C 4.98 g/m*3 14.1 C 0 km/h
2691 30-03-2010 11:23:01 15 C 4.74 g/m*3 15 C 0 km/h
2692 30-03-2010 11:35:02 15.2 C 4.67 g/m*3 15.2 C 0 km/h
2693 30-03-2010 11:47:02 15.3 C 4.57 g/m*3 15.3 C 0 km/h
2694 30-03-2010 11:59:02 15.8 C 4.71 g/m*3 15.8 C 0 km/h
2695 30-03-2010 12:11:02 16 C 4.63 g/m*3 16 C 0 km/h
2696 30-03-2010 12:23:02 16.2 C 4.55 g/m*3 16.2 C 0 km/h
2697 30-03-2010 12:35:02 16.6 C 4.66 g/m*3 16.6 C 0 km/h
2698 30-03-2010 12:47:02 16.7 C 4.55 g/m*3 16.7 C 0 km/h
2699 30-03-2010 12:59:02 17.2 C 4.69 g/m*3 17.2 C 0 km/h
2700 30-03-2010 13:11:02 17.4 C 4.59 g/m*3 17.4 C 0 km/h
Sensor: Nr:Datum:Temp:Abs-Feuchte:Windchill:Wind:
Aussen-T/F 2701 30-03-2010 13:23:02 17.3 C 4.71 g/m*3 17.3 C 0 km/h
2702 30-03-2010 13:35:02 17.7 C 4.83 g/m*3 17.7 C 0 km/h
2703 30-03-2010 13:47:02 18.1 C 4.79 g/m*3 18.1 C 0 km/h
2704 30-03-2010 13:59:02 18.2 C 4.66 g/m*3 18.2 C 0 km/h
2705 30-03-2010 14:11:02 18.5 C 4.9 g/m*3 18.5 C 0 km/h
2706 30-03-2010 14:23:02 18.9 C 4.7 g/m*3 18.9 C 0 km/h
2707 30-03-2010 14:35:01 18.3 C 4.53 g/m*3 18.3 C 0 km/h
2708 30-03-2010 14:47:02 18 C 4.61 g/m*3 18 C 0 km/h
2709 30-03-2010 14:59:02 17.7 C 4.68 g/m*3 17.7 C 0 km/h
2710 30-03-2010 15:11:01 17.9 C 4.58 g/m*3 17.9 C 0 km/h
2711 30-03-2010 15:23:01 17.7 C 4.68 g/m*3 17.7 C 0 km/h
2712 30-03-2010 15:35:02 18.6 C 4.62 g/m*3 18.6 C 0 km/h
2713 30-03-2010 15:47:02 18.7 C 4.48 g/m*3 18.7 C 0 km/h
2714 30-03-2010 15:59:03 18.2 C 4.51 g/m*3 18.2 C 0 km/h
2715 30-03-2010 16:11:02 18.7 C 4.64 g/m*3 18.7 C 0 km/h
2716 30-03-2010 16:23:02 17.5 C 5.22 g/m*3 17.5 C 0 km/h
2717 30-03-2010 16:35:02 16.4 C 5.58 g/m*3 16.4 C 0 km/h
2718 30-03-2010 16:47:01 15.9 C 5.55 g/m*3 15.9 C 0 km/h
2719 30-03-2010 16:59:01 15.6 C 5.45 g/m*3 15.6 C 0 km/h
2720 30-03-2010 17:11:02 14.9 C 5.48 g/m*3 14.9 C 0 km/h
2721 30-03-2010 17:23:01 14.4 C 5.44 g/m*3 14.4 C 0 km/h
2722 30-03-2010 17:35:02 14.2 C 5.49 g/m*3 14.2 C 0 km/h
2723 30-03-2010 17:47:02 14 C 5.43 g/m*3 14 C 0 km/h
2724 30-03-2010 17:59:02 13.8 C 5.48 g/m*3 13.8 C 0 km/h
2725 30-03-2010 18:11:02 13.6 C 5.65 g/m*3 13.6 C 0 km/h
Sensor: Nr:Datum:Temp:Abs-Feuchte:Windchill:Wind:
Aussen-T/F 2726 30-03-2010 18:23:02 13.3 C 5.89 g/m*3 13.3 C 0 km/h
2727 30-03-2010 18:35:02 12.9 C 6.2 g/m*3 12.9 C 0 km/h
2728 30-03-2010 18:47:02 12 C 6.39 g/m*3 12 C 0 km/h
2729 30-03-2010 18:59:02 11.6 C 6.65 g/m*3 11.6 C 0 km/h
2730 30-03-2010 19:11:02 11.5 C 6.82 g/m*3 11.5 C 0 km/h
2731 30-03-2010 19:23:02 11.1 C 6.65 g/m*3 11.1 C 0 km/h
2732 30-03-2010 19:35:02 11.3 C 6.73 g/m*3 11.3 C 0 km/h
2733 30-03-2010 19:47:01 11.4 C 6.67 g/m*3 11.4 C 0 km/h
2734 30-03-2010 19:59:01 11.3 C 6.43 g/m*3 11.3 C 0 km/h
2735 30-03-2010 20:11:02 10.9 C 6.47 g/m*3 10.9 C 0 km/h
2736 30-03-2010 20:23:01 10.5 C 6.4 g/m*3 10.5 C 0 km/h
2737 30-03-2010 20:35:01 10.6 C 6.44 g/m*3 10.6 C 0 km/h
2738 30-03-2010 20:47:01 10.7 C 6.38 g/m*3 10.7 C 0 km/h
2739 30-03-2010 20:59:01 10.7 C 6.29 g/m*3 10.7 C 0 km/h
2740 30-03-2010 21:11:02 10.4 C 6.36 g/m*3 10.4 C 0 km/h
2741 30-03-2010 21:23:01 10.1 C 6.24 g/m*3 10.1 C 0 km/h
2742 30-03-2010 21:35:01 10 C 6.3 g/m*3 10 C 0 km/h
2743 30-03-2010 21:47:01 9.8 C 6.31 g/m*3 9.8 C 0 km/h
2744 30-03-2010 21:59:01 9.7 C 6.27 g/m*3 9.7 C 0 km/h
2745 30-03-2010 22:11:02 9.4 C 6.24 g/m*3 9.4 C 0 km/h
2746 30-03-2010 22:23:02 9.3 C 6.29 g/m*3 9.3 C 0 km/h
2747 30-03-2010 22:36:04 9.6 C 6.32 g/m*3 9.6 C 0 km/h
2748 30-03-2010 22:48:05 9.8 C 6.12 g/m*3 9.8 C 0 km/h
2749 30-03-2010 23:00:05 10.2 C 5.8 g/m*3 10.2 C 0 km/h
2750 30-03-2010 23:12:05 10.6 C 5.76 g/m*3 10.6 C 0 km/h
Sensor: Nr:Datum:Temp:Abs-Feuchte:Windchill:Wind:
Aussen-T/F 2751 30-03-2010 23:24:05 7.9 C 5.83 g/m*3 7.9 C 0 km/h
2752 30-03-2010 23:36:05 7.4 C 5.49 g/m*3 7.4 C 0 km/h
2753 30-03-2010 23:48:05 7.3 C 5.37 g/m*3 7.3 C 0 km/h
2754 31-03-2010 00:00:05 7.1 C 5.07 g/m*3 7.1 C 0 km/h
2755 31-03-2010 00:12:05 7 C 4.88 g/m*3 7 C 0 km/h
2756 31-03-2010 00:24:05 6.9 C 4.93 g/m*3 6.9 C 0 km/h
2757 31-03-2010 00:36:05 6.6 C 4.83 g/m*3 6.6 C 0 km/h
2758 31-03-2010 00:48:05 6.6 C 4.76 g/m*3 6.6 C 0 km/h
2759 31-03-2010 01:00:05 6.3 C 4.74 g/m*3 6.3 C 0 km/h
2760 31-03-2010 01:12:05 6.2 C 4.71 g/m*3 6.2 C 0 km/h
2761 31-03-2010 01:24:05 6.3 C 4.74 g/m*3 6.3 C 0 km/h
2762 31-03-2010 01:36:05 6.2 C 4.63 g/m*3 6.2 C 0 km/h
2763 31-03-2010 01:48:05 6.1 C 4.6 g/m*3 6.1 C 0 km/h
2764 31-03-2010 02:00:05 6 C 4.57 g/m*3 6 C 0 km/h
2765 31-03-2010 02:12:05 6 C 4.65 g/m*3 6 C 0 km/h
2766 31-03-2010 02:24:05 6 C 4.65 g/m*3 6 C 0 km/h
2767 31-03-2010 02:36:05 6 C 4.65 g/m*3 6 C 0 km/h
2768 31-03-2010 02:48:05 5.9 C 4.69 g/m*3 5.9 C 0 km/h
2769 31-03-2010 03:00:06 5.7 C 4.7 g/m*3 5.7 C 0 km/h
2770 31-03-2010 03:12:06 5.8 C 4.73 g/m*3 5.8 C 0 km/h
2771 31-03-2010 03:24:06 5.8 C 4.8 g/m*3 5.8 C 0 km/h
2772 31-03-2010 03:36:06 5.8 C 4.8 g/m*3 5.8 C 0 km/h
2773 31-03-2010 03:48:06 5.5 C 4.78 g/m*3 5.5 C 0 km/h
2774 31-03-2010 04:00:06 5.5 C 4.85 g/m*3 5.5 C 0 km/h
2775 31-03-2010 04:12:06 5.3 C 4.85 g/m*3 5.3 C 0 km/h
Sensor: Nr:Datum:Temp:Abs-Feuchte:Windchill:Wind:
Aussen-T/F 2776 31-03-2010 04:24:06 5.3 C 4.99 g/m*3 5.3 C 0 km/h
2777 31-03-2010 04:36:06 5.6 C 5.16 g/m*3 5.6 C 0 km/h
2778 31-03-2010 04:48:06 5.8 C 5.16 g/m*3 5.8 C 0 km/h
2779 31-03-2010 05:00:06 5.7 C 5.12 g/m*3 5.7 C 0 km/h
2780 31-03-2010 05:12:06 6.1 C 5.11 g/m*3 6.1 C 0 km/h
2781 31-03-2010 05:24:06 6.5 C 4.95 g/m*3 6.5 C 0 km/h
2782 31-03-2010 05:36:06 6.6 C 4.91 g/m*3 6.6 C 0 km/h
2783 31-03-2010 05:48:06 7.1 C 4.76 g/m*3 7.1 C 0 km/h
2784 31-03-2010 06:00:06 7 C 4.65 g/m*3 7 C 0 km/h
2785 31-03-2010 06:12:06 7.1 C 4.68 g/m*3 7.1 C 0 km/h
2786 31-03-2010 06:24:06 7.3 C 4.58 g/m*3 7.3 C 0 km/h
2787 31-03-2010 06:36:06 7.3 C 4.5 g/m*3 7.3 C 0 km/h
2788 31-03-2010 06:48:06 7.3 C 4.5 g/m*3 7.3 C 0 km/h
2789 31-03-2010 07:00:07 7.3 C 4.42 g/m*3 7.3 C 0 km/h
2790 31-03-2010 07:12:04 7.3 C 4.42 g/m*3 7.3 C 0 km/h
2791 31-03-2010 07:24:03 7.4 C 4.21 g/m*3 7.4 C 0 km/h
2792 31-03-2010 07:36:04 7.4 C 4.06 g/m*3 7.4 C 0 km/h
2793 31-03-2010 07:48:02 7.5 C 4.08 g/m*3 7.5 C 0 km/h
2794 31-03-2010 08:00:02 7.4 C 4.14 g/m*3 7.4 C 0 km/h
2795 31-03-2010 08:12:02 7.5 C 4.24 g/m*3 7.5 C 0 km/h
2796 31-03-2010 08:24:01 7.5 C 4.24 g/m*3 7.5 C 0 km/h
2797 31-03-2010 08:36:02 7.5 C 4.24 g/m*3 7.5 C 0 km/h
2798 31-03-2010 08:48:02 7.4 C 4.14 g/m*3 7.4 C 0 km/h
2799 31-03-2010 09:00:02 7.6 C 4.27 g/m*3 7.6 C 0 km/h
2800 31-03-2010 09:12:02 7.8 C 4.41 g/m*3 7.8 C 0 km/h
Sensor: Nr:Datum:Temp:Abs-Feuchte:Windchill:Wind:
Aussen-T/F 2801 31-03-2010 09:24:02 7.2 C 4.71 g/m*3 7.2 C 0 km/h
2802 31-03-2010 09:36:02 7.4 C 4.85 g/m*3 7.4 C 0 km/h
2803 31-03-2010 09:48:01 7.8 C 4.9 g/m*3 7.8 C 0 km/h
2804 31-03-2010 10:00:01 6.8 C 5.05 g/m*3 6.8 C 0 km/h
2805 31-03-2010 10:12:02 6 C 5.3 g/m*3 6 C 0 km/h
2806 31-03-2010 10:24:02 6.5 C 5.55 g/m*3 6.5 C 0 km/h
2807 31-03-2010 10:36:01 7.4 C 5.33 g/m*3 7.4 C 0 km/h
2808 31-03-2010 10:48:02 8.5 C 4.7 g/m*3 8.5 C 0 km/h
2809 31-03-2010 11:00:02 9.4 C 4.16 g/m*3 9.4 C 0 km/h
2810 31-03-2010 11:12:01 10.1 C 4.26 g/m*3 10.1 C 0 km/h
2811 31-03-2010 11:24:02 10.1 C 3.78 g/m*3 10.1 C 0 km/h
2812 31-03-2010 11:36:01 10.2 C 3.81 g/m*3 10.2 C 0 km/h
2813 31-03-2010 11:48:02 10.4 C 3.76 g/m*3 10.4 C 0 km/h
2814 31-03-2010 12:00:02 10.8 C 3.85 g/m*3 10.8 C 0 km/h
2815 31-03-2010 12:12:02 10.7 C 3.54 g/m*3 10.7 C 0 km/h
2816 31-03-2010 12:24:02 10.2 C 3.52 g/m*3 10.2 C 0 km/h
2817 31-03-2010 12:36:02 10.3 C 3.93 g/m*3 10.3 C 0 km/h
2818 31-03-2010 12:48:02 10.6 C 3.71 g/m*3 10.6 C 0 km/h
2819 31-03-2010 13:00:03 10.9 C 3.48 g/m*3 10.9 C 0 km/h
2820 31-03-2010 13:12:01 11.6 C 3.22 g/m*3 11.6 C 0 km/h
2821 31-03-2010 13:24:01 11.4 C 3.08 g/m*3 11.4 C 0 km/h
2822 31-03-2010 13:36:02 11.8 C 3.16 g/m*3 11.8 C 0 km/h
2823 31-03-2010 13:48:02 11.8 C 3.16 g/m*3 11.8 C 0 km/h
2824 31-03-2010 14:00:02 11.6 C 3.22 g/m*3 11.6 C 0 km/h
2825 31-03-2010 14:12:02 11.5 C 3.1 g/m*3 11.5 C 0 km/h
Sensor: Nr:Datum:Temp:Abs-Feuchte:Windchill:Wind:
Aussen-T/F 2826 31-03-2010 14:24:02 11.8 C 3.05 g/m*3 11.8 C 0 km/h
2827 31-03-2010 14:36:02 12.3 C 3.04 g/m*3 12.3 C 0 km/h
2828 31-03-2010 14:48:02 11.9 C 3.18 g/m*3 11.9 C 0 km/h
2829 31-03-2010 15:00:02 11.2 C 3.45 g/m*3 11.2 C 0 km/h
2830 31-03-2010 15:12:02 11.9 C 4.13 g/m*3 11.9 C 0 km/h
2831 31-03-2010 15:24:02 11.7 C 3.56 g/m*3 11.7 C 0 km/h
2832 31-03-2010 15:36:02 8.6 C 5.41 g/m*3 8.6 C 0 km/h
2833 31-03-2010 15:48:01 9.3 C 6.02 g/m*3 9.3 C 0 km/h
2834 31-03-2010 16:00:01 11.2 C 5.17 g/m*3 11.2 C 0 km/h
2835 31-03-2010 16:12:01 12.2 C 4.21 g/m*3 12.2 C 0 km/h
2836 31-03-2010 16:24:01 12.7 C 4.01 g/m*3 12.7 C 0 km/h
2837 31-03-2010 16:36:01 13.6 C 3.77 g/m*3 13.6 C 0 km/h
2838 31-03-2010 16:48:01 13.4 C 3.25 g/m*3 13.4 C 0 km/h
2839 31-03-2010 17:00:01 13.4 C 3.14 g/m*3 13.4 C 0 km/h
2840 31-03-2010 17:12:01 13 C 2.84 g/m*3 13 C 0 km/h
2841 31-03-2010 17:24:02 12.5 C 2.86 g/m*3 12.5 C 0 km/h
2842 31-03-2010 17:36:01 13.3 C 2.66 g/m*3 13.3 C 0 km/h
2843 31-03-2010 17:48:02 12.5 C 3.3 g/m*3 12.5 C 0 km/h
2844 31-03-2010 18:00:02 11.4 C 4 g/m*3 11.4 C 0 km/h
2845 31-03-2010 18:12:02 11.9 C 3.71 g/m*3 11.9 C 0 km/h
2846 31-03-2010 18:24:02 12.2 C 3.45 g/m*3 12.2 C 0 km/h
2847 31-03-2010 18:36:02 10.3 C 3.35 g/m*3 10.3 C 0 km/h
2848 31-03-2010 18:48:02 9.3 C 4.58 g/m*3 9.3 C 0 km/h
2849 31-03-2010 19:00:02 9.6 C 4.12 g/m*3 9.6 C 0 km/h
2850 31-03-2010 19:12:02 8.4 C 4.58 g/m*3 8.4 C 0 km/h
Sensor: Nr:Datum:Temp:Abs-Feuchte:Windchill:Wind:
Aussen-T/F 2851 31-03-2010 19:24:02 8.1 C 4.74 g/m*3 8.1 C 0 km/h
2852 31-03-2010 19:36:01 8.2 C 4.44 g/m*3 8.2 C 0 km/h
2853 31-03-2010 19:48:02 7.9 C 4.19 g/m*3 7.9 C 0 km/h
2854 31-03-2010 20:00:02 7.5 C 4.08 g/m*3 7.5 C 0 km/h
2855 31-03-2010 20:12:01 7.3 C 4.03 g/m*3 7.3 C 0 km/h
2856 31-03-2010 20:24:02 7.1 C 3.98 g/m*3 7.1 C 0 km/h
2857 31-03-2010 20:36:02 7 C 3.95 g/m*3 7 C 0 km/h
2858 31-03-2010 20:48:02 6.9 C 4.16 g/m*3 6.9 C 0 km/h
2859 31-03-2010 21:00:03 7 C 4.26 g/m*3 7 C 0 km/h
2860 31-03-2010 21:12:02 6.2 C 4.85 g/m*3 6.2 C 0 km/h
2861 31-03-2010 21:24:02 5.7 C 4.98 g/m*3 5.7 C 0 km/h
2862 31-03-2010 21:36:02 5.6 C 4.95 g/m*3 5.6 C 0 km/h
2863 31-03-2010 21:48:02 5.5 C 4.92 g/m*3 5.5 C 0 km/h
2864 31-03-2010 22:00:02 5.6 C 4.74 g/m*3 5.6 C 0 km/h
2865 31-03-2010 22:12:01 5.3 C 4.78 g/m*3 5.3 C 0 km/h
2866 31-03-2010 22:25:03 5.3 C 4.71 g/m*3 5.3 C 0 km/h
2867 31-03-2010 22:37:03 5.2 C 4.68 g/m*3 5.2 C 0 km/h
2868 31-03-2010 22:49:03 5.1 C 4.65 g/m*3 5.1 C 0 km/h
2869 31-03-2010 23:01:03 5.1 C 4.65 g/m*3 5.1 C 0 km/h
2870 31-03-2010 23:13:03 5.2 C 4.54 g/m*3 5.2 C 0 km/h
2871 31-03-2010 23:25:03 5.1 C 4.51 g/m*3 5.1 C 0 km/h
2872 31-03-2010 23:37:03 5.5 C 4.28 g/m*3 5.5 C 0 km/h
2873 31-03-2010 23:49:03 5.5 C 4.21 g/m*3 5.5 C 0 km/h
2874 01-04-2010 00:01:03 5.6 C 4.1 g/m*3 5.6 C 0 km/h
2875 01-04-2010 00:13:03 5.6 C 3.96 g/m*3 5.6 C 0 km/h
Sensor: Nr:Datum:Temp:Abs-Feuchte:Windchill:Wind:
Aussen-T/F 2876 01-04-2010 00:25:03 5.7 C 3.77 g/m*3 5.7 C 0 km/h
2877 01-04-2010 00:37:03 5.6 C 3.75 g/m*3 5.6 C 0 km/h
2878 01-04-2010 00:49:03 5.5 C 3.65 g/m*3 5.5 C 0 km/h
2879 01-04-2010 01:01:03 5.3 C 3.6 g/m*3 5.3 C 0 km/h
2880 01-04-2010 01:13:03 5.3 C 3.6 g/m*3 5.3 C 0 km/h
2881 01-04-2010 01:25:03 5.2 C 3.51 g/m*3 5.2 C 0 km/h
2882 01-04-2010 01:37:04 5 C 3.53 g/m*3 5 C 0 km/h
2883 01-04-2010 01:49:04 4.9 C 3.58 g/m*3 4.9 C 0 km/h
2884 01-04-2010 02:01:04 4.8 C 3.62 g/m*3 4.8 C 0 km/h
2885 01-04-2010 02:13:04 5 C 3.53 g/m*3 5 C 0 km/h
2886 01-04-2010 02:25:04 5.1 C 3.49 g/m*3 5.1 C 0 km/h
2887 01-04-2010 02:37:04 5 C 3.47 g/m*3 5 C 0 km/h
2888 01-04-2010 02:49:04 4.6 C 3.44 g/m*3 4.6 C 0 km/h
2889 01-04-2010 03:01:04 4.4 C 3.46 g/m*3 4.4 C 0 km/h
2890 01-04-2010 03:13:04 4.7 C 3.46 g/m*3 4.7 C 0 km/h
2891 01-04-2010 03:25:04 4.7 C 3.46 g/m*3 4.7 C 0 km/h
2892 01-04-2010 03:37:04 4.4 C 3.33 g/m*3 4.4 C 0 km/h
2893 01-04-2010 03:49:04 4.2 C 3.35 g/m*3 4.2 C 0 km/h
2894 01-04-2010 04:01:04 4.2 C 3.41 g/m*3 4.2 C 0 km/h
2895 01-04-2010 04:13:04 3.8 C 3.45 g/m*3 3.8 C 0 km/h
2896 01-04-2010 04:25:04 3.9 C 3.54 g/m*3 3.9 C 0 km/h
2897 01-04-2010 04:37:04 3.8 C 3.45 g/m*3 3.8 C 0 km/h
2898 01-04-2010 04:49:04 3.8 C 3.45 g/m*3 3.8 C 0 km/h
2899 01-04-2010 05:01:04 3.5 C 3.44 g/m*3 3.5 C 0 km/h
2900 01-04-2010 05:13:04 3.6 C 3.53 g/m*3 3.6 C 0 km/h
Sensor: Nr:Datum:Temp:Abs-Feuchte:Windchill:Wind:
Aussen-T/F 2901 01-04-2010 05:25:04 3.6 C 3.53 g/m*3 3.6 C 0 km/h
2902 01-04-2010 05:37:04 3.5 C 3.5 g/m*3 3.5 C 0 km/h
2903 01-04-2010 05:49:05 3.5 C 3.57 g/m*3 3.5 C 0 km/h
2904 01-04-2010 06:01:05 3.6 C 3.53 g/m*3 3.6 C 0 km/h
2905 01-04-2010 06:13:05 3.5 C 3.5 g/m*3 3.5 C 0 km/h
2906 01-04-2010 06:25:05 3.5 C 3.5 g/m*3 3.5 C 0 km/h
2907 01-04-2010 06:37:05 3.5 C 3.5 g/m*3 3.5 C 0 km/h
2908 01-04-2010 06:49:05 3.2 C 3.56 g/m*3 3.2 C 0 km/h
2909 01-04-2010 07:01:03 3.5 C 3.69 g/m*3 3.5 C 0 km/h
2910 01-04-2010 07:13:03 3.5 C 3.69 g/m*3 3.5 C 0 km/h
2911 01-04-2010 07:25:03 3.3 C 3.64 g/m*3 3.3 C 0 km/h
2912 01-04-2010 07:37:02 3.3 C 3.64 g/m*3 3.3 C 0 km/h
2913 01-04-2010 07:49:02 3.4 C 3.66 g/m*3 3.4 C 0 km/h
2914 01-04-2010 08:01:01 3.4 C 3.66 g/m*3 3.4 C 0 km/h
2915 01-04-2010 08:13:01 3.5 C 3.69 g/m*3 3.5 C 0 km/h
2916 01-04-2010 08:25:02 3.5 C 3.63 g/m*3 3.5 C 0 km/h
2917 01-04-2010 08:37:01 3.5 C 3.69 g/m*3 3.5 C 0 km/h
2918 01-04-2010 08:49:02 3.8 C 3.7 g/m*3 3.8 C 0 km/h
2919 01-04-2010 09:01:02 3.9 C 3.73 g/m*3 3.9 C 0 km/h
2920 01-04-2010 09:13:02 4.2 C 3.67 g/m*3 4.2 C 0 km/h
2921 01-04-2010 09:25:02 4.5 C 3.68 g/m*3 4.5 C 0 km/h
2922 01-04-2010 09:37:03 5.2 C 3.72 g/m*3 5.2 C 0 km/h
2923 01-04-2010 09:49:02 5.2 C 3.65 g/m*3 5.2 C 0 km/h
2924 01-04-2010 10:01:02 5.1 C 3.69 g/m*3 5.1 C 0 km/h
2925 01-04-2010 10:13:02 5.2 C 3.72 g/m*3 5.2 C 0 km/h
Sensor: Nr:Datum:Temp:Abs-Feuchte:Windchill:Wind:
Aussen-T/F 2926 01-04-2010 10:25:02 5.3 C 3.67 g/m*3 5.3 C 0 km/h
2927 01-04-2010 10:37:02 5.6 C 3.68 g/m*3 5.6 C 0 km/h
2928 01-04-2010 10:49:02 6.1 C 3.65 g/m*3 6.1 C 0 km/h
2929 01-04-2010 11:01:02 6.7 C 3.57 g/m*3 6.7 C 0 km/h
2930 01-04-2010 11:13:02 6.9 C 3.46 g/m*3 6.9 C 0 km/h
2931 01-04-2010 11:25:02 6.9 C 3.31 g/m*3 6.9 C 0 km/h
2932 01-04-2010 11:37:02 7.2 C 3.45 g/m*3 7.2 C 0 km/h
2933 01-04-2010 11:49:02 7.5 C 3.52 g/m*3 7.5 C 0 km/h
2934 01-04-2010 12:01:02 8 C 3.39 g/m*3 8 C 0 km/h
2935 01-04-2010 12:13:03 7.9 C 3.29 g/m*3 7.9 C 0 km/h
2936 01-04-2010 12:25:02 7.7 C 3.32 g/m*3 7.7 C 0 km/h
2937 01-04-2010 12:37:02 8 C 3.22 g/m*3 8 C 0 km/h
2938 01-04-2010 12:49:02 9.1 C 3.28 g/m*3 9.1 C 0 km/h
2939 01-04-2010 13:01:02 8.7 C 2.94 g/m*3 8.7 C 0 km/h
2940 01-04-2010 13:13:02 8.5 C 2.73 g/m*3 8.5 C 0 km/h
2941 01-04-2010 13:25:03 8.8 C 2.96 g/m*3 8.8 C 0 km/h
2942 01-04-2010 13:37:02 9.3 C 2.79 g/m*3 9.3 C 0 km/h
2943 01-04-2010 13:49:02 9 C 2.73 g/m*3 9 C 0 km/h
2944 01-04-2010 14:01:02 8.8 C 2.7 g/m*3 8.8 C 0 km/h
2945 01-04-2010 14:13:02 8.9 C 2.8 g/m*3 8.9 C 0 km/h
2946 01-04-2010 14:25:02 10.2 C 2.66 g/m*3 10.2 C 0 km/h
2947 01-04-2010 14:37:02 11 C 2.6 g/m*3 11 C 0 km/h
2948 01-04-2010 14:49:02 8.2 C 3.43 g/m*3 8.2 C 0 km/h
2949 01-04-2010 15:01:01 8.7 C 3.81 g/m*3 8.7 C 0 km/h
2950 01-04-2010 15:13:01 9.7 C 3.69 g/m*3 9.7 C 0 km/h
Sensor: Nr:Datum:Temp:Abs-Feuchte:Windchill:Wind:
Aussen-T/F 2951 01-04-2010 15:25:02 10.7 C 3.54 g/m*3 10.7 C 0 km/h
2952 01-04-2010 15:37:01 10.6 C 3.32 g/m*3 10.6 C 0 km/h
2953 01-04-2010 15:49:02 10.5 C 2.91 g/m*3 10.5 C 0 km/h
2954 01-04-2010 16:01:01 10.4 C 2.89 g/m*3 10.4 C 0 km/h
2955 01-04-2010 16:13:01 10.8 C 2.97 g/m*3 10.8 C 0 km/h
2956 01-04-2010 16:25:01 10.4 C 2.89 g/m*3 10.4 C 0 km/h
2957 01-04-2010 16:37:02 10.4 C 2.99 g/m*3 10.4 C 0 km/h
2958 01-04-2010 16:49:02 11 C 3.1 g/m*3 11 C 0 km/h
2959 01-04-2010 17:01:02 11 C 2.8 g/m*3 11 C 0 km/h
2960 01-04-2010 17:13:02 10.7 C 2.75 g/m*3 10.7 C 0 km/h
2961 01-04-2010 17:25:02 9.9 C 2.61 g/m*3 9.9 C 0 km/h
2962 01-04-2010 17:37:02 9.2 C 3.04 g/m*3 9.2 C 0 km/h
2963 01-04-2010 17:49:02 8.3 C 3.54 g/m*3 8.3 C 0 km/h
2964 01-04-2010 18:01:02 8.1 C 3.41 g/m*3 8.1 C 0 km/h
2965 01-04-2010 18:13:02 9.8 C 3.25 g/m*3 9.8 C 0 km/h
2966 01-04-2010 18:25:02 8.4 C 3.31 g/m*3 8.4 C 0 km/h
2967 01-04-2010 18:37:02 7.8 C 3.43 g/m*3 7.8 C 0 km/h
2968 01-04-2010 18:49:02 5.4 C 3.28 g/m*3 5.4 C 0 km/h
2969 01-04-2010 19:01:02 5.8 C 5.52 g/m*3 5.8 C 0 km/h
2970 01-04-2010 19:13:03 6.4 C 5.51 g/m*3 6.4 C 0 km/h
2971 01-04-2010 19:25:02 6.7 C 5.24 g/m*3 6.7 C 0 km/h
2972 01-04-2010 19:37:02 6.5 C 4.8 g/m*3 6.5 C 0 km/h
2973 01-04-2010 19:49:01 5.8 C 4.58 g/m*3 5.8 C 0 km/h
2974 01-04-2010 20:01:02 5.3 C 4.44 g/m*3 5.3 C 0 km/h
2975 01-04-2010 20:13:02 5 C 4.35 g/m*3 5 C 0 km/h
Sensor: Nr:Datum:Temp:Abs-Feuchte:Windchill:Wind:
Aussen-T/F 2976 01-04-2010 20:25:01 4.7 C 4.53 g/m*3 4.7 C 0 km/h
2977 01-04-2010 20:37:01 4.5 C 4.54 g/m*3 4.5 C 0 km/h
2978 01-04-2010 20:49:01 4.2 C 4.51 g/m*3 4.2 C 0 km/h
2979 01-04-2010 21:01:02 4.1 C 4.48 g/m*3 4.1 C 0 km/h
2980 01-04-2010 21:13:02 3.9 C 4.48 g/m*3 3.9 C 0 km/h
2981 01-04-2010 21:25:01 3.7 C 4.42 g/m*3 3.7 C 0 km/h
2982 01-04-2010 21:37:01 3.6 C 4.46 g/m*3 3.6 C 0 km/h
2983 01-04-2010 21:49:01 3.5 C 4.43 g/m*3 3.5 C 0 km/h
2984 01-04-2010 22:01:02 3.2 C 4.46 g/m*3 3.2 C 0 km/h
2985 01-04-2010 22:13:02 3.2 C 4.46 g/m*3 3.2 C 0 km/h
2986 01-04-2010 22:25:01 3.2 C 4.46 g/m*3 3.2 C 0 km/h
2987 01-04-2010 22:37:02 3.1 C 4.43 g/m*3 3.1 C 0 km/h
2988 01-04-2010 22:50:02 3 C 4.46 g/m*3 3 C 0 km/h
2989 01-04-2010 23:02:02 2.8 C 4.46 g/m*3 2.8 C 0 km/h
2990 01-04-2010 23:14:02 2.6 C 4.46 g/m*3 2.6 C 0 km/h
2991 01-04-2010 23:26:02 2.5 C 4.48 g/m*3 2.5 C 0 km/h
2992 01-04-2010 23:38:02 2.4 C 4.45 g/m*3 2.4 C 0 km/h
2993 01-04-2010 23:50:02 2.3 C 4.42 g/m*3 2.3 C 0 km/h
2994 02-04-2010 00:02:02 2.3 C 4.48 g/m*3 2.3 C 0 km/h
2995 02-04-2010 00:14:02 2.1 C 4.42 g/m*3 2.1 C 0 km/h
2996 02-04-2010 00:26:02 1.9 C 4.42 g/m*3 1.9 C 0 km/h
2997 02-04-2010 00:38:02 1.8 C 4.44 g/m*3 1.8 C 0 km/h
2998 02-04-2010 00:50:02 1.6 C 4.38 g/m*3 1.6 C 0 km/h
2999 02-04-2010 01:02:02 1.4 C 4.37 g/m*3 1.4 C 0 km/h
3000 02-04-2010 01:14:02 1.2 C 4.31 g/m*3 1.2 C 0 km/h
Sensor: Nr:Datum:Temp:Abs-Feuchte:Windchill:Wind:
Aussen-T/F 3001 02-04-2010 01:26:02 1.1 C 4.29 g/m*3 1.1 C 0 km/h
3002 02-04-2010 01:38:02 0.9 C 4.28 g/m*3 0.9 C 0 km/h
3003 02-04-2010 01:50:02 0.7 C 4.22 g/m*3 0.7 C 0 km/h
3004 02-04-2010 02:02:02 0.6 C 4.19 g/m*3 0.6 C 0 km/h
3005 02-04-2010 02:14:02 0.6 C 4.24 g/m*3 0.6 C 0 km/h
3006 02-04-2010 02:26:02 0.5 C 4.26 g/m*3 0.5 C 0 km/h
3007 02-04-2010 02:38:03 0.4 C 4.23 g/m*3 0.4 C 0 km/h
3008 02-04-2010 02:50:03 0.1 C 4.15 g/m*3 0.1 C 0 km/h
3009 02-04-2010 03:02:03 0.1 C 4.15 g/m*3 0.1 C 0 km/h
3010 02-04-2010 03:14:03 -0.1 C 4.14 g/m*3 -0.1 C 0 km/h
3011 02-04-2010 03:26:03 -0.1 C 4.14 g/m*3 -0.1 C 0 km/h
3012 02-04-2010 03:38:03 -0.2 C 4.16 g/m*3 -0.2 C 0 km/h
3013 02-04-2010 03:50:03 -0.3 C 4.13 g/m*3 -0.3 C 0 km/h
3014 02-04-2010 04:02:03 -0.3 C 4.13 g/m*3 -0.3 C 0 km/h
3015 02-04-2010 04:14:03 -0.5 C 4.07 g/m*3 -0.5 C 0 km/h
3016 02-04-2010 04:26:03 -0.4 C 4.1 g/m*3 -0.4 C 0 km/h
3017 02-04-2010 04:38:03 -0.5 C 4.12 g/m*3 -0.5 C 0 km/h
3018 02-04-2010 04:50:03 -0.8 C 3.99 g/m*3 -0.8 C 0 km/h
3019 02-04-2010 05:02:03 -0.9 C 3.96 g/m*3 -0.9 C 0 km/h
3020 02-04-2010 05:14:03 -0.9 C 4.01 g/m*3 -0.9 C 0 km/h
3021 02-04-2010 05:26:03 -1 C 3.98 g/m*3 -1 C 0 km/h
3022 02-04-2010 05:38:03 -1 C 3.98 g/m*3 -1 C 0 km/h
3023 02-04-2010 05:50:03 -0.9 C 4.05 g/m*3 -0.9 C 0 km/h
3024 02-04-2010 06:02:03 -1 C 4.02 g/m*3 -1 C 0 km/h
3025 02-04-2010 06:14:03 -1 C 4.07 g/m*3 -1 C 0 km/h
Sensor: Nr:Datum:Temp:Abs-Feuchte:Windchill:Wind:
Aussen-T/F 3026 02-04-2010 06:26:03 -1 C 4.07 g/m*3 -1 C 0 km/h
3027 02-04-2010 06:38:04 -1 C 4.11 g/m*3 -1 C 0 km/h
3028 02-04-2010 06:50:04 -1 C 4.11 g/m*3 -1 C 0 km/h
3029 02-04-2010 07:02:04 -1 C 4.11 g/m*3 -1 C 0 km/h
3030 02-04-2010 07:14:04 -0.9 C 4.19 g/m*3 -0.9 C 0 km/h
3031 02-04-2010 07:26:04 -0.9 C 4.19 g/m*3 -0.9 C 0 km/h
3032 02-04-2010 07:38:04 -0.8 C 4.22 g/m*3 -0.8 C 0 km/h
3033 02-04-2010 07:50:04 -0.9 C 4.19 g/m*3 -0.9 C 0 km/h
3034 02-04-2010 08:02:04 -0.4 C 4.34 g/m*3 -0.4 C 0 km/h
3035 02-04-2010 08:14:04 -0.3 C 4.41 g/m*3 -0.3 C 0 km/h
3036 02-04-2010 08:26:04 -0.1 C 4.43 g/m*3 -0.1 C 0 km/h
3037 02-04-2010 08:38:04 0.3 C 4.55 g/m*3 0.3 C 0 km/h
3038 02-04-2010 08:50:04 0.2 C 4.52 g/m*3 0.2 C 0 km/h
3039 02-04-2010 09:02:04 0.3 C 4.5 g/m*3 0.3 C 0 km/h
3040 02-04-2010 09:14:04 0.7 C 4.58 g/m*3 0.7 C 0 km/h
3041 02-04-2010 09:26:02 1.2 C 4.68 g/m*3 1.2 C 0 km/h
3042 02-04-2010 09:38:02 1.5 C 4.73 g/m*3 1.5 C 0 km/h
3043 02-04-2010 09:50:01 1.8 C 4.77 g/m*3 1.8 C 0 km/h
3044 02-04-2010 10:02:02 2.2 C 4.79 g/m*3 2.2 C 0 km/h
3045 02-04-2010 10:14:02 2.7 C 4.89 g/m*3 2.7 C 0 km/h
3046 02-04-2010 10:26:02 3.3 C 4.97 g/m*3 3.3 C 0 km/h
3047 02-04-2010 10:38:01 4.2 C 5.22 g/m*3 4.2 C 0 km/h
3048 02-04-2010 10:50:01 5 C 5.37 g/m*3 5 C 0 km/h
3049 02-04-2010 11:02:01 5.7 C 5.34 g/m*3 5.7 C 0 km/h
3050 02-04-2010 11:14:01 6.9 C 5.62 g/m*3 6.9 C 0 km/h
Sensor: Nr:Datum:Temp:Abs-Feuchte:Windchill:Wind:
Aussen-T/F 3051 02-04-2010 11:26:02 8.1 C 4.83 g/m*3 8.1 C 0 km/h
3052 02-04-2010 11:38:01 9 C 4.67 g/m*3 9 C 0 km/h
3053 02-04-2010 11:50:02 9.9 C 4.67 g/m*3 9.9 C 0 km/h
3054 02-04-2010 12:02:02 10 C 4.23 g/m*3 10 C 0 km/h
3055 02-04-2010 12:14:02 10.3 C 4.21 g/m*3 10.3 C 0 km/h
3056 02-04-2010 12:26:02 10.5 C 4.07 g/m*3 10.5 C 0 km/h
3057 02-04-2010 12:38:02 10.9 C 4.08 g/m*3 10.9 C 0 km/h
3058 02-04-2010 12:50:02 11.4 C 4 g/m*3 11.4 C 0 km/h
3059 02-04-2010 13:02:02 11.3 C 3.88 g/m*3 11.3 C 0 km/h
3060 02-04-2010 13:14:02 11.7 C 3.66 g/m*3 11.7 C 0 km/h
3061 02-04-2010 13:26:02 11.5 C 3.41 g/m*3 11.5 C 0 km/h
3062 02-04-2010 13:38:02 11.7 C 3.45 g/m*3 11.7 C 0 km/h
3063 02-04-2010 13:50:01 12.5 C 3.52 g/m*3 12.5 C 0 km/h
3064 02-04-2010 14:02:02 12.5 C 3.41 g/m*3 12.5 C 0 km/h
3065 02-04-2010 14:14:02 12.1 C 3.32 g/m*3 12.1 C 0 km/h
3066 02-04-2010 14:26:01 12.8 C 3.36 g/m*3 12.8 C 0 km/h
3067 02-04-2010 14:38:02 12.7 C 3.23 g/m*3 12.7 C 0 km/h
3068 02-04-2010 14:50:02 13.6 C 3.18 g/m*3 13.6 C 0 km/h
3069 02-04-2010 15:02:02 12.7 C 3.01 g/m*3 12.7 C 0 km/h
3070 02-04-2010 15:14:02 12.5 C 3.08 g/m*3 12.5 C 0 km/h
3071 02-04-2010 15:26:01 13.6 C 3.06 g/m*3 13.6 C 0 km/h
3072 02-04-2010 15:38:02 12.8 C 3.14 g/m*3 12.8 C 0 km/h
3073 02-04-2010 15:50:02 14.4 C 3.21 g/m*3 14.4 C 0 km/h
3074 02-04-2010 16:02:02 13.7 C 2.72 g/m*3 13.7 C 0 km/h
3075 02-04-2010 16:14:02 14.5 C 2.86 g/m*3 14.5 C 0 km/h
Sensor: Nr:Datum:Temp:Abs-Feuchte:Windchill:Wind:
Aussen-T/F 3076 02-04-2010 16:26:01 14.8 C 2.53 g/m*3 14.8 C 0 km/h
3077 02-04-2010 16:38:02 15.6 C 2.66 g/m*3 15.6 C 0 km/h
3078 02-04-2010 16:50:02 14.6 C 2.5 g/m*3 14.6 C 0 km/h
3079 02-04-2010 17:02:02 15.2 C 2.6 g/m*3 15.2 C 0 km/h
3080 02-04-2010 17:14:02 16.6 C 2.83 g/m*3 16.6 C 0 km/h
3081 02-04-2010 17:26:02 15.9 C 2.71 g/m*3 15.9 C 0 km/h
3082 02-04-2010 17:38:02 16 C 2.72 g/m*3 16 C 0 km/h
3083 02-04-2010 17:50:02 15.1 C 2.58 g/m*3 15.1 C 0 km/h
3084 02-04-2010 18:02:02 13.8 C 2.38 g/m*3 13.8 C 0 km/h
3085 02-04-2010 18:14:02 13.3 C 2.31 g/m*3 13.3 C 0 km/h
3086 02-04-2010 18:26:02 13.1 C 2.28 g/m*3 13.1 C 0 km/h
3087 02-04-2010 18:38:02 12.8 C 2.24 g/m*3 12.8 C 0 km/h
3088 02-04-2010 18:50:02 12.3 C 2.39 g/m*3 12.3 C 0 km/h
3089 02-04-2010 19:02:01 12.2 C 2.7 g/m*3 12.2 C 0 km/h
3090 02-04-2010 19:14:01 12 C 2.77 g/m*3 12 C 0 km/h
3091 02-04-2010 19:26:02 11.8 C 2.84 g/m*3 11.8 C 0 km/h
3092 02-04-2010 19:38:01 11.6 C 3.01 g/m*3 11.6 C 0 km/h
3093 02-04-2010 19:50:02 11.4 C 2.98 g/m*3 11.4 C 0 km/h
3094 02-04-2010 20:02:01 11.3 C 3.06 g/m*3 11.3 C 0 km/h
3095 02-04-2010 20:14:01 11.1 C 3.02 g/m*3 11.1 C 0 km/h
3096 02-04-2010 20:26:01 10.8 C 3.06 g/m*3 10.8 C 0 km/h
3097 02-04-2010 20:38:02 10.7 C 3.24 g/m*3 10.7 C 0 km/h
3098 02-04-2010 20:50:02 10.7 C 3.04 g/m*3 10.7 C 0 km/h
3099 02-04-2010 21:02:02 10.7 C 3.14 g/m*3 10.7 C 0 km/h
3100 02-04-2010 21:14:02 10.5 C 3.3 g/m*3 10.5 C 0 km/h
Sensor: Nr:Datum:Temp:Abs-Feuchte:Windchill:Wind:
Aussen-T/F 3101 02-04-2010 21:26:02 10.3 C 3.26 g/m*3 10.3 C 0 km/h
3102 02-04-2010 21:38:02 10.3 C 3.35 g/m*3 10.3 C 0 km/h
3103 02-04-2010 21:50:01 10 C 3.38 g/m*3 10 C 0 km/h
3104 02-04-2010 22:02:01 9.7 C 3.5 g/m*3 9.7 C 0 km/h
3105 02-04-2010 22:14:01 9.5 C 3.64 g/m*3 9.5 C 0 km/h
3106 02-04-2010 22:26:02 9.6 C 3.66 g/m*3 9.6 C 0 km/h
3107 02-04-2010 22:38:01 9.8 C 3.71 g/m*3 9.8 C 0 km/h
3108 02-04-2010 22:50:03 9.9 C 3.83 g/m*3 9.9 C 0 km/h
3109 02-04-2010 23:02:02 9.4 C 4.25 g/m*3 9.4 C 0 km/h
3110 02-04-2010 23:14:02 9 C 4.76 g/m*3 9 C 0 km/h
3111 02-04-2010 23:26:02 8.7 C 4.84 g/m*3 8.7 C 0 km/h
3112 02-04-2010 23:38:02 8.3 C 5.06 g/m*3 8.3 C 0 km/h
3113 02-04-2010 23:50:02 8.1 C 5.33 g/m*3 8.1 C 0 km/h
3114 03-04-2010 00:02:02 8 C 5.37 g/m*3 8 C 0 km/h
3115 03-04-2010 00:14:02 7.6 C 5.8 g/m*3 7.6 C 0 km/h
3116 03-04-2010 00:26:02 7.4 C 6.12 g/m*3 7.4 C 0 km/h
3117 03-04-2010 00:38:02 7.4 C 6.28 g/m*3 7.4 C 0 km/h
3118 03-04-2010 00:50:02 7.4 C 6.36 g/m*3 7.4 C 0 km/h
3119 03-04-2010 01:02:01 7.3 C 6.32 g/m*3 7.3 C 0 km/h
3120 03-04-2010 01:14:01 7.2 C 6.28 g/m*3 7.2 C 0 km/h
3121 03-04-2010 01:26:02 7.4 C 6.36 g/m*3 7.4 C 0 km/h
3122 03-04-2010 01:38:02 7.3 C 6.24 g/m*3 7.3 C 0 km/h
3123 03-04-2010 01:50:02 7.3 C 6.24 g/m*3 7.3 C 0 km/h
3124 03-04-2010 02:02:03 7.3 C 6.24 g/m*3 7.3 C 0 km/h
3125 03-04-2010 02:14:03 7 C 6.04 g/m*3 7 C 0 km/h
Sensor: Nr:Datum:Temp:Abs-Feuchte:Windchill:Wind:
Aussen-T/F 3126 03-04-2010 02:26:02 7.1 C 6.16 g/m*3 7.1 C 0 km/h
3127 03-04-2010 02:38:02 7.3 C 6.16 g/m*3 7.3 C 0 km/h
3128 03-04-2010 02:50:01 7.4 C 6.12 g/m*3 7.4 C 0 km/h
3129 03-04-2010 03:02:01 7.5 C 6.08 g/m*3 7.5 C 0 km/h
3130 03-04-2010 03:14:02 7.7 C 6 g/m*3 7.7 C 0 km/h
3131 03-04-2010 03:26:02 7.6 C 5.88 g/m*3 7.6 C 0 km/h
3132 03-04-2010 03:38:02 7.5 C 5.84 g/m*3 7.5 C 0 km/h
3133 03-04-2010 03:50:02 7.2 C 5.81 g/m*3 7.2 C 0 km/h
3134 03-04-2010 04:02:01 7.3 C 5.93 g/m*3 7.3 C 0 km/h
3135 03-04-2010 04:14:01 7.1 C 5.93 g/m*3 7.1 C 0 km/h
3136 03-04-2010 04:26:01 7 C 5.89 g/m*3 7 C 0 km/h
3137 03-04-2010 04:38:02 7 C 5.89 g/m*3 7 C 0 km/h
3138 03-04-2010 04:50:01 7.1 C 5.93 g/m*3 7.1 C 0 km/h
3139 03-04-2010 05:02:02 6.9 C 5.93 g/m*3 6.9 C 0 km/h
3140 03-04-2010 05:14:02 6.9 C 5.93 g/m*3 6.9 C 0 km/h
3141 03-04-2010 05:26:01 6.8 C 5.81 g/m*3 6.8 C 0 km/h
3142 03-04-2010 05:38:02 6.5 C 5.7 g/m*3 6.5 C 0 km/h
3143 03-04-2010 05:50:01 6.3 C 5.7 g/m*3 6.3 C 0 km/h
3144 03-04-2010 06:02:02 6.1 C 5.7 g/m*3 6.1 C 0 km/h
3145 03-04-2010 06:14:02 6.4 C 5.81 g/m*3 6.4 C 0 km/h
3146 03-04-2010 06:26:01 6.5 C 5.85 g/m*3 6.5 C 0 km/h
3147 03-04-2010 06:38:01 6.6 C 5.89 g/m*3 6.6 C 0 km/h
3148 03-04-2010 06:50:01 6.8 C 5.97 g/m*3 6.8 C 0 km/h
3149 03-04-2010 07:02:01 6.6 C 5.81 g/m*3 6.6 C 0 km/h
3150 03-04-2010 07:14:02 6.4 C 5.81 g/m*3 6.4 C 0 km/h
Sensor: Nr:Datum:Temp:Abs-Feuchte:Windchill:Wind:
Aussen-T/F 3151 03-04-2010 07:26:01 6.4 C 5.81 g/m*3 6.4 C 0 km/h
3152 03-04-2010 07:38:01 6.6 C 5.89 g/m*3 6.6 C 0 km/h
3153 03-04-2010 07:50:01 6.7 C 5.85 g/m*3 6.7 C 0 km/h
3154 03-04-2010 08:02:01 7.1 C 5.85 g/m*3 7.1 C 0 km/h
3155 03-04-2010 08:14:01 7.5 C 5.76 g/m*3 7.5 C 0 km/h
3156 03-04-2010 08:26:01 7.8 C 5.71 g/m*3 7.8 C 0 km/h
3157 03-04-2010 08:38:01 8 C 5.54 g/m*3 8 C 0 km/h
3158 03-04-2010 08:50:01 8.6 C 5.59 g/m*3 8.6 C 0 km/h
3159 03-04-2010 09:02:01 8.9 C 5.43 g/m*3 8.9 C 0 km/h
3160 03-04-2010 09:14:01 9.2 C 5.45 g/m*3 9.2 C 0 km/h
3161 03-04-2010 09:26:01 9.4 C 5.43 g/m*3 9.4 C 0 km/h
3162 03-04-2010 09:38:01 9.9 C 5.51 g/m*3 9.9 C 0 km/h
3163 03-04-2010 09:50:01 10.2 C 5.42 g/m*3 10.2 C 0 km/h
3164 03-04-2010 10:02:01 10.3 C 5.27 g/m*3 10.3 C 0 km/h
3165 03-04-2010 10:14:01 10.4 C 5.3 g/m*3 10.4 C 0 km/h
3166 03-04-2010 10:26:01 10.6 C 5.27 g/m*3 10.6 C 0 km/h
3167 03-04-2010 10:38:01 10.9 C 5.27 g/m*3 10.9 C 0 km/h
3168 03-04-2010 10:50:01 10.9 C 5.17 g/m*3 10.9 C 0 km/h
3169 03-04-2010 11:02:01 11.2 C 4.87 g/m*3 11.2 C 0 km/h
3170 03-04-2010 11:14:01 11.4 C 4.93 g/m*3 11.4 C 0 km/h
3171 03-04-2010 11:26:02 11.9 C 5.19 g/m*3 11.9 C 0 km/h
3172 03-04-2010 11:38:01 11.9 C 4.98 g/m*3 11.9 C 0 km/h
3173 03-04-2010 11:50:02 12.2 C 4.86 g/m*3 12.2 C 0 km/h
3174 03-04-2010 12:02:01 11.9 C 4.77 g/m*3 11.9 C 0 km/h
3175 03-04-2010 12:14:01 11.9 C 4.77 g/m*3 11.9 C 0 km/h
Sensor: Nr:Datum:Temp:Abs-Feuchte:Windchill:Wind:
Aussen-T/F 3176 03-04-2010 12:26:02 11.8 C 4.84 g/m*3 11.8 C 0 km/h
3177 03-04-2010 12:38:01 12.2 C 4.75 g/m*3 12.2 C 0 km/h
3178 03-04-2010 12:50:02 12.2 C 4.64 g/m*3 12.2 C 0 km/h
3179 03-04-2010 13:02:01 11.5 C 4.85 g/m*3 11.5 C 0 km/h
3180 03-04-2010 13:14:01 10.9 C 5.17 g/m*3 10.9 C 0 km/h
3181 03-04-2010 13:26:01 11.7 C 5.12 g/m*3 11.7 C 0 km/h
3182 03-04-2010 13:38:02 12.4 C 4.92 g/m*3 12.4 C 0 km/h
3183 03-04-2010 13:50:01 12.3 C 4.78 g/m*3 12.3 C 0 km/h
3184 03-04-2010 14:02:01 11.9 C 4.66 g/m*3 11.9 C 0 km/h
3185 03-04-2010 14:14:01 12.3 C 4.45 g/m*3 12.3 C 0 km/h
3186 03-04-2010 14:26:01 12.5 C 4.4 g/m*3 12.5 C 0 km/h
3187 03-04-2010 14:38:02 12.5 C 4.29 g/m*3 12.5 C 0 km/h
3188 03-04-2010 14:50:01 12.5 C 4.18 g/m*3 12.5 C 0 km/h
3189 03-04-2010 15:02:02 12.7 C 4.34 g/m*3 12.7 C 0 km/h
3190 03-04-2010 15:14:02 12.7 C 4.45 g/m*3 12.7 C 0 km/h
3191 03-04-2010 15:26:01 12.2 C 4.64 g/m*3 12.2 C 0 km/h
3192 03-04-2010 15:38:01 12.3 C 4.99 g/m*3 12.3 C 0 km/h
3193 03-04-2010 15:50:01 12.9 C 4.62 g/m*3 12.9 C 0 km/h
3194 03-04-2010 16:02:01 13.1 C 4.34 g/m*3 13.1 C 0 km/h
3195 03-04-2010 16:14:02 13.4 C 4.3 g/m*3 13.4 C 0 km/h
3196 03-04-2010 16:26:01 13.4 C 4.3 g/m*3 13.4 C 0 km/h
3197 03-04-2010 16:38:01 13.1 C 4.34 g/m*3 13.1 C 0 km/h
3198 03-04-2010 16:50:01 13.3 C 4.51 g/m*3 13.3 C 0 km/h
3199 03-04-2010 17:02:01 13.2 C 4.59 g/m*3 13.2 C 0 km/h
3200 03-04-2010 17:14:01 13.5 C 4.44 g/m*3 13.5 C 0 km/h
Sensor: Nr:Datum:Temp:Abs-Feuchte:Windchill:Wind:
Aussen-T/F 3201 03-04-2010 17:26:02 13.2 C 4.59 g/m*3 13.2 C 0 km/h
3202 03-04-2010 17:38:01 12.9 C 4.62 g/m*3 12.9 C 0 km/h
3203 03-04-2010 17:50:02 13.3 C 4.74 g/m*3 13.3 C 0 km/h
3204 03-04-2010 18:02:01 12.9 C 4.62 g/m*3 12.9 C 0 km/h
3205 03-04-2010 18:14:01 12 C 4.58 g/m*3 12 C 0 km/h
3206 03-04-2010 18:26:02 12.1 C 4.72 g/m*3 12.1 C 0 km/h
3207 03-04-2010 18:38:01 11.9 C 4.87 g/m*3 11.9 C 0 km/h
3208 03-04-2010 18:50:02 11.7 C 4.92 g/m*3 11.7 C 0 km/h
3209 03-04-2010 19:02:01 11.4 C 4.82 g/m*3 11.4 C 0 km/h
3210 03-04-2010 19:14:01 11.4 C 4.93 g/m*3 11.4 C 0 km/h
3211 03-04-2010 19:26:01 11.2 C 4.87 g/m*3 11.2 C 0 km/h
3212 03-04-2010 19:38:02 11.1 C 4.94 g/m*3 11.1 C 0 km/h
3213 03-04-2010 19:50:01 10.7 C 5.01 g/m*3 10.7 C 0 km/h
3214 03-04-2010 20:02:02 10.7 C 5.11 g/m*3 10.7 C 0 km/h
3215 03-04-2010 20:14:02 10.5 C 5.14 g/m*3 10.5 C 0 km/h
3216 03-04-2010 20:26:01 10.5 C 5.14 g/m*3 10.5 C 0 km/h
3217 03-04-2010 20:38:02 10.4 C 5.2 g/m*3 10.4 C 0 km/h
3218 03-04-2010 20:50:01 10.3 C 5.27 g/m*3 10.3 C 0 km/h
3219 03-04-2010 21:02:02 10.3 C 5.36 g/m*3 10.3 C 0 km/h
3220 03-04-2010 21:14:02 10.3 C 5.27 g/m*3 10.3 C 0 km/h
3221 03-04-2010 21:26:01 10.2 C 5.33 g/m*3 10.2 C 0 km/h
3222 03-04-2010 21:38:01 10.1 C 5.39 g/m*3 10.1 C 0 km/h
3223 03-04-2010 21:50:01 9.9 C 5.42 g/m*3 9.9 C 0 km/h
3224 03-04-2010 22:02:02 9.7 C 5.44 g/m*3 9.7 C 0 km/h
3225 03-04-2010 22:14:02 9.5 C 5.46 g/m*3 9.5 C 0 km/h
Sensor: Nr:Datum:Temp:Abs-Feuchte:Windchill:Wind:
Aussen-T/F 3226 03-04-2010 22:27:04 9.4 C 5.43 g/m*3 9.4 C 0 km/h
3227 03-04-2010 22:39:04 9.3 C 5.48 g/m*3 9.3 C 0 km/h
3228 03-04-2010 22:51:04 9.2 C 5.45 g/m*3 9.2 C 0 km/h
3229 03-04-2010 23:03:04 9.1 C 5.41 g/m*3 9.1 C 0 km/h
3230 03-04-2010 23:15:04 9.2 C 5.54 g/m*3 9.2 C 0 km/h
3231 03-04-2010 23:27:05 9.2 C 5.54 g/m*3 9.2 C 0 km/h
3232 03-04-2010 23:39:05 9.3 C 5.48 g/m*3 9.3 C 0 km/h
3233 03-04-2010 23:51:05 9 C 5.38 g/m*3 9 C 0 km/h
3234 04-04-2010 00:03:05 8.6 C 5.5 g/m*3 8.6 C 0 km/h
3235 04-04-2010 00:15:05 8.9 C 5.61 g/m*3 8.9 C 0 km/h
3236 04-04-2010 00:27:05 8.9 C 5.61 g/m*3 8.9 C 0 km/h
3237 04-04-2010 00:39:05 8.9 C 5.61 g/m*3 8.9 C 0 km/h
3238 04-04-2010 00:51:05 8.9 C 5.61 g/m*3 8.9 C 0 km/h
3239 04-04-2010 01:03:05 8.9 C 5.61 g/m*3 8.9 C 0 km/h
3240 04-04-2010 01:15:05 9 C 5.55 g/m*3 9 C 0 km/h
3241 04-04-2010 01:27:05 9 C 5.55 g/m*3 9 C 0 km/h
3242 04-04-2010 01:39:05